Darstellungsparameter: Aktuell verwendete Einstellungen:
Skalierung der Graphiken ... ?
xyx+y,   Skalierungsfaktor:      Skalierung: Modus: x, Faktor: 1
Darstellungszeitraum ... ?
Vom - - bis: - -   Zeitraum: 24.02.2016 - 23.08.2016
Min/Max/Avg-Anzeige ... ?
Zeige MMA aktuell
Zeige MMA Monat
Zeige MMA alles
Zeige --A aktuell
Zeige --A Monat
Zeige --A alles
Keine MMA-Anzeige
MMA:
Keine MMA-Graphiken
MMA-Basis: 24.02.2016 - 23.08.2016
Quicknavigation für Darstellung... ?
Tage:      1T, 2T, 3T, 5T -1T -2T -3T -5T +1T +2T +3T +5T
Wochen: 1W, 2W, 3W -1W -2W -3W +1W +2W +3W
Monate: 1M, 3M, 6M -1M -3M -6M +1M +3M +6M
Jahre:    1J, 3J, 5J, 10J -1J -3J -5J -10J +1J +3J +5J +10J
Nutze für die Darstellung ... ?
Originaldaten oder Mittelwerte auf ...
Stundenbasis Tagesbasis Wochenbasis
Monatsbasis Jahresbasis      Datenbasis: Original-Daten
Darstellen als:
Statistik (Auto) Statistik J:M      Darstellung:
Zur Graphik,    zurück zur Übersicht aller Sensoren.
 
Tabellarische Datenbersicht: ?
 
Sensor: Nr:Datum:Temp:Feuchte:Taupunkt:
Aussen-T/F 1 24-02-2016 00:00:00 1.9 C 96 % 1.33 C
2 24-02-2016 00:05:00 1.9 C 96 % 1.33 C
3 24-02-2016 00:10:00 2 C 96 % 1.43 C
4 24-02-2016 00:15:00 2.1 C 97 % 1.67 C
5 24-02-2016 00:20:00 2.2 C 97 % 1.77 C
6 24-02-2016 00:25:00 2.2 C 97 % 1.77 C
7 24-02-2016 00:30:00 2.3 C 97 % 1.87 C
8 24-02-2016 00:35:00 2.4 C 97 % 1.97 C
9 24-02-2016 00:40:00 2.4 C 97 % 1.97 C
10 24-02-2016 00:45:00 2.4 C 97 % 1.97 C
11 24-02-2016 00:50:00 2.5 C 97 % 2.07 C
12 24-02-2016 00:55:00 2.6 C 97 % 2.17 C
13 24-02-2016 01:00:00 2.6 C 97 % 2.17 C
14 24-02-2016 01:05:00 2.6 C 97 % 2.17 C
15 24-02-2016 01:10:00 2.6 C 96 % 2.03 C
16 24-02-2016 01:15:00 2.6 C 96 % 2.03 C
17 24-02-2016 01:20:00 2.6 C 96 % 2.03 C
18 24-02-2016 01:25:00 2.6 C 96 % 2.03 C
19 24-02-2016 01:30:00 2.5 C 96 % 1.93 C
20 24-02-2016 01:35:00 2.4 C 96 % 1.83 C
21 24-02-2016 01:40:00 2.4 C 96 % 1.83 C
22 24-02-2016 01:45:00 2.3 C 96 % 1.73 C
23 24-02-2016 01:50:00 2.2 C 96 % 1.63 C
24 24-02-2016 01:55:00 2.1 C 96 % 1.53 C
25 24-02-2016 02:00:00 2 C 96 % 1.43 C
Sensor: Nr:Datum:Temp:Feuchte:Taupunkt:
Aussen-T/F 26 24-02-2016 02:05:00 1.9 C 96 % 1.33 C
27 24-02-2016 02:10:00 1.9 C 96 % 1.33 C
28 24-02-2016 02:15:00 1.8 C 96 % 1.23 C
29 24-02-2016 02:20:00 1.8 C 96 % 1.23 C
30 24-02-2016 02:25:00 1.9 C 96 % 1.33 C
31 24-02-2016 02:30:00 2 C 96 % 1.43 C
32 24-02-2016 02:35:00 2 C 96 % 1.43 C
33 24-02-2016 02:40:00 2 C 96 % 1.43 C
34 24-02-2016 02:45:00 2 C 96 % 1.43 C
35 24-02-2016 02:50:00 1.9 C 96 % 1.33 C
36 24-02-2016 02:55:00 1.8 C 96 % 1.23 C
37 24-02-2016 03:00:00 1.8 C 96 % 1.23 C
38 24-02-2016 03:05:00 1.7 C 96 % 1.13 C
39 24-02-2016 03:10:00 1.6 C 96 % 1.03 C
40 24-02-2016 03:15:00 1.4 C 96 % 0.83 C
41 24-02-2016 03:20:00 1.3 C 96 % 0.73 C
42 24-02-2016 03:25:00 1.4 C 96 % 0.83 C
43 24-02-2016 03:30:00 1.4 C 96 % 0.83 C
44 24-02-2016 03:35:00 1.4 C 96 % 0.83 C
45 24-02-2016 03:40:00 1.4 C 96 % 0.83 C
46 24-02-2016 03:45:00 1.4 C 96 % 0.83 C
47 24-02-2016 03:50:00 1.4 C 96 % 0.83 C
48 24-02-2016 03:55:00 1.4 C 96 % 0.83 C
49 24-02-2016 04:00:00 1.5 C 96 % 0.93 C
50 24-02-2016 04:05:00 1.6 C 96 % 1.03 C
Sensor: Nr:Datum:Temp:Feuchte:Taupunkt:
Aussen-T/F 51 24-02-2016 04:10:00 1.6 C 96 % 1.03 C
52 24-02-2016 04:15:00 1.6 C 96 % 1.03 C
53 24-02-2016 04:20:00 1.5 C 96 % 0.93 C
54 24-02-2016 04:25:00 1.5 C 96 % 0.93 C
55 24-02-2016 04:30:00 1.4 C 96 % 0.83 C
56 24-02-2016 04:35:00 1.4 C 96 % 0.83 C
57 24-02-2016 04:40:00 1.4 C 96 % 0.83 C
58 24-02-2016 04:45:00 1.3 C 96 % 0.73 C
59 24-02-2016 04:50:00 1.3 C 96 % 0.73 C
60 24-02-2016 04:55:00 1.3 C 96 % 0.73 C
61 24-02-2016 05:00:00 1.3 C 96 % 0.73 C
62 24-02-2016 05:05:00 1.3 C 96 % 0.73 C
63 24-02-2016 05:10:00 1.2 C 96 % 0.63 C
64 24-02-2016 05:15:00 1.1 C 96 % 0.54 C
65 24-02-2016 05:20:00 0.9 C 96 % 0.34 C
66 24-02-2016 05:25:00 0.8 C 96 % 0.24 C
67 24-02-2016 05:30:00 0.7 C 96 % 0.14 C
68 24-02-2016 05:35:00 0.7 C 96 % 0.14 C
69 24-02-2016 05:40:00 0.7 C 96 % 0.14 C
70 24-02-2016 05:45:00 0.6 C 96 % 0.04 C
71 24-02-2016 05:50:00 0.6 C 96 % 0.04 C
72 24-02-2016 05:55:00 0.6 C 96 % 0.04 C
73 24-02-2016 06:00:00 0.6 C 96 % 0.04 C
74 24-02-2016 06:05:00 0.6 C 96 % 0.04 C
75 24-02-2016 06:10:00 0.7 C 96 % 0.14 C
Sensor: Nr:Datum:Temp:Feuchte:Taupunkt:
Aussen-T/F 76 24-02-2016 06:15:00 0.7 C 96 % 0.14 C
77 24-02-2016 06:20:00 0.7 C 96 % 0.14 C
78 24-02-2016 06:25:00 0.7 C 96 % 0.14 C
79 24-02-2016 06:30:00 0.6 C 96 % 0.04 C
80 24-02-2016 06:35:00 0.6 C 96 % 0.04 C
81 24-02-2016 06:40:00 0.5 C 96 % -0.06 C
82 24-02-2016 06:45:00 0.5 C 96 % -0.06 C
83 24-02-2016 06:50:00 0.5 C 96 % -0.06 C
84 24-02-2016 06:55:00 0.5 C 96 % -0.06 C
85 24-02-2016 07:00:00 0.6 C 96 % 0.04 C
86 24-02-2016 07:05:00 0.7 C 96 % 0.14 C
87 24-02-2016 07:10:00 0.7 C 96 % 0.14 C
88 24-02-2016 07:15:00 0.8 C 96 % 0.24 C
89 24-02-2016 07:20:00 0.8 C 96 % 0.24 C
90 24-02-2016 07:25:00 0.8 C 96 % 0.24 C
91 24-02-2016 07:30:00 0.8 C 96 % 0.24 C
92 24-02-2016 07:35:00 0.8 C 96 % 0.24 C
93 24-02-2016 07:40:00 0.8 C 97 % 0.38 C
94 24-02-2016 07:45:00 0.9 C 97 % 0.48 C
95 24-02-2016 07:50:00 0.9 C 97 % 0.48 C
96 24-02-2016 07:55:00 0.9 C 97 % 0.48 C
97 24-02-2016 08:00:00 0.9 C 97 % 0.48 C
98 24-02-2016 08:05:00 0.9 C 97 % 0.48 C
99 24-02-2016 08:10:00 0.9 C 97 % 0.48 C
100 24-02-2016 08:15:00 1 C 97 % 0.58 C
Sensor: Nr:Datum:Temp:Feuchte:Taupunkt:
Aussen-T/F 101 24-02-2016 08:20:00 1 C 97 % 0.58 C
102 24-02-2016 08:25:00 1.1 C 96 % 0.54 C
103 24-02-2016 08:30:00 1.1 C 96 % 0.54 C
104 24-02-2016 08:35:00 1.2 C 96 % 0.63 C
105 24-02-2016 08:40:00 1.2 C 96 % 0.63 C
106 24-02-2016 08:45:00 1.2 C 97 % 0.78 C
107 24-02-2016 08:50:00 1.3 C 97 % 0.88 C
108 24-02-2016 08:55:00 1.3 C 96 % 0.73 C
109 24-02-2016 09:00:00 1.4 C 96 % 0.83 C
110 24-02-2016 09:05:00 1.4 C 96 % 0.83 C
111 24-02-2016 09:10:00 1.4 C 96 % 0.83 C
112 24-02-2016 09:15:00 1.4 C 96 % 0.83 C
113 24-02-2016 09:20:00 1.3 C 96 % 0.73 C
114 24-02-2016 09:25:00 1.3 C 96 % 0.73 C
115 24-02-2016 09:30:00 1.3 C 96 % 0.73 C
116 24-02-2016 09:35:00 1.4 C 96 % 0.83 C
117 24-02-2016 09:40:00 1.4 C 96 % 0.83 C
118 24-02-2016 09:45:00 1.5 C 96 % 0.93 C
119 24-02-2016 09:50:00 1.6 C 96 % 1.03 C
120 24-02-2016 09:55:00 1.7 C 96 % 1.13 C
121 24-02-2016 10:00:00 1.7 C 96 % 1.13 C
122 24-02-2016 10:05:00 1.7 C 96 % 1.13 C
123 24-02-2016 10:10:00 1.7 C 96 % 1.13 C
124 24-02-2016 10:15:00 1.7 C 96 % 1.13 C
125 24-02-2016 10:20:00 1.7 C 96 % 1.13 C
Sensor: Nr:Datum:Temp:Feuchte:Taupunkt:
Aussen-T/F 126 24-02-2016 10:25:00 1.8 C 96 % 1.23 C
127 24-02-2016 10:30:00 1.8 C 96 % 1.23 C
128 24-02-2016 10:35:00 1.9 C 96 % 1.33 C
129 24-02-2016 10:40:00 2.1 C 96 % 1.53 C
130 24-02-2016 10:45:00 2.1 C 96 % 1.53 C
131 24-02-2016 10:50:00 2.2 C 96 % 1.63 C
132 24-02-2016 10:55:00 2.3 C 96 % 1.73 C
133 24-02-2016 11:00:00 2.3 C 95 % 1.58 C
134 24-02-2016 11:05:00 2.4 C 95 % 1.68 C
135 24-02-2016 11:10:00 2.4 C 95 % 1.68 C
136 24-02-2016 11:15:00 2.4 C 95 % 1.68 C
137 24-02-2016 11:20:00 2.5 C 95 % 1.78 C
138 24-02-2016 11:25:00 2.6 C 95 % 1.88 C
139 24-02-2016 11:30:00 2.7 C 94 % 1.83 C
140 24-02-2016 11:35:00 2.8 C 94 % 1.93 C
141 24-02-2016 11:40:00 2.9 C 94 % 2.03 C
142 24-02-2016 11:45:00 3.1 C 93 % 2.08 C
143 24-02-2016 11:50:00 3.2 C 93 % 2.18 C
144 24-02-2016 11:55:00 3.3 C 92 % 2.13 C
145 24-02-2016 12:00:00 3.3 C 92 % 2.13 C
146 24-02-2016 12:05:00 3.4 C 92 % 2.23 C
147 24-02-2016 12:10:00 3.6 C 91 % 2.27 C
148 24-02-2016 12:15:00 3.7 C 91 % 2.37 C
149 24-02-2016 12:20:00 3.8 C 91 % 2.47 C
150 24-02-2016 12:25:00 4 C 89 % 2.36 C
Sensor: Nr:Datum:Temp:Feuchte:Taupunkt:
Aussen-T/F 151 24-02-2016 12:30:00 4.2 C 89 % 2.55 C
152 24-02-2016 12:35:00 4.3 C 88 % 2.49 C
153 24-02-2016 12:40:00 4.4 C 87 % 2.43 C
154 24-02-2016 12:45:00 4.4 C 88 % 2.59 C
155 24-02-2016 12:50:00 4.5 C 87 % 2.53 C
156 24-02-2016 12:55:00 4.6 C 86 % 2.47 C
157 24-02-2016 13:00:00 4.6 C 87 % 2.63 C
158 24-02-2016 13:05:00 4.6 C 86 % 2.47 C
159 24-02-2016 13:10:00 4.6 C 86 % 2.47 C
160 24-02-2016 13:15:00 4.7 C 86 % 2.56 C
161 24-02-2016 13:20:00 4.7 C 86 % 2.56 C
162 24-02-2016 13:25:00 4.8 C 86 % 2.66 C
163 24-02-2016 13:30:00 4.9 C 86 % 2.76 C
164 24-02-2016 13:35:00 5 C 85 % 2.69 C
165 24-02-2016 13:40:00 5 C 85 % 2.69 C
166 24-02-2016 13:45:00 5 C 84 % 2.53 C
167 24-02-2016 13:50:00 5.1 C 84 % 2.63 C
168 24-02-2016 13:55:00 5.2 C 84 % 2.72 C
169 24-02-2016 14:00:00 5.4 C 80 % 2.23 C
170 24-02-2016 14:05:00 5.6 C 80 % 2.43 C
171 24-02-2016 14:10:00 5.8 C 79 % 2.45 C
172 24-02-2016 14:15:00 5.9 C 78 % 2.37 C
173 24-02-2016 14:20:00 6 C 77 % 2.28 C
174 24-02-2016 14:25:00 6 C 72 % 1.35 C
175 24-02-2016 14:30:00 6 C 72 % 1.35 C
Sensor: Nr:Datum:Temp:Feuchte:Taupunkt:
Aussen-T/F 176 24-02-2016 14:35:00 5.9 C 71 % 1.06 C
177 24-02-2016 14:40:00 5.9 C 71 % 1.06 C
178 24-02-2016 14:45:00 5.9 C 74 % 1.63 C
179 24-02-2016 14:50:00 5.9 C 74 % 1.63 C
180 24-02-2016 14:55:00 5.9 C 74 % 1.63 C
181 24-02-2016 15:00:00 5.9 C 72 % 1.25 C
182 24-02-2016 15:05:00 6 C 71 % 1.15 C
183 24-02-2016 15:10:00 6 C 71 % 1.15 C
184 24-02-2016 15:15:00 5.9 C 71 % 1.06 C
185 24-02-2016 15:20:00 5.8 C 74 % 1.53 C
186 24-02-2016 15:25:00 5.8 C 75 % 1.72 C
187 24-02-2016 15:30:00 5.8 C 76 % 1.91 C
188 24-02-2016 15:35:00 5.7 C 73 % 1.25 C
189 24-02-2016 15:40:00 5.7 C 73 % 1.25 C
190 24-02-2016 15:45:00 5.6 C 74 % 1.34 C
191 24-02-2016 15:50:00 5.6 C 75 % 1.53 C
192 24-02-2016 15:55:00 5.5 C 76 % 1.62 C
193 24-02-2016 16:00:00 5.5 C 79 % 2.16 C
194 24-02-2016 16:05:00 5.6 C 79 % 2.25 C
195 24-02-2016 16:10:00 5.7 C 79 % 2.35 C
196 24-02-2016 16:15:00 5.8 C 78 % 2.27 C
197 24-02-2016 16:20:00 5.8 C 77 % 2.09 C
198 24-02-2016 16:25:00 5.7 C 76 % 1.81 C
199 24-02-2016 16:30:00 5.7 C 77 % 1.99 C
200 24-02-2016 16:35:00 5.6 C 79 % 2.25 C
Sensor: Nr:Datum:Temp:Feuchte:Taupunkt:
Aussen-T/F 201 24-02-2016 16:40:00 5.6 C 79 % 2.25 C
202 24-02-2016 16:45:00 5.4 C 76 % 1.52 C
203 24-02-2016 16:50:00 5.3 C 79 % 1.96 C
204 24-02-2016 16:55:00 5.1 C 80 % 1.94 C
205 24-02-2016 17:00:00 4.8 C 82 % 1.99 C
206 24-02-2016 17:05:00 4.6 C 83 % 1.97 C
207 24-02-2016 17:10:00 4.3 C 84 % 1.84 C
208 24-02-2016 17:15:00 4.1 C 85 % 1.81 C
209 24-02-2016 17:20:00 3.9 C 86 % 1.78 C
210 24-02-2016 17:25:00 3.7 C 86 % 1.58 C
211 24-02-2016 17:30:00 3.5 C 87 % 1.55 C
212 24-02-2016 17:35:00 3.3 C 87 % 1.35 C
213 24-02-2016 17:40:00 3.2 C 88 % 1.41 C
214 24-02-2016 17:45:00 3.1 C 88 % 1.31 C
215 24-02-2016 17:50:00 2.9 C 89 % 1.27 C
216 24-02-2016 17:55:00 2.7 C 89 % 1.07 C
217 24-02-2016 18:00:00 2.6 C 89 % 0.97 C
218 24-02-2016 18:05:00 2.4 C 89 % 0.78 C
219 24-02-2016 18:10:00 2.3 C 89 % 0.68 C
220 24-02-2016 18:15:00 2.2 C 89 % 0.58 C
221 24-02-2016 18:20:00 2.1 C 90 % 0.64 C
222 24-02-2016 18:25:00 2.1 C 90 % 0.64 C
223 24-02-2016 18:30:00 2 C 90 % 0.54 C
224 24-02-2016 18:35:00 1.9 C 90 % 0.44 C
225 24-02-2016 18:40:00 1.8 C 90 % 0.34 C
Sensor: Nr:Datum:Temp:Feuchte:Taupunkt:
Aussen-T/F 226 24-02-2016 18:45:00 1.8 C 90 % 0.34 C
227 24-02-2016 18:50:00 1.8 C 90 % 0.34 C
228 24-02-2016 18:55:00 1.7 C 90 % 0.24 C
229 24-02-2016 19:00:00 1.7 C 90 % 0.24 C
230 24-02-2016 19:05:00 1.7 C 90 % 0.24 C
231 24-02-2016 19:10:00 1.6 C 90 % 0.14 C
232 24-02-2016 19:15:00 1.6 C 90 % 0.14 C
233 24-02-2016 19:20:00 1.6 C 90 % 0.14 C
234 24-02-2016 19:25:00 1.4 C 91 % 0.1 C
235 24-02-2016 19:30:00 1.4 C 91 % 0.1 C
236 24-02-2016 19:35:00 1.3 C 91 % 0 C
237 24-02-2016 19:40:00 1.3 C 91 % 0 C
238 24-02-2016 19:45:00 1.2 C 91 % -0.1 C
239 24-02-2016 19:50:00 1.2 C 91 % -0.1 C
240 24-02-2016 19:55:00 1.1 C 91 % -0.2 C
241 24-02-2016 20:00:00 1.1 C 92 % -0.05 C
242 24-02-2016 20:05:00 0.9 C 91 % -0.4 C
243 24-02-2016 20:10:00 0.8 C 91 % -0.5 C
244 24-02-2016 20:15:00 0.7 C 91 % -0.6 C
245 24-02-2016 20:20:00 0.7 C 91 % -0.6 C
246 24-02-2016 20:25:00 0.7 C 92 % -0.45 C
247 24-02-2016 20:30:00 0.7 C 92 % -0.45 C
248 24-02-2016 20:35:00 0.7 C 92 % -0.45 C
249 24-02-2016 20:40:00 0.7 C 92 % -0.45 C
250 24-02-2016 20:45:00 0.6 C 92 % -0.55 C
Sensor: Nr:Datum:Temp:Feuchte:Taupunkt:
Aussen-T/F 251 24-02-2016 20:50:00 0.5 C 92 % -0.65 C
252 24-02-2016 20:55:00 0.4 C 92 % -0.74 C
253 24-02-2016 21:00:00 0.4 C 92 % -0.74 C
254 24-02-2016 21:05:00 0.3 C 92 % -0.84 C
255 24-02-2016 21:10:00 0.2 C 92 % -0.94 C
256 24-02-2016 21:15:00 0.1 C 92 % -1.04 C
257 24-02-2016 21:20:00 0 C 92 % -1.14 C
258 24-02-2016 21:25:00 0 C 93 % -0.99 C
259 24-02-2016 21:30:00 0 C 93 % -0.99 C
260 24-02-2016 21:35:00 0 C 93 % -0.99 C
261 24-02-2016 21:40:00 -0.1 C 93 % -1.09 C
262 24-02-2016 21:45:00 -0.1 C 93 % -1.09 C
263 24-02-2016 21:50:00 -0.1 C 93 % -1.09 C
264 24-02-2016 21:55:00 -0.2 C 92 % -1.34 C
265 24-02-2016 22:00:00 -0.3 C 92 % -1.44 C
266 24-02-2016 22:05:00 -0.3 C 93 % -1.29 C
267 24-02-2016 22:10:00 -0.3 C 93 % -1.29 C
268 24-02-2016 22:15:00 -0.3 C 93 % -1.29 C
269 24-02-2016 22:20:00 -0.3 C 93 % -1.29 C
270 24-02-2016 22:25:00 -0.4 C 93 % -1.39 C
271 24-02-2016 22:30:00 -0.5 C 93 % -1.49 C
272 24-02-2016 22:35:00 -0.5 C 93 % -1.49 C
273 24-02-2016 22:40:00 -0.6 C 93 % -1.59 C
274 24-02-2016 22:45:00 -0.7 C 93 % -1.69 C
275 24-02-2016 22:50:00 -0.7 C 93 % -1.69 C
Sensor: Nr:Datum:Temp:Feuchte:Taupunkt:
Aussen-T/F 276 24-02-2016 22:55:00 -0.7 C 93 % -1.69 C
277 24-02-2016 23:00:00 -0.7 C 93 % -1.69 C
278 24-02-2016 23:05:00 -0.8 C 93 % -1.79 C
279 24-02-2016 23:10:00 -0.7 C 94 % -1.54 C
280 24-02-2016 23:15:00 -0.7 C 93 % -1.69 C
281 24-02-2016 23:20:00 -0.7 C 94 % -1.54 C
282 24-02-2016 23:25:00 -0.8 C 94 % -1.64 C
283 24-02-2016 23:30:00 -0.8 C 93 % -1.79 C
284 24-02-2016 23:35:00 -0.8 C 93 % -1.79 C
285 24-02-2016 23:40:00 -0.8 C 93 % -1.79 C
286 24-02-2016 23:45:00 -0.8 C 94 % -1.64 C
287 24-02-2016 23:50:00 -0.8 C 94 % -1.64 C
288 24-02-2016 23:55:00 -0.8 C 94 % -1.64 C
289 25-02-2016 00:00:00 -0.8 C 94 % -1.64 C
290 25-02-2016 00:05:00 -0.8 C 94 % -1.64 C
291 25-02-2016 00:10:00 -0.8 C 94 % -1.64 C
292 25-02-2016 00:15:00 -0.8 C 94 % -1.64 C
293 25-02-2016 00:20:00 -0.9 C 94 % -1.74 C
294 25-02-2016 00:25:00 -0.9 C 94 % -1.74 C
295 25-02-2016 00:30:00 -0.9 C 94 % -1.74 C
296 25-02-2016 00:35:00 -0.9 C 94 % -1.74 C
297 25-02-2016 00:40:00 -1.1 C 94 % -1.94 C
298 25-02-2016 00:45:00 -1.1 C 94 % -1.94 C
299 25-02-2016 00:50:00 -1.1 C 94 % -1.94 C
300 25-02-2016 00:55:00 -1.1 C 94 % -1.94 C
Sensor: Nr:Datum:Temp:Feuchte:Taupunkt:
Aussen-T/F 301 25-02-2016 01:00:00 -1.2 C 94 % -2.04 C
302 25-02-2016 01:05:00 -1.2 C 94 % -2.04 C
303 25-02-2016 01:10:00 -1.2 C 94 % -2.04 C
304 25-02-2016 01:15:00 -1.2 C 94 % -2.04 C
305 25-02-2016 01:20:00 -1.2 C 94 % -2.04 C
306 25-02-2016 01:25:00 -1.2 C 95 % -1.9 C
307 25-02-2016 01:30:00 -1.2 C 95 % -1.9 C
308 25-02-2016 01:35:00 -1.2 C 95 % -1.9 C
309 25-02-2016 01:40:00 -1.3 C 95 % -2 C
310 25-02-2016 01:45:00 -1.3 C 95 % -2 C
311 25-02-2016 01:50:00 -1.3 C 95 % -2 C
312 25-02-2016 01:55:00 -1.4 C 95 % -2.1 C
313 25-02-2016 02:00:00 -1.4 C 95 % -2.1 C
314 25-02-2016 02:05:00 -1.4 C 95 % -2.1 C
315 25-02-2016 02:10:00 -1.4 C 95 % -2.1 C
316 25-02-2016 02:15:00 -1.3 C 95 % -2 C
317 25-02-2016 02:20:00 -1.3 C 95 % -2 C
318 25-02-2016 02:25:00 -1.3 C 95 % -2 C
319 25-02-2016 02:30:00 -1.4 C 95 % -2.1 C
320 25-02-2016 02:35:00 -1.4 C 95 % -2.1 C
321 25-02-2016 02:40:00 -1.5 C 95 % -2.19 C
322 25-02-2016 02:45:00 -1.6 C 95 % -2.29 C
323 25-02-2016 02:50:00 -1.7 C 95 % -2.39 C
324 25-02-2016 02:55:00 -1.7 C 95 % -2.39 C
325 25-02-2016 03:00:00 -1.7 C 95 % -2.39 C
Sensor: Nr:Datum:Temp:Feuchte:Taupunkt:
Aussen-T/F 326 25-02-2016 03:05:00 -1.7 C 95 % -2.39 C
327 25-02-2016 03:10:00 -1.7 C 95 % -2.39 C
328 25-02-2016 03:15:00 -1.7 C 95 % -2.39 C
329 25-02-2016 03:20:00 -1.7 C 95 % -2.39 C
330 25-02-2016 03:25:00 -1.7 C 95 % -2.39 C
331 25-02-2016 03:30:00 -1.7 C 95 % -2.39 C
332 25-02-2016 03:35:00 -1.8 C 95 % -2.49 C
333 25-02-2016 03:40:00 -1.8 C 95 % -2.49 C
334 25-02-2016 03:45:00 -1.8 C 95 % -2.49 C
335 25-02-2016 03:50:00 -1.8 C 95 % -2.49 C
336 25-02-2016 03:55:00 -1.8 C 95 % -2.49 C
337 25-02-2016 04:00:00 -1.7 C 95 % -2.39 C
338 25-02-2016 04:05:00 -1.7 C 95 % -2.39 C
339 25-02-2016 04:10:00 -1.7 C 96 % -2.25 C
340 25-02-2016 04:15:00 -1.6 C 96 % -2.15 C
341 25-02-2016 04:20:00 -1.6 C 96 % -2.15 C
342 25-02-2016 04:25:00 -1.5 C 96 % -2.05 C
343 25-02-2016 04:30:00 -1.5 C 96 % -2.05 C
344 25-02-2016 04:35:00 -1.5 C 96 % -2.05 C
345 25-02-2016 04:40:00 -1.5 C 96 % -2.05 C
346 25-02-2016 04:45:00 -1.6 C 96 % -2.15 C
347 25-02-2016 04:50:00 -1.6 C 96 % -2.15 C
348 25-02-2016 04:55:00 -1.6 C 96 % -2.15 C
349 25-02-2016 05:00:00 -1.7 C 96 % -2.25 C
350 25-02-2016 05:05:00 -1.7 C 96 % -2.25 C
Sensor: Nr:Datum:Temp:Feuchte:Taupunkt:
Aussen-T/F 351 25-02-2016 05:10:00 -1.8 C 96 % -2.35 C
352 25-02-2016 05:15:00 -1.8 C 96 % -2.35 C
353 25-02-2016 05:20:00 -1.8 C 96 % -2.35 C
354 25-02-2016 05:25:00 -1.8 C 96 % -2.35 C
355 25-02-2016 05:30:00 -1.8 C 96 % -2.35 C
356 25-02-2016 05:35:00 -1.8 C 96 % -2.35 C
357 25-02-2016 05:40:00 -1.8 C 96 % -2.35 C
358 25-02-2016 05:45:00 -1.9 C 96 % -2.45 C
359 25-02-2016 05:50:00 -1.9 C 96 % -2.45 C
360 25-02-2016 05:55:00 -1.9 C 96 % -2.45 C
361 25-02-2016 06:00:00 -2 C 96 % -2.55 C
362 25-02-2016 06:05:00 -2 C 96 % -2.55 C
363 25-02-2016 06:10:00 -2 C 96 % -2.55 C
364 25-02-2016 06:15:00 -1.9 C 96 % -2.45 C
365 25-02-2016 06:20:00 -2 C 96 % -2.55 C
366 25-02-2016 06:25:00 -1.9 C 96 % -2.45 C
367 25-02-2016 06:30:00 -1.9 C 96 % -2.45 C
368 25-02-2016 06:35:00 -2 C 96 % -2.55 C
369 25-02-2016 06:40:00 -2 C 96 % -2.55 C
370 25-02-2016 06:45:00 -2 C 96 % -2.55 C
371 25-02-2016 06:50:00 -2.1 C 96 % -2.65 C
372 25-02-2016 06:55:00 -2.1 C 96 % -2.65 C
373 25-02-2016 07:00:00 -2.2 C 96 % -2.75 C
374 25-02-2016 07:05:00 -2.2 C 96 % -2.75 C
375 25-02-2016 07:10:00 -2.2 C 96 % -2.75 C
Sensor: Nr:Datum:Temp:Feuchte:Taupunkt:
Aussen-T/F 376 25-02-2016 07:15:00 -2.2 C 96 % -2.75 C
377 25-02-2016 07:20:00 -2.3 C 96 % -2.85 C
378 25-02-2016 07:25:00 -2.3 C 96 % -2.85 C
379 25-02-2016 07:30:00 -2.2 C 96 % -2.75 C
380 25-02-2016 07:35:00 -2.2 C 96 % -2.75 C
381 25-02-2016 07:40:00 -2.3 C 96 % -2.85 C
382 25-02-2016 07:45:00 -2.3 C 96 % -2.85 C
383 25-02-2016 07:50:00 -2.2 C 96 % -2.75 C
384 25-02-2016 07:55:00 -2.2 C 96 % -2.75 C
385 25-02-2016 08:00:00 -2.2 C 96 % -2.75 C
386 25-02-2016 08:05:00 -2.2 C 96 % -2.75 C
387 25-02-2016 08:10:00 -2.2 C 96 % -2.75 C
388 25-02-2016 08:15:00 -2.2 C 96 % -2.75 C
389 25-02-2016 08:20:00 -2.2 C 96 % -2.75 C
390 25-02-2016 08:25:00 -2.2 C 96 % -2.75 C
391 25-02-2016 08:30:00 -2.2 C 96 % -2.75 C
392 25-02-2016 08:35:00 -2.2 C 96 % -2.75 C
393 25-02-2016 08:40:00 -2.1 C 96 % -2.65 C
394 25-02-2016 08:45:00 -2.1 C 96 % -2.65 C
395 25-02-2016 08:50:00 -2.1 C 96 % -2.65 C
396 25-02-2016 08:55:00 -2 C 96 % -2.55 C
397 25-02-2016 09:00:00 -1.9 C 96 % -2.45 C
398 25-02-2016 09:05:00 -1.9 C 96 % -2.45 C
399 25-02-2016 09:10:00 -1.9 C 97 % -2.31 C
400 25-02-2016 09:15:00 -1.9 C 96 % -2.45 C
Sensor: Nr:Datum:Temp:Feuchte:Taupunkt:
Aussen-T/F 401 25-02-2016 09:20:00 -1.9 C 96 % -2.45 C
402 25-02-2016 09:25:00 -1.9 C 96 % -2.45 C
403 25-02-2016 09:30:00 -1.9 C 96 % -2.45 C
404 25-02-2016 09:35:00 -1.8 C 97 % -2.21 C
405 25-02-2016 09:40:00 -1.8 C 97 % -2.21 C
406 25-02-2016 09:45:00 -1.8 C 97 % -2.21 C
407 25-02-2016 09:50:00 -1.8 C 97 % -2.21 C
408 25-02-2016 09:55:00 -1.8 C 97 % -2.21 C
409 25-02-2016 10:00:00 -1.7 C 97 % -2.11 C
410 25-02-2016 10:05:00 -1.7 C 97 % -2.11 C
411 25-02-2016 10:10:00 -1.7 C 97 % -2.11 C
412 25-02-2016 10:15:00 -1.7 C 97 % -2.11 C
413 25-02-2016 10:20:00 -1.7 C 97 % -2.11 C
414 25-02-2016 10:25:00 -1.6 C 97 % -2.01 C
415 25-02-2016 10:30:00 -1.6 C 97 % -2.01 C
416 25-02-2016 10:35:00 -1.5 C 97 % -1.91 C
417 25-02-2016 10:40:00 -1.4 C 97 % -1.81 C
418 25-02-2016 10:45:00 -1.3 C 97 % -1.71 C
419 25-02-2016 10:50:00 -1.2 C 97 % -1.61 C
420 25-02-2016 10:55:00 -1.1 C 97 % -1.51 C
421 25-02-2016 11:00:00 -1.1 C 97 % -1.51 C
422 25-02-2016 11:05:00 -1 C 97 % -1.41 C
423 25-02-2016 11:10:00 -1 C 97 % -1.41 C
424 25-02-2016 11:15:00 -0.9 C 97 % -1.32 C
425 25-02-2016 11:20:00 -0.7 C 97 % -1.12 C
Sensor: Nr:Datum:Temp:Feuchte:Taupunkt:
Aussen-T/F 426 25-02-2016 11:25:00 -0.6 C 97 % -1.02 C
427 25-02-2016 11:30:00 -0.7 C 97 % -1.12 C
428 25-02-2016 11:35:00 -0.6 C 97 % -1.02 C
429 25-02-2016 11:40:00 -0.6 C 97 % -1.02 C
430 25-02-2016 11:45:00 -0.5 C 97 % -0.92 C
431 25-02-2016 11:50:00 -0.4 C 97 % -0.82 C
432 25-02-2016 11:55:00 -0.4 C 97 % -0.82 C
433 25-02-2016 12:00:00 -0.3 C 97 % -0.72 C
434 25-02-2016 12:05:00 -0.3 C 97 % -0.72 C
435 25-02-2016 12:10:00 -0.2 C 97 % -0.62 C
436 25-02-2016 12:15:00 -0.1 C 97 % -0.52 C
437 25-02-2016 12:20:00 0.1 C 97 % -0.32 C
438 25-02-2016 12:25:00 0.3 C 97 % -0.12 C
439 25-02-2016 12:30:00 0.4 C 97 % -0.02 C
440 25-02-2016 12:35:00 0.7 C 97 % 0.28 C
441 25-02-2016 12:40:00 0.9 C 97 % 0.48 C
442 25-02-2016 12:45:00 1.1 C 97 % 0.68 C
443 25-02-2016 12:50:00 1.3 C 97 % 0.88 C
444 25-02-2016 12:55:00 1.5 C 97 % 1.08 C
445 25-02-2016 13:00:00 1.7 C 97 % 1.28 C
446 25-02-2016 13:05:00 1.8 C 97 % 1.38 C
447 25-02-2016 13:10:00 1.9 C 97 % 1.48 C
448 25-02-2016 13:15:00 2.1 C 97 % 1.67 C
449 25-02-2016 13:20:00 2.3 C 97 % 1.87 C
450 25-02-2016 13:25:00 2.7 C 97 % 2.27 C
Sensor: Nr:Datum:Temp:Feuchte:Taupunkt:
Aussen-T/F 451 25-02-2016 13:30:00 2.9 C 97 % 2.47 C
452 25-02-2016 13:35:00 3.2 C 97 % 2.77 C
453 25-02-2016 13:40:00 3.3 C 96 % 2.72 C
454 25-02-2016 13:45:00 3.4 C 96 % 2.82 C
455 25-02-2016 13:50:00 3.4 C 95 % 2.68 C
456 25-02-2016 13:55:00 3.5 C 95 % 2.78 C
457 25-02-2016 14:00:00 3.5 C 94 % 2.63 C
458 25-02-2016 14:05:00 3.6 C 93 % 2.58 C
459 25-02-2016 14:10:00 3.7 C 93 % 2.68 C
460 25-02-2016 14:15:00 3.8 C 92 % 2.62 C
461 25-02-2016 14:20:00 4 C 85 % 1.71 C
462 25-02-2016 14:25:00 4.4 C 79 % 1.09 C
463 25-02-2016 14:30:00 4.6 C 77 % 0.92 C
464 25-02-2016 14:35:00 4.8 C 74 % 0.57 C
465 25-02-2016 14:40:00 4.9 C 74 % 0.67 C
466 25-02-2016 14:45:00 5 C 73 % 0.57 C
467 25-02-2016 14:50:00 5.2 C 71 % 0.38 C
468 25-02-2016 14:55:00 5.2 C 69 % -0.01 C
469 25-02-2016 15:00:00 5.1 C 69 % -0.11 C
470 25-02-2016 15:05:00 4.9 C 71 % 0.09 C
471 25-02-2016 15:10:00 4.9 C 72 % 0.29 C
472 25-02-2016 15:15:00 4.9 C 70 % -0.1 C
473 25-02-2016 15:20:00 5 C 73 % 0.57 C
474 25-02-2016 15:25:00 5.2 C 73 % 0.77 C
475 25-02-2016 15:30:00 5.3 C 70 % 0.28 C
Sensor: Nr:Datum:Temp:Feuchte:Taupunkt:
Aussen-T/F 476 25-02-2016 15:35:00 5.4 C 69 % 0.18 C
477 25-02-2016 15:40:00 5.5 C 68 % 0.08 C
478 25-02-2016 15:45:00 5.5 C 68 % 0.08 C
479 25-02-2016 15:50:00 5.6 C 67 % -0.03 C
480 25-02-2016 15:55:00 5.5 C 66 % -0.33 C
481 25-02-2016 16:00:00 5.3 C 69 % 0.09 C
482 25-02-2016 16:05:00 5.3 C 70 % 0.28 C
483 25-02-2016 16:10:00 5.2 C 73 % 0.77 C
484 25-02-2016 16:15:00 5.1 C 69 % -0.11 C
485 25-02-2016 16:20:00 5 C 69 % -0.2 C
486 25-02-2016 16:25:00 5.1 C 69 % -0.11 C
487 25-02-2016 16:30:00 5.2 C 70 % 0.19 C
488 25-02-2016 16:35:00 5.3 C 68 % -0.12 C
489 25-02-2016 16:40:00 5.3 C 68 % -0.12 C
490 25-02-2016 16:45:00 5.2 C 70 % 0.19 C
491 25-02-2016 16:50:00 5.3 C 70 % 0.28 C
492 25-02-2016 16:55:00 5.2 C 70 % 0.19 C
493 25-02-2016 17:00:00 5.2 C 68 % -0.21 C
494 25-02-2016 17:05:00 5.2 C 71 % 0.38 C
495 25-02-2016 17:10:00 4.9 C 67 % -0.7 C
496 25-02-2016 17:15:00 4.8 C 69 % -0.39 C
497 25-02-2016 17:20:00 4.7 C 68 % -0.69 C
498 25-02-2016 17:25:00 4.7 C 69 % -0.49 C
499 25-02-2016 17:30:00 4.7 C 69 % -0.49 C
500 25-02-2016 17:35:00 4.7 C 70 % -0.29 C
Sensor: Nr:Datum:Temp:Feuchte:Taupunkt:
Aussen-T/F 501 25-02-2016 17:40:00 4.7 C 70 % -0.29 C
502 25-02-2016 17:45:00 4.6 C 73 % 0.19 C
503 25-02-2016 17:50:00 4.4 C 73 % 0 C
504 25-02-2016 17:55:00 4.3 C 75 % 0.27 C
505 25-02-2016 18:00:00 4.1 C 77 % 0.44 C
506 25-02-2016 18:05:00 3.8 C 78 % 0.33 C
507 25-02-2016 18:10:00 3.4 C 79 % 0.11 C
508 25-02-2016 18:15:00 3.1 C 81 % 0.16 C
509 25-02-2016 18:20:00 2.8 C 83 % 0.21 C
510 25-02-2016 18:25:00 2.6 C 84 % 0.18 C
511 25-02-2016 18:30:00 2.4 C 85 % 0.14 C
512 25-02-2016 18:35:00 2.2 C 85 % -0.05 C
513 25-02-2016 18:40:00 2.1 C 86 % 0.01 C
514 25-02-2016 18:45:00 1.9 C 87 % -0.03 C
515 25-02-2016 18:50:00 1.8 C 87 % -0.13 C
516 25-02-2016 18:55:00 1.8 C 88 % 0.03 C
517 25-02-2016 19:00:00 1.8 C 88 % 0.03 C
518 25-02-2016 19:05:00 1.8 C 89 % 0.19 C
519 25-02-2016 19:10:00 1.9 C 89 % 0.28 C
520 25-02-2016 19:15:00 1.9 C 89 % 0.28 C
521 25-02-2016 19:20:00 2 C 89 % 0.38 C
522 25-02-2016 19:25:00 2.2 C 88 % 0.42 C
523 25-02-2016 19:30:00 2.4 C 87 % 0.46 C
524 25-02-2016 19:35:00 2.7 C 86 % 0.6 C
525 25-02-2016 19:40:00 2.9 C 85 % 0.63 C
Sensor: Nr:Datum:Temp:Feuchte:Taupunkt:
Aussen-T/F 526 25-02-2016 19:45:00 2.9 C 86 % 0.8 C
527 25-02-2016 19:50:00 2.9 C 86 % 0.8 C
528 25-02-2016 19:55:00 2.8 C 87 % 0.86 C
529 25-02-2016 20:00:00 2.8 C 87 % 0.86 C
530 25-02-2016 20:05:00 2.7 C 88 % 0.92 C
531 25-02-2016 20:10:00 2.6 C 88 % 0.82 C
532 25-02-2016 20:15:00 2.5 C 89 % 0.88 C
533 25-02-2016 20:20:00 2.4 C 89 % 0.78 C
534 25-02-2016 20:25:00 2.3 C 89 % 0.68 C
535 25-02-2016 20:30:00 2.3 C 90 % 0.83 C
536 25-02-2016 20:35:00 2.3 C 90 % 0.83 C
537 25-02-2016 20:40:00 2.2 C 90 % 0.73 C
538 25-02-2016 20:45:00 2.2 C 90 % 0.73 C
539 25-02-2016 20:50:00 2.2 C 90 % 0.73 C
540 25-02-2016 20:55:00 2.2 C 90 % 0.73 C
541 25-02-2016 21:00:00 2.2 C 90 % 0.73 C
542 25-02-2016 21:05:00 2.2 C 90 % 0.73 C
543 25-02-2016 21:10:00 2.1 C 90 % 0.64 C
544 25-02-2016 21:15:00 2.1 C 91 % 0.79 C
545 25-02-2016 21:20:00 1.9 C 91 % 0.59 C
546 25-02-2016 21:25:00 1.9 C 91 % 0.59 C
547 25-02-2016 21:30:00 1.9 C 91 % 0.59 C
548 25-02-2016 21:35:00 1.9 C 91 % 0.59 C
549 25-02-2016 21:40:00 1.9 C 91 % 0.59 C
550 25-02-2016 21:45:00 1.9 C 91 % 0.59 C
Sensor: Nr:Datum:Temp:Feuchte:Taupunkt:
Aussen-T/F 551 25-02-2016 21:50:00 1.8 C 91 % 0.49 C
552 25-02-2016 21:55:00 1.8 C 91 % 0.49 C
553 25-02-2016 22:00:00 1.8 C 91 % 0.49 C
554 25-02-2016 22:05:00 1.7 C 92 % 0.54 C
555 25-02-2016 22:10:00 1.7 C 92 % 0.54 C
556 25-02-2016 22:15:00 1.7 C 92 % 0.54 C
557 25-02-2016 22:20:00 1.7 C 92 % 0.54 C
558 25-02-2016 22:25:00 1.7 C 92 % 0.54 C
559 25-02-2016 22:30:00 1.7 C 92 % 0.54 C
560 25-02-2016 22:35:00 1.7 C 92 % 0.54 C
561 25-02-2016 22:40:00 1.6 C 92 % 0.44 C
562 25-02-2016 22:45:00 1.6 C 93 % 0.59 C
563 25-02-2016 22:50:00 1.6 C 93 % 0.59 C
564 25-02-2016 22:55:00 1.6 C 93 % 0.59 C
565 25-02-2016 23:00:00 1.6 C 93 % 0.59 C
566 25-02-2016 23:05:00 1.6 C 93 % 0.59 C
567 25-02-2016 23:10:00 1.6 C 93 % 0.59 C
568 25-02-2016 23:15:00 1.6 C 93 % 0.59 C
569 25-02-2016 23:20:00 1.5 C 93 % 0.49 C
570 25-02-2016 23:25:00 1.5 C 93 % 0.49 C
571 25-02-2016 23:30:00 1.5 C 93 % 0.49 C
572 25-02-2016 23:35:00 1.4 C 92 % 0.25 C
573 25-02-2016 23:40:00 1.4 C 92 % 0.25 C
574 25-02-2016 23:45:00 1.3 C 92 % 0.15 C
575 25-02-2016 23:50:00 1.3 C 92 % 0.15 C
Sensor: Nr:Datum:Temp:Feuchte:Taupunkt:
Aussen-T/F 576 25-02-2016 23:55:00 1.2 C 92 % 0.05 C
577 26-02-2016 00:00:00 1.3 C 92 % 0.15 C
578 26-02-2016 00:05:00 1.3 C 93 % 0.3 C
579 26-02-2016 00:10:00 1.3 C 93 % 0.3 C
580 26-02-2016 00:15:00 1.4 C 93 % 0.4 C
581 26-02-2016 00:20:00 1.4 C 93 % 0.4 C
582 26-02-2016 00:25:00 1.4 C 93 % 0.4 C
583 26-02-2016 00:30:00 1.4 C 92 % 0.25 C
584 26-02-2016 00:35:00 1.4 C 92 % 0.25 C
585 26-02-2016 00:40:00 1.4 C 92 % 0.25 C
586 26-02-2016 00:45:00 1.5 C 92 % 0.35 C
587 26-02-2016 00:50:00 1.5 C 92 % 0.35 C
588 26-02-2016 00:55:00 1.5 C 92 % 0.35 C
589 26-02-2016 01:00:00 1.5 C 92 % 0.35 C
590 26-02-2016 01:05:00 1.5 C 92 % 0.35 C
591 26-02-2016 01:10:00 1.4 C 92 % 0.25 C
592 26-02-2016 01:15:00 1.4 C 92 % 0.25 C
593 26-02-2016 01:20:00 1.3 C 92 % 0.15 C
594 26-02-2016 01:25:00 1.3 C 92 % 0.15 C
595 26-02-2016 01:30:00 1.3 C 92 % 0.15 C
596 26-02-2016 01:35:00 1.2 C 92 % 0.05 C
597 26-02-2016 01:40:00 1.2 C 92 % 0.05 C
598 26-02-2016 01:45:00 1.2 C 92 % 0.05 C
599 26-02-2016 01:50:00 1.1 C 92 % -0.05 C
600 26-02-2016 01:55:00 1.1 C 92 % -0.05 C
Sensor: Nr:Datum:Temp:Feuchte:Taupunkt:
Aussen-T/F 601 26-02-2016 02:00:00 1.1 C 93 % 0.1 C
602 26-02-2016 02:05:00 1.1 C 93 % 0.1 C
603 26-02-2016 02:10:00 1.1 C 93 % 0.1 C
604 26-02-2016 02:15:00 1.1 C 92 % -0.05 C
605 26-02-2016 02:20:00 1.1 C 93 % 0.1 C
606 26-02-2016 02:25:00 1.1 C 92 % -0.05 C
607 26-02-2016 02:30:00 1.1 C 92 % -0.05 C
608 26-02-2016 02:35:00 1.1 C 92 % -0.05 C
609 26-02-2016 02:40:00 1.1 C 93 % 0.1 C
610 26-02-2016 02:45:00 1.2 C 93 % 0.2 C
611 26-02-2016 02:50:00 1.2 C 93 % 0.2 C
612 26-02-2016 02:55:00 1.2 C 93 % 0.2 C
613 26-02-2016 03:00:00 1.2 C 93 % 0.2 C
614 26-02-2016 03:05:00 1.2 C 93 % 0.2 C
615 26-02-2016 03:10:00 1.2 C 93 % 0.2 C
616 26-02-2016 03:15:00 1.3 C 93 % 0.3 C
617 26-02-2016 03:20:00 1.3 C 93 % 0.3 C
618 26-02-2016 03:25:00 1.3 C 93 % 0.3 C
619 26-02-2016 03:30:00 1.3 C 93 % 0.3 C
620 26-02-2016 03:35:00 1.3 C 93 % 0.3 C
621 26-02-2016 03:40:00 1.3 C 93 % 0.3 C
622 26-02-2016 03:45:00 1.3 C 93 % 0.3 C
623 26-02-2016 03:50:00 1.3 C 93 % 0.3 C
624 26-02-2016 03:55:00 1.3 C 93 % 0.3 C
625 26-02-2016 04:00:00 1.4 C 93 % 0.4 C
Sensor: Nr:Datum:Temp:Feuchte:Taupunkt:
Aussen-T/F 626 26-02-2016 04:05:00 1.4 C 93 % 0.4 C
627 26-02-2016 04:10:00 1.4 C 93 % 0.4 C
628 26-02-2016 04:15:00 1.4 C 93 % 0.4 C
629 26-02-2016 04:20:00 1.3 C 93 % 0.3 C
630 26-02-2016 04:25:00 1.3 C 93 % 0.3 C
631 26-02-2016 04:30:00 1.2 C 93 % 0.2 C
632 26-02-2016 04:35:00 1.2 C 93 % 0.2 C
633 26-02-2016 04:40:00 1.1 C 93 % 0.1 C
634 26-02-2016 04:45:00 0.9 C 93 % -0.1 C
635 26-02-2016 04:50:00 0.8 C 93 % -0.2 C
636 26-02-2016 04:55:00 0.7 C 93 % -0.3 C
637 26-02-2016 05:00:00 0.7 C 93 % -0.3 C
638 26-02-2016 05:05:00 0.6 C 93 % -0.4 C
639 26-02-2016 05:10:00 0.5 C 93 % -0.5 C
640 26-02-2016 05:15:00 0.4 C 93 % -0.6 C
641 26-02-2016 05:20:00 0.3 C 93 % -0.7 C
642 26-02-2016 05:25:00 0.2 C 93 % -0.79 C
643 26-02-2016 05:30:00 0.2 C 93 % -0.79 C
644 26-02-2016 05:35:00 0.1 C 93 % -0.89 C
645 26-02-2016 05:40:00 0.1 C 93 % -0.89 C
646 26-02-2016 05:45:00 0 C 93 % -0.99 C
647 26-02-2016 05:50:00 -0.1 C 93 % -1.09 C
648 26-02-2016 05:55:00 -0.1 C 93 % -1.09 C
649 26-02-2016 06:00:00 -0.1 C 93 % -1.09 C
650 26-02-2016 06:05:00 -0.1 C 94 % -0.95 C
Sensor: Nr:Datum:Temp:Feuchte:Taupunkt:
Aussen-T/F 651 26-02-2016 06:10:00 0 C 94 % -0.85 C
652 26-02-2016 06:15:00 0.1 C 94 % -0.75 C
653 26-02-2016 06:20:00 0.1 C 94 % -0.75 C
654 26-02-2016 06:25:00 0.1 C 94 % -0.75 C
655 26-02-2016 06:30:00 0.1 C 94 % -0.75 C
656 26-02-2016 06:35:00 0.2 C 94 % -0.65 C
657 26-02-2016 06:40:00 0.2 C 94 % -0.65 C
658 26-02-2016 06:45:00 0.2 C 94 % -0.65 C
659 26-02-2016 06:50:00 0.2 C 94 % -0.65 C
660 26-02-2016 06:55:00 0.2 C 94 % -0.65 C
661 26-02-2016 07:00:00 0.2 C 94 % -0.65 C
662 26-02-2016 07:05:00 0.2 C 94 % -0.65 C
663 26-02-2016 07:10:00 0.2 C 94 % -0.65 C
664 26-02-2016 07:15:00 0.2 C 94 % -0.65 C
665 26-02-2016 07:20:00 0.2 C 94 % -0.65 C
666 26-02-2016 07:25:00 0.2 C 94 % -0.65 C
667 26-02-2016 07:30:00 0.2 C 94 % -0.65 C
668 26-02-2016 07:35:00 0.2 C 94 % -0.65 C
669 26-02-2016 07:40:00 0.2 C 94 % -0.65 C
670 26-02-2016 07:45:00 0.2 C 94 % -0.65 C
671 26-02-2016 07:50:00 0.2 C 94 % -0.65 C
672 26-02-2016 07:55:00 0.2 C 95 % -0.5 C
673 26-02-2016 08:00:00 0.3 C 95 % -0.4 C
674 26-02-2016 08:05:00 0.3 C 95 % -0.4 C
675 26-02-2016 08:10:00 0.4 C 95 % -0.31 C
Sensor: Nr:Datum:Temp:Feuchte:Taupunkt:
Aussen-T/F 676 26-02-2016 08:15:00 0.5 C 95 % -0.21 C
677 26-02-2016 08:20:00 0.6 C 95 % -0.11 C
678 26-02-2016 08:25:00 0.6 C 95 % -0.11 C
679 26-02-2016 08:30:00 0.7 C 95 % -0.01 C
680 26-02-2016 08:35:00 0.8 C 95 % 0.09 C
681 26-02-2016 08:40:00 0.8 C 95 % 0.09 C
682 26-02-2016 08:45:00 0.8 C 95 % 0.09 C
683 26-02-2016 08:50:00 0.9 C 95 % 0.19 C
684 26-02-2016 08:55:00 0.9 C 95 % 0.19 C
685 26-02-2016 09:00:00 1 C 95 % 0.29 C
686 26-02-2016 09:05:00 1.1 C 94 % 0.24 C
687 26-02-2016 09:10:00 1.2 C 94 % 0.34 C
688 26-02-2016 09:15:00 1.2 C 94 % 0.34 C
689 26-02-2016 09:20:00 1.3 C 94 % 0.44 C
690 26-02-2016 09:25:00 1.3 C 94 % 0.44 C
691 26-02-2016 09:30:00 1.4 C 94 % 0.54 C
692 26-02-2016 09:35:00 1.6 C 94 % 0.74 C
693 26-02-2016 09:40:00 1.6 C 94 % 0.74 C
694 26-02-2016 09:45:00 1.7 C 93 % 0.69 C
695 26-02-2016 09:50:00 1.8 C 93 % 0.79 C
696 26-02-2016 09:55:00 1.9 C 93 % 0.89 C
697 26-02-2016 10:00:00 2 C 92 % 0.84 C
698 26-02-2016 10:05:00 2.1 C 92 % 0.94 C
699 26-02-2016 10:10:00 2.3 C 91 % 0.99 C
700 26-02-2016 10:15:00 2.4 C 91 % 1.08 C
Sensor: Nr:Datum:Temp:Feuchte:Taupunkt:
Aussen-T/F 701 26-02-2016 10:20:00 2.5 C 90 % 1.03 C
702 26-02-2016 10:25:00 2.6 C 90 % 1.13 C
703 26-02-2016 10:30:00 2.7 C 90 % 1.23 C
704 26-02-2016 10:35:00 2.8 C 89 % 1.17 C
705 26-02-2016 10:40:00 2.9 C 88 % 1.11 C
706 26-02-2016 10:45:00 3.1 C 87 % 1.15 C
707 26-02-2016 10:50:00 3.2 C 86 % 1.09 C
708 26-02-2016 10:55:00 3.3 C 85 % 1.03 C
709 26-02-2016 11:00:00 3.4 C 85 % 1.12 C
710 26-02-2016 11:05:00 3.6 C 85 % 1.32 C
711 26-02-2016 11:10:00 3.7 C 83 % 1.09 C
712 26-02-2016 11:15:00 3.8 C 83 % 1.19 C
713 26-02-2016 11:20:00 3.9 C 82 % 1.12 C
714 26-02-2016 11:25:00 4.1 C 83 % 1.48 C
715 26-02-2016 11:30:00 4.3 C 82 % 1.51 C
716 26-02-2016 11:35:00 4.4 C 80 % 1.26 C
717 26-02-2016 11:40:00 4.4 C 79 % 1.09 C
718 26-02-2016 11:45:00 4.4 C 78 % 0.91 C
719 26-02-2016 11:50:00 4.4 C 76 % 0.55 C
720 26-02-2016 11:55:00 4.4 C 77 % 0.73 C
721 26-02-2016 12:00:00 4.4 C 75 % 0.37 C
722 26-02-2016 12:05:00 4.4 C 75 % 0.37 C
723 26-02-2016 12:10:00 4.5 C 75 % 0.46 C
724 26-02-2016 12:15:00 4.6 C 75 % 0.56 C
725 26-02-2016 12:20:00 4.6 C 75 % 0.56 C
Sensor: Nr:Datum:Temp:Feuchte:Taupunkt:
Aussen-T/F 726 26-02-2016 12:25:00 4.6 C 77 % 0.92 C
727 26-02-2016 12:30:00 4.7 C 77 % 1.02 C
728 26-02-2016 12:35:00 4.7 C 77 % 1.02 C
729 26-02-2016 12:40:00 4.7 C 76 % 0.84 C
730 26-02-2016 12:45:00 4.6 C 77 % 0.92 C
731 26-02-2016 12:50:00 4.6 C 76 % 0.74 C
732 26-02-2016 12:55:00 4.6 C 78 % 1.1 C
733 26-02-2016 13:00:00 4.6 C 76 % 0.74 C
734 26-02-2016 13:05:00 4.7 C 77 % 1.02 C
735 26-02-2016 13:10:00 4.7 C 77 % 1.02 C
736 26-02-2016 13:15:00 4.7 C 76 % 0.84 C
737 26-02-2016 13:20:00 4.7 C 77 % 1.02 C
738 26-02-2016 13:25:00 4.7 C 76 % 0.84 C
739 26-02-2016 13:30:00 4.7 C 77 % 1.02 C
740 26-02-2016 13:35:00 4.8 C 76 % 0.94 C
741 26-02-2016 13:40:00 4.8 C 76 % 0.94 C
742 26-02-2016 13:45:00 4.9 C 76 % 1.03 C
743 26-02-2016 13:50:00 4.9 C 76 % 1.03 C
744 26-02-2016 13:55:00 4.9 C 75 % 0.85 C
745 26-02-2016 14:00:00 4.9 C 75 % 0.85 C
746 26-02-2016 14:05:00 4.9 C 75 % 0.85 C
747 26-02-2016 14:10:00 5 C 75 % 0.95 C
748 26-02-2016 14:15:00 5 C 75 % 0.95 C
749 26-02-2016 14:20:00 5 C 75 % 0.95 C
750 26-02-2016 14:25:00 5 C 74 % 0.76 C
Sensor: Nr:Datum:Temp:Feuchte:Taupunkt:
Aussen-T/F 751 26-02-2016 14:30:00 5.1 C 72 % 0.48 C
752 26-02-2016 14:35:00 5.1 C 74 % 0.86 C
753 26-02-2016 14:40:00 5.1 C 74 % 0.86 C
754 26-02-2016 14:45:00 5.1 C 73 % 0.67 C
755 26-02-2016 14:50:00 5.1 C 73 % 0.67 C
756 26-02-2016 14:55:00 5.1 C 73 % 0.67 C
757 26-02-2016 15:00:00 5.1 C 73 % 0.67 C
758 26-02-2016 15:05:00 5.1 C 73 % 0.67 C
759 26-02-2016 15:10:00 5.1 C 72 % 0.48 C
760 26-02-2016 15:15:00 5.2 C 72 % 0.58 C
761 26-02-2016 15:20:00 5.2 C 69 % -0.01 C
762 26-02-2016 15:25:00 5.2 C 68 % -0.21 C
763 26-02-2016 15:30:00 5.2 C 68 % -0.21 C
764 26-02-2016 15:35:00 5.2 C 68 % -0.21 C
765 26-02-2016 15:40:00 5.2 C 68 % -0.21 C
766 26-02-2016 15:45:00 5.2 C 68 % -0.21 C
767 26-02-2016 15:50:00 5.2 C 68 % -0.21 C
768 26-02-2016 15:55:00 5.2 C 70 % 0.19 C
769 26-02-2016 16:00:00 5.1 C 72 % 0.48 C
770 26-02-2016 16:05:00 5.1 C 72 % 0.48 C
771 26-02-2016 16:10:00 5 C 72 % 0.38 C
772 26-02-2016 16:15:00 4.9 C 73 % 0.48 C
773 26-02-2016 16:20:00 4.9 C 74 % 0.67 C
774 26-02-2016 16:25:00 4.8 C 73 % 0.38 C
775 26-02-2016 16:30:00 4.8 C 73 % 0.38 C
Sensor: Nr:Datum:Temp:Feuchte:Taupunkt:
Aussen-T/F 776 26-02-2016 16:35:00 4.7 C 73 % 0.28 C
777 26-02-2016 16:40:00 4.7 C 74 % 0.47 C
778 26-02-2016 16:45:00 4.7 C 76 % 0.84 C
779 26-02-2016 16:50:00 4.7 C 76 % 0.84 C
780 26-02-2016 16:55:00 4.6 C 75 % 0.56 C
781 26-02-2016 17:00:00 4.6 C 73 % 0.19 C
782 26-02-2016 17:05:00 4.6 C 74 % 0.38 C
783 26-02-2016 17:10:00 4.6 C 74 % 0.38 C
784 26-02-2016 17:15:00 4.6 C 74 % 0.38 C
785 26-02-2016 17:20:00 4.5 C 75 % 0.46 C
786 26-02-2016 17:25:00 4.5 C 74 % 0.28 C
787 26-02-2016 17:30:00 4.4 C 77 % 0.73 C
788 26-02-2016 17:35:00 4.4 C 76 % 0.55 C
789 26-02-2016 17:40:00 4.3 C 76 % 0.45 C
790 26-02-2016 17:45:00 4.2 C 74 % -0.01 C
791 26-02-2016 17:50:00 4.2 C 73 % -0.2 C
792 26-02-2016 17:55:00 4.1 C 75 % 0.08 C
793 26-02-2016 18:00:00 4.1 C 77 % 0.44 C
794 26-02-2016 18:05:00 3.9 C 75 % -0.12 C
795 26-02-2016 18:10:00 3.8 C 76 % -0.03 C
796 26-02-2016 18:15:00 3.8 C 77 % 0.15 C
797 26-02-2016 18:20:00 3.7 C 78 % 0.23 C
798 26-02-2016 18:25:00 3.6 C 79 % 0.31 C
799 26-02-2016 18:30:00 3.4 C 80 % 0.29 C
800 26-02-2016 18:35:00 3.2 C 79 % -0.08 C
Sensor: Nr:Datum:Temp:Feuchte:Taupunkt:
Aussen-T/F 801 26-02-2016 18:40:00 3 C 80 % -0.1 C
802 26-02-2016 18:45:00 2.8 C 80 % -0.3 C
803 26-02-2016 18:50:00 2.6 C 80 % -0.49 C
804 26-02-2016 18:55:00 2.3 C 81 % -0.62 C
805 26-02-2016 19:00:00 2.1 C 81 % -0.81 C
806 26-02-2016 19:05:00 1.9 C 82 % -0.84 C
807 26-02-2016 19:10:00 1.8 C 84 % -0.61 C
808 26-02-2016 19:15:00 1.8 C 84 % -0.61 C
809 26-02-2016 19:20:00 1.8 C 85 % -0.45 C
810 26-02-2016 19:25:00 1.8 C 85 % -0.45 C
811 26-02-2016 19:30:00 1.9 C 86 % -0.19 C
812 26-02-2016 19:35:00 1.9 C 85 % -0.35 C
813 26-02-2016 19:40:00 1.9 C 85 % -0.35 C
814 26-02-2016 19:45:00 1.9 C 85 % -0.35 C
815 26-02-2016 19:50:00 1.8 C 85 % -0.45 C
816 26-02-2016 19:55:00 1.7 C 85 % -0.54 C
817 26-02-2016 20:00:00 1.7 C 85 % -0.54 C
818 26-02-2016 20:05:00 1.6 C 86 % -0.48 C
819 26-02-2016 20:10:00 1.6 C 86 % -0.48 C
820 26-02-2016 20:15:00 1.6 C 87 % -0.32 C
821 26-02-2016 20:20:00 1.6 C 87 % -0.32 C
822 26-02-2016 20:25:00 1.7 C 87 % -0.23 C
823 26-02-2016 20:30:00 1.7 C 87 % -0.23 C
824 26-02-2016 20:35:00 1.8 C 87 % -0.13 C
825 26-02-2016 20:40:00 1.8 C 87 % -0.13 C
Sensor: Nr:Datum:Temp:Feuchte:Taupunkt:
Aussen-T/F 826 26-02-2016 20:45:00 1.8 C 87 % -0.13 C
827 26-02-2016 20:50:00 1.9 C 87 % -0.03 C
828 26-02-2016 20:55:00 1.9 C 87 % -0.03 C
829 26-02-2016 21:00:00 2 C 86 % -0.09 C
830 26-02-2016 21:05:00 2 C 86 % -0.09 C
831 26-02-2016 21:10:00 2 C 86 % -0.09 C
832 26-02-2016 21:15:00 2 C 86 % -0.09 C
833 26-02-2016 21:20:00 2.1 C 86 % 0.01 C
834 26-02-2016 21:25:00 2 C 86 % -0.09 C
835 26-02-2016 21:30:00 2 C 86 % -0.09 C
836 26-02-2016 21:35:00 2 C 86 % -0.09 C
837 26-02-2016 21:40:00 2 C 85 % -0.25 C
838 26-02-2016 21:45:00 2 C 86 % -0.09 C
839 26-02-2016 21:50:00 1.9 C 86 % -0.19 C
840 26-02-2016 21:55:00 1.9 C 86 % -0.19 C
841 26-02-2016 22:00:00 1.9 C 86 % -0.19 C
842 26-02-2016 22:05:00 1.9 C 86 % -0.19 C
843 26-02-2016 22:10:00 1.9 C 85 % -0.35 C
844 26-02-2016 22:15:00 1.9 C 85 % -0.35 C
845 26-02-2016 22:20:00 1.8 C 84 % -0.61 C
846 26-02-2016 22:25:00 1.8 C 84 % -0.61 C
847 26-02-2016 22:30:00 1.7 C 84 % -0.71 C
848 26-02-2016 22:35:00 1.7 C 84 % -0.71 C
849 26-02-2016 22:40:00 1.7 C 85 % -0.54 C
850 26-02-2016 22:45:00 1.7 C 85 % -0.54 C
Sensor: Nr:Datum:Temp:Feuchte:Taupunkt:
Aussen-T/F 851 26-02-2016 22:50:00 1.7 C 85 % -0.54 C
852 26-02-2016 22:55:00 1.7 C 85 % -0.54 C
853 26-02-2016 23:00:00 1.7 C 85 % -0.54 C
854 26-02-2016 23:05:00 1.7 C 84 % -0.71 C
855 26-02-2016 23:10:00 1.7 C 84 % -0.71 C
856 26-02-2016 23:15:00 1.7 C 84 % -0.71 C
857 26-02-2016 23:20:00 1.7 C 83 % -0.87 C
858 26-02-2016 23:25:00 1.8 C 84 % -0.61 C
859 26-02-2016 23:30:00 1.8 C 84 % -0.61 C
860 26-02-2016 23:35:00 1.8 C 84 % -0.61 C
861 26-02-2016 23:40:00 1.7 C 85 % -0.54 C
862 26-02-2016 23:45:00 1.7 C 84 % -0.71 C
863 26-02-2016 23:50:00 1.7 C 84 % -0.71 C
864 26-02-2016 23:55:00 1.7 C 84 % -0.71 C
865 27-02-2016 00:00:00 1.7 C 84 % -0.71 C
866 27-02-2016 00:05:00 1.7 C 84 % -0.71 C
867 27-02-2016 00:10:00 1.7 C 83 % -0.87 C
868 27-02-2016 00:15:00 1.7 C 83 % -0.87 C
869 27-02-2016 00:20:00 1.8 C 83 % -0.77 C
870 27-02-2016 00:25:00 1.8 C 83 % -0.77 C
871 27-02-2016 00:30:00 1.8 C 83 % -0.77 C
872 27-02-2016 00:35:00 1.8 C 83 % -0.77 C
873 27-02-2016 00:40:00 1.8 C 84 % -0.61 C
874 27-02-2016 00:45:00 1.8 C 84 % -0.61 C
875 27-02-2016 00:50:00 1.8 C 84 % -0.61 C
Sensor: Nr:Datum:Temp:Feuchte:Taupunkt:
Aussen-T/F 876 27-02-2016 00:55:00 1.8 C 84 % -0.61 C
877 27-02-2016 01:00:00 1.8 C 85 % -0.45 C
878 27-02-2016 01:05:00 1.8 C 85 % -0.45 C
879 27-02-2016 01:10:00 1.8 C 85 % -0.45 C
880 27-02-2016 01:15:00 1.8 C 86 % -0.29 C
881 27-02-2016 01:20:00 1.8 C 85 % -0.45 C
882 27-02-2016 01:25:00 1.7 C 85 % -0.54 C
883 27-02-2016 01:30:00 1.8 C 85 % -0.45 C
884 27-02-2016 01:35:00 1.7 C 85 % -0.54 C
885 27-02-2016 01:40:00 1.7 C 84 % -0.71 C
886 27-02-2016 01:45:00 1.7 C 84 % -0.71 C
887 27-02-2016 01:50:00 1.7 C 84 % -0.71 C
888 27-02-2016 01:55:00 1.7 C 84 % -0.71 C
889 27-02-2016 02:00:00 1.7 C 84 % -0.71 C
890 27-02-2016 02:05:00 1.7 C 84 % -0.71 C
891 27-02-2016 02:10:00 1.7 C 84 % -0.71 C
892 27-02-2016 02:15:00 1.7 C 84 % -0.71 C
893 27-02-2016 02:20:00 1.7 C 85 % -0.54 C
894 27-02-2016 02:25:00 1.7 C 84 % -0.71 C
895 27-02-2016 02:30:00 1.7 C 85 % -0.54 C
896 27-02-2016 02:35:00 1.7 C 85 % -0.54 C
897 27-02-2016 02:40:00 1.6 C 85 % -0.64 C
898 27-02-2016 02:45:00 1.6 C 85 % -0.64 C
899 27-02-2016 02:50:00 1.6 C 85 % -0.64 C
900 27-02-2016 02:55:00 1.6 C 85 % -0.64 C
Sensor: Nr:Datum:Temp:Feuchte:Taupunkt:
Aussen-T/F 901 27-02-2016 03:00:00 1.6 C 85 % -0.64 C
902 27-02-2016 03:05:00 1.5 C 85 % -0.74 C
903 27-02-2016 03:10:00 1.4 C 85 % -0.84 C
904 27-02-2016 03:15:00 1.4 C 85 % -0.84 C
905 27-02-2016 03:20:00 1.4 C 85 % -0.84 C
906 27-02-2016 03:25:00 1.4 C 85 % -0.84 C
907 27-02-2016 03:30:00 1.3 C 85 % -0.94 C
908 27-02-2016 03:35:00 1.3 C 85 % -0.94 C
909 27-02-2016 03:40:00 1.2 C 85 % -1.03 C
910 27-02-2016 03:45:00 1.1 C 85 % -1.13 C
911 27-02-2016 03:50:00 1 C 85 % -1.23 C
912 27-02-2016 03:55:00 0.9 C 85 % -1.33 C
913 27-02-2016 04:00:00 0.9 C 85 % -1.33 C
914 27-02-2016 04:05:00 0.8 C 85 % -1.43 C
915 27-02-2016 04:10:00 0.7 C 85 % -1.53 C
916 27-02-2016 04:15:00 0.5 C 84 % -1.88 C
917 27-02-2016 04:20:00 0.4 C 85 % -1.82 C
918 27-02-2016 04:25:00 0.3 C 85 % -1.92 C
919 27-02-2016 04:30:00 0.2 C 86 % -1.86 C
920 27-02-2016 04:35:00 0.1 C 86 % -1.96 C
921 27-02-2016 04:40:00 -0.1 C 86 % -2.16 C
922 27-02-2016 04:45:00 -0.2 C 86 % -2.25 C
923 27-02-2016 04:50:00 -0.2 C 87 % -2.1 C
924 27-02-2016 04:55:00 -0.3 C 87 % -2.2 C
925 27-02-2016 05:00:00 -0.3 C 87 % -2.2 C
Sensor: Nr:Datum:Temp:Feuchte:Taupunkt:
Aussen-T/F 926 27-02-2016 05:05:00 -0.4 C 87 % -2.29 C
927 27-02-2016 05:10:00 -0.4 C 87 % -2.29 C
928 27-02-2016 05:15:00 -0.5 C 87 % -2.39 C
929 27-02-2016 05:20:00 -0.6 C 87 % -2.49 C
930 27-02-2016 05:25:00 -0.6 C 87 % -2.49 C
931 27-02-2016 05:30:00 -0.7 C 87 % -2.59 C
932 27-02-2016 05:35:00 -0.7 C 87 % -2.59 C
933 27-02-2016 05:40:00 -0.7 C 88 % -2.44 C
934 27-02-2016 05:45:00 -0.7 C 87 % -2.59 C
935 27-02-2016 05:50:00 -0.7 C 87 % -2.59 C
936 27-02-2016 05:55:00 -0.7 C 88 % -2.44 C
937 27-02-2016 06:00:00 -0.7 C 88 % -2.44 C
938 27-02-2016 06:05:00 -0.8 C 87 % -2.69 C
939 27-02-2016 06:10:00 -0.8 C 88 % -2.53 C
940 27-02-2016 06:15:00 -0.8 C 87 % -2.69 C
941 27-02-2016 06:20:00 -0.8 C 87 % -2.69 C
942 27-02-2016 06:25:00 -0.8 C 88 % -2.53 C
943 27-02-2016 06:30:00 -0.7 C 87 % -2.59 C
944 27-02-2016 06:35:00 -0.7 C 87 % -2.59 C
945 27-02-2016 06:40:00 -0.7 C 87 % -2.59 C
946 27-02-2016 06:45:00 -0.7 C 87 % -2.59 C
947 27-02-2016 06:50:00 -0.8 C 87 % -2.69 C
948 27-02-2016 06:55:00 -0.8 C 87 % -2.69 C
949 27-02-2016 07:00:00 -0.8 C 87 % -2.69 C
950 27-02-2016 07:05:00 -0.8 C 87 % -2.69 C
Sensor: Nr:Datum:Temp:Feuchte:Taupunkt:
Aussen-T/F 951 27-02-2016 07:10:00 -0.8 C 88 % -2.53 C
952 27-02-2016 07:15:00 -0.8 C 87 % -2.69 C
953 27-02-2016 07:20:00 -0.8 C 87 % -2.69 C
954 27-02-2016 07:25:00 -0.8 C 88 % -2.53 C
955 27-02-2016 07:30:00 -0.8 C 87 % -2.69 C
956 27-02-2016 07:35:00 -0.9 C 87 % -2.79 C
957 27-02-2016 07:40:00 -0.8 C 87 % -2.69 C
958 27-02-2016 07:45:00 -0.8 C 87 % -2.69 C
959 27-02-2016 07:50:00 -0.8 C 87 % -2.69 C
960 27-02-2016 07:55:00 -0.7 C 87 % -2.59 C
961 27-02-2016 08:00:00 -0.7 C 87 % -2.59 C
962 27-02-2016 08:05:00 -0.7 C 87 % -2.59 C
963 27-02-2016 08:10:00 -0.7 C 87 % -2.59 C
964 27-02-2016 08:15:00 -0.6 C 88 % -2.34 C
965 27-02-2016 08:20:00 -0.6 C 88 % -2.34 C
966 27-02-2016 08:25:00 -0.6 C 87 % -2.49 C
967 27-02-2016 08:30:00 -0.6 C 88 % -2.34 C
968 27-02-2016 08:35:00 -0.6 C 88 % -2.34 C
969 27-02-2016 08:40:00 -0.6 C 88 % -2.34 C
970 27-02-2016 08:45:00 -0.6 C 88 % -2.34 C
971 27-02-2016 08:50:00 -0.6 C 88 % -2.34 C
972 27-02-2016 08:55:00 -0.6 C 88 % -2.34 C
973 27-02-2016 09:00:00 -0.6 C 88 % -2.34 C
974 27-02-2016 09:05:00 -0.5 C 88 % -2.24 C
975 27-02-2016 09:10:00 -0.5 C 88 % -2.24 C
Sensor: Nr:Datum:Temp:Feuchte:Taupunkt:
Aussen-T/F 976 27-02-2016 09:15:00 -0.4 C 88 % -2.14 C
977 27-02-2016 09:20:00 -0.4 C 88 % -2.14 C
978 27-02-2016 09:25:00 -0.3 C 88 % -2.04 C
979 27-02-2016 09:30:00 -0.3 C 88 % -2.04 C
980 27-02-2016 09:35:00 -0.2 C 88 % -1.94 C
981 27-02-2016 09:40:00 -0.2 C 88 % -1.94 C
982 27-02-2016 09:45:00 -0.1 C 88 % -1.84 C
983 27-02-2016 09:50:00 -0.1 C 87 % -2 C
984 27-02-2016 09:55:00 0 C 87 % -1.9 C
985 27-02-2016 10:00:00 0.1 C 87 % -1.8 C
986 27-02-2016 10:05:00 0.1 C 87 % -1.8 C
987 27-02-2016 10:10:00 0.2 C 86 % -1.86 C
988 27-02-2016 10:15:00 0.3 C 86 % -1.76 C
989 27-02-2016 10:20:00 0.3 C 86 % -1.76 C
990 27-02-2016 10:25:00 0.4 C 86 % -1.66 C
991 27-02-2016 10:30:00 0.6 C 86 % -1.46 C
992 27-02-2016 10:35:00 0.7 C 86 % -1.37 C
993 27-02-2016 10:40:00 1 C 82 % -1.72 C
994 27-02-2016 10:45:00 1.4 C 83 % -1.16 C
995 27-02-2016 10:50:00 1.7 C 83 % -0.87 C
996 27-02-2016 10:55:00 1.8 C 82 % -0.94 C
997 27-02-2016 11:00:00 2.1 C 80 % -0.98 C
998 27-02-2016 11:05:00 2.4 C 78 % -1.03 C
999 27-02-2016 11:10:00 2.8 C 79 % -0.47 C
1000 27-02-2016 11:15:00 3.2 C 77 % -0.43 C
Sensor: Nr:Datum:Temp:Feuchte:Taupunkt:
Aussen-T/F 1001 27-02-2016 11:20:00 3.5 C 72 % -1.06 C
1002 27-02-2016 11:25:00 3.6 C 72 % -0.96 C
1003 27-02-2016 11:30:00 3.6 C 74 % -0.59 C
1004 27-02-2016 11:35:00 3.6 C 74 % -0.59 C
1005 27-02-2016 11:40:00 3.6 C 71 % -1.15 C
1006 27-02-2016 11:45:00 3.7 C 71 % -1.06 C
1007 27-02-2016 11:50:00 3.7 C 71 % -1.06 C
1008 27-02-2016 11:55:00 3.8 C 68 % -1.55 C
1009 27-02-2016 12:00:00 3.9 C 69 % -1.26 C
1010 27-02-2016 12:05:00 4.1 C 66 % -1.67 C
1011 27-02-2016 12:10:00 4.3 C 70 % -0.68 C
1012 27-02-2016 12:15:00 4.4 C 66 % -1.38 C
1013 27-02-2016 12:20:00 4.6 C 65 % -1.4 C
1014 27-02-2016 12:25:00 4.7 C 63 % -1.73 C
1015 27-02-2016 12:30:00 4.8 C 62 % -1.85 C
1016 27-02-2016 12:35:00 5.1 C 61 % -1.79 C
1017 27-02-2016 12:40:00 5.2 C 60 % -1.92 C
1018 27-02-2016 12:45:00 5.2 C 61 % -1.69 C
1019 27-02-2016 12:50:00 5.3 C 61 % -1.6 C
1020 27-02-2016 12:55:00 5.3 C 58 % -2.28 C
1021 27-02-2016 13:00:00 5.4 C 58 % -2.18 C
1022 27-02-2016 13:05:00 5.6 C 58 % -2 C
1023 27-02-2016 13:10:00 5.7 C 60 % -1.44 C
1024 27-02-2016 13:15:00 5.7 C 57 % -2.14 C
1025 27-02-2016 13:20:00 5.8 C 57 % -2.04 C
Sensor: Nr:Datum:Temp:Feuchte:Taupunkt:
Aussen-T/F 1026 27-02-2016 13:25:00 5.9 C 57 % -1.95 C
1027 27-02-2016 13:30:00 6.1 C 56 % -2 C
1028 27-02-2016 13:35:00 6.2 C 57 % -1.67 C
1029 27-02-2016 13:40:00 6.2 C 55 % -2.15 C
1030 27-02-2016 13:45:00 6.5 C 55 % -1.87 C
1031 27-02-2016 13:50:00 6.5 C 53 % -2.37 C
1032 27-02-2016 13:55:00 6.6 C 54 % -2.03 C
1033 27-02-2016 14:00:00 6.6 C 53 % -2.28 C
1034 27-02-2016 14:05:00 6.7 C 54 % -1.94 C
1035 27-02-2016 14:10:00 6.7 C 54 % -1.94 C
1036 27-02-2016 14:15:00 6.7 C 55 % -1.69 C
1037 27-02-2016 14:20:00 6.7 C 55 % -1.69 C
1038 27-02-2016 14:25:00 6.8 C 55 % -1.59 C
1039 27-02-2016 14:30:00 6.8 C 54 % -1.84 C
1040 27-02-2016 14:35:00 6.8 C 53 % -2.09 C
1041 27-02-2016 14:40:00 6.9 C 54 % -1.75 C
1042 27-02-2016 14:45:00 6.9 C 54 % -1.75 C
1043 27-02-2016 14:50:00 6.9 C 53 % -2 C
1044 27-02-2016 14:55:00 6.8 C 53 % -2.09 C
1045 27-02-2016 15:00:00 6.8 C 54 % -1.84 C
1046 27-02-2016 15:05:00 6.9 C 55 % -1.5 C
1047 27-02-2016 15:10:00 6.9 C 55 % -1.5 C
1048 27-02-2016 15:15:00 7 C 55 % -1.41 C
1049 27-02-2016 15:20:00 7.1 C 55 % -1.31 C
1050 27-02-2016 15:25:00 7.1 C 55 % -1.31 C
Sensor: Nr:Datum:Temp:Feuchte:Taupunkt:
Aussen-T/F 1051 27-02-2016 15:30:00 7.2 C 56 % -0.98 C
1052 27-02-2016 15:35:00 7.3 C 54 % -1.38 C
1053 27-02-2016 15:40:00 7.3 C 55 % -1.13 C
1054 27-02-2016 15:45:00 7.3 C 56 % -0.88 C
1055 27-02-2016 15:50:00 7.3 C 54 % -1.38 C
1056 27-02-2016 15:55:00 7.3 C 54 % -1.38 C
1057 27-02-2016 16:00:00 7.3 C 56 % -0.88 C
1058 27-02-2016 16:05:00 7.4 C 55 % -1.03 C
1059 27-02-2016 16:10:00 7.4 C 55 % -1.03 C
1060 27-02-2016 16:15:00 7.4 C 55 % -1.03 C
1061 27-02-2016 16:20:00 7.4 C 55 % -1.03 C
1062 27-02-2016 16:25:00 7.4 C 55 % -1.03 C
1063 27-02-2016 16:30:00 7.4 C 55 % -1.03 C
1064 27-02-2016 16:35:00 7.3 C 55 % -1.13 C
1065 27-02-2016 16:40:00 7.3 C 57 % -0.64 C
1066 27-02-2016 16:45:00 7.2 C 57 % -0.73 C
1067 27-02-2016 16:50:00 7.3 C 57 % -0.64 C
1068 27-02-2016 16:55:00 7.2 C 56 % -0.98 C
1069 27-02-2016 17:00:00 7.2 C 60 % -0.03 C
1070 27-02-2016 17:05:00 6.9 C 61 % -0.09 C
1071 27-02-2016 17:10:00 6.8 C 59 % -0.64 C
1072 27-02-2016 17:15:00 6.8 C 61 % -0.18 C
1073 27-02-2016 17:20:00 6.8 C 58 % -0.87 C
1074 27-02-2016 17:25:00 6.8 C 60 % -0.41 C
1075 27-02-2016 17:30:00 6.6 C 60 % -0.6 C
Sensor: Nr:Datum:Temp:Feuchte:Taupunkt:
Aussen-T/F 1076 27-02-2016 17:35:00 6.4 C 64 % 0.1 C
1077 27-02-2016 17:40:00 6 C 66 % 0.14 C
1078 27-02-2016 17:45:00 5.6 C 66 % -0.24 C
1079 27-02-2016 17:50:00 5.3 C 68 % -0.12 C
1080 27-02-2016 17:55:00 4.9 C 68 % -0.5 C
1081 27-02-2016 18:00:00 4.7 C 71 % -0.1 C
1082 27-02-2016 18:05:00 4.4 C 72 % -0.19 C
1083 27-02-2016 18:10:00 4.1 C 73 % -0.29 C
1084 27-02-2016 18:15:00 3.8 C 74 % -0.4 C
1085 27-02-2016 18:20:00 3.6 C 74 % -0.59 C
1086 27-02-2016 18:25:00 3.3 C 76 % -0.52 C
1087 27-02-2016 18:30:00 3.2 C 76 % -0.61 C
1088 27-02-2016 18:35:00 3.1 C 77 % -0.53 C
1089 27-02-2016 18:40:00 2.9 C 78 % -0.55 C
1090 27-02-2016 18:45:00 2.8 C 78 % -0.65 C
1091 27-02-2016 18:50:00 2.8 C 78 % -0.65 C
1092 27-02-2016 18:55:00 2.8 C 78 % -0.65 C
1093 27-02-2016 19:00:00 2.7 C 78 % -0.74 C
1094 27-02-2016 19:05:00 2.7 C 78 % -0.74 C
1095 27-02-2016 19:10:00 2.6 C 79 % -0.67 C
1096 27-02-2016 19:15:00 2.6 C 79 % -0.67 C
1097 27-02-2016 19:20:00 2.5 C 79 % -0.76 C
1098 27-02-2016 19:25:00 2.5 C 79 % -0.76 C
1099 27-02-2016 19:30:00 2.4 C 79 % -0.86 C
1100 27-02-2016 19:35:00 2.4 C 79 % -0.86 C
Sensor: Nr:Datum:Temp:Feuchte:Taupunkt:
Aussen-T/F 1101 27-02-2016 19:40:00 2.3 C 80 % -0.79 C
1102 27-02-2016 19:45:00 2.3 C 79 % -0.96 C
1103 27-02-2016 19:50:00 2.2 C 80 % -0.88 C
1104 27-02-2016 19:55:00 2.2 C 80 % -0.88 C
1105 27-02-2016 20:00:00 2.2 C 80 % -0.88 C
1106 27-02-2016 20:05:00 2.2 C 81 % -0.71 C
1107 27-02-2016 20:10:00 2.1 C 81 % -0.81 C
1108 27-02-2016 20:15:00 1.9 C 81 % -1.01 C
1109 27-02-2016 20:20:00 1.8 C 81 % -1.1 C
1110 27-02-2016 20:25:00 1.7 C 82 % -1.03 C
1111 27-02-2016 20:30:00 1.6 C 82 % -1.13 C
1112 27-02-2016 20:35:00 1.6 C 82 % -1.13 C
1113 27-02-2016 20:40:00 1.6 C 82 % -1.13 C
1114 27-02-2016 20:45:00 1.6 C 82 % -1.13 C
1115 27-02-2016 20:50:00 1.6 C 82 % -1.13 C
1116 27-02-2016 20:55:00 1.6 C 82 % -1.13 C
1117 27-02-2016 21:00:00 1.5 C 82 % -1.23 C
1118 27-02-2016 21:05:00 1.5 C 82 % -1.23 C
1119 27-02-2016 21:10:00 1.4 C 82 % -1.33 C
1120 27-02-2016 21:15:00 1.4 C 82 % -1.33 C
1121 27-02-2016 21:20:00 1.4 C 82 % -1.33 C
1122 27-02-2016 21:25:00 1.3 C 82 % -1.43 C
1123 27-02-2016 21:30:00 1.3 C 82 % -1.43 C
1124 27-02-2016 21:35:00 1.2 C 82 % -1.52 C
1125 27-02-2016 21:40:00 1.2 C 83 % -1.36 C
Sensor: Nr:Datum:Temp:Feuchte:Taupunkt:
Aussen-T/F 1126 27-02-2016 21:45:00 1.1 C 83 % -1.46 C
1127 27-02-2016 21:50:00 1.1 C 83 % -1.46 C
1128 27-02-2016 21:55:00 1.1 C 84 % -1.29 C
1129 27-02-2016 22:00:00 1.1 C 84 % -1.29 C
1130 27-02-2016 22:05:00 0.9 C 84 % -1.49 C
1131 27-02-2016 22:10:00 0.8 C 84 % -1.59 C
1132 27-02-2016 22:15:00 0.9 C 85 % -1.33 C
1133 27-02-2016 22:20:00 0.9 C 85 % -1.33 C
1134 27-02-2016 22:25:00 0.8 C 85 % -1.43 C
1135 27-02-2016 22:30:00 0.8 C 85 % -1.43 C
1136 27-02-2016 22:35:00 0.8 C 86 % -1.27 C
1137 27-02-2016 22:40:00 0.8 C 86 % -1.27 C
1138 27-02-2016 22:45:00 0.8 C 85 % -1.43 C
1139 27-02-2016 22:50:00 0.8 C 86 % -1.27 C
1140 27-02-2016 22:55:00 0.8 C 86 % -1.27 C
1141 27-02-2016 23:00:00 0.7 C 86 % -1.37 C
1142 27-02-2016 23:05:00 0.7 C 86 % -1.37 C
1143 27-02-2016 23:10:00 0.8 C 86 % -1.27 C
1144 27-02-2016 23:15:00 0.9 C 86 % -1.17 C
1145 27-02-2016 23:20:00 0.9 C 86 % -1.17 C
1146 27-02-2016 23:25:00 0.8 C 86 % -1.27 C
1147 27-02-2016 23:30:00 0.8 C 86 % -1.27 C
1148 27-02-2016 23:35:00 0.7 C 86 % -1.37 C
1149 27-02-2016 23:40:00 0.6 C 86 % -1.46 C
1150 27-02-2016 23:45:00 0.6 C 86 % -1.46 C
Sensor: Nr:Datum:Temp:Feuchte:Taupunkt:
Aussen-T/F 1151 27-02-2016 23:50:00 0.5 C 87 % -1.41 C
1152 27-02-2016 23:55:00 0.5 C 87 % -1.41 C
1153 28-02-2016 00:00:00 0.4 C 87 % -1.5 C
1154 28-02-2016 00:05:00 0.4 C 87 % -1.5 C
1155 28-02-2016 00:10:00 0.4 C 87 % -1.5 C
1156 28-02-2016 00:15:00 0.4 C 87 % -1.5 C
1157 28-02-2016 00:20:00 0.3 C 87 % -1.6 C
1158 28-02-2016 00:25:00 0.3 C 87 % -1.6 C
1159 28-02-2016 00:30:00 0.2 C 87 % -1.7 C
1160 28-02-2016 00:35:00 0.2 C 87 % -1.7 C
1161 28-02-2016 00:40:00 0.2 C 87 % -1.7 C
1162 28-02-2016 00:45:00 0.1 C 87 % -1.8 C
1163 28-02-2016 00:50:00 0.1 C 87 % -1.8 C
1164 28-02-2016 00:55:00 0 C 88 % -1.74 C
1165 28-02-2016 01:00:00 -0.1 C 88 % -1.84 C
1166 28-02-2016 01:05:00 -0.1 C 87 % -2 C
1167 28-02-2016 01:10:00 -0.1 C 88 % -1.84 C
1168 28-02-2016 01:15:00 -0.1 C 88 % -1.84 C
1169 28-02-2016 01:20:00 -0.2 C 88 % -1.94 C
1170 28-02-2016 01:25:00 -0.3 C 88 % -2.04 C
1171 28-02-2016 01:30:00 -0.3 C 88 % -2.04 C
1172 28-02-2016 01:35:00 -0.3 C 89 % -1.89 C
1173 28-02-2016 01:40:00 -0.4 C 88 % -2.14 C
1174 28-02-2016 01:45:00 -0.4 C 89 % -1.99 C
1175 28-02-2016 01:50:00 -0.5 C 88 % -2.24 C
Sensor: Nr:Datum:Temp:Feuchte:Taupunkt:
Aussen-T/F 1176 28-02-2016 01:55:00 -0.6 C 89 % -2.18 C
1177 28-02-2016 02:00:00 -0.7 C 89 % -2.28 C
1178 28-02-2016 02:05:00 -0.8 C 89 % -2.38 C
1179 28-02-2016 02:10:00 -0.8 C 89 % -2.38 C
1180 28-02-2016 02:15:00 -0.9 C 89 % -2.48 C
1181 28-02-2016 02:20:00 -0.9 C 89 % -2.48 C
1182 28-02-2016 02:25:00 -1 C 90 % -2.43 C
1183 28-02-2016 02:30:00 -1 C 90 % -2.43 C
1184 28-02-2016 02:35:00 -1 C 90 % -2.43 C
1185 28-02-2016 02:40:00 -1 C 90 % -2.43 C
1186 28-02-2016 02:45:00 -1.1 C 90 % -2.53 C
1187 28-02-2016 02:50:00 -1.1 C 90 % -2.53 C
1188 28-02-2016 02:55:00 -1.2 C 90 % -2.63 C
1189 28-02-2016 03:00:00 -1.2 C 90 % -2.63 C
1190 28-02-2016 03:05:00 -1.3 C 90 % -2.73 C
1191 28-02-2016 03:10:00 -1.2 C 91 % -2.48 C
1192 28-02-2016 03:15:00 -1.2 C 91 % -2.48 C
1193 28-02-2016 03:20:00 -1.2 C 90 % -2.63 C
1194 28-02-2016 03:25:00 -1.1 C 90 % -2.53 C
1195 28-02-2016 03:30:00 -1.1 C 90 % -2.53 C
1196 28-02-2016 03:35:00 -1.1 C 90 % -2.53 C
1197 28-02-2016 03:40:00 -1.1 C 90 % -2.53 C
1198 28-02-2016 03:45:00 -1.1 C 90 % -2.53 C
1199 28-02-2016 03:50:00 -1.2 C 90 % -2.63 C
1200 28-02-2016 03:55:00 -1.2 C 90 % -2.63 C
Sensor: Nr:Datum:Temp:Feuchte:Taupunkt:
Aussen-T/F 1201 28-02-2016 04:00:00 -1.2 C 90 % -2.63 C
1202 28-02-2016 04:05:00 -1.2 C 90 % -2.63 C
1203 28-02-2016 04:10:00 -1.2 C 90 % -2.63 C
1204 28-02-2016 04:15:00 -1.3 C 90 % -2.73 C
1205 28-02-2016 04:20:00 -1.3 C 90 % -2.73 C
1206 28-02-2016 04:25:00 -1.4 C 90 % -2.82 C
1207 28-02-2016 04:30:00 -1.4 C 90 % -2.82 C
1208 28-02-2016 04:35:00 -1.4 C 90 % -2.82 C
1209 28-02-2016 04:40:00 -1.4 C 91 % -2.68 C
1210 28-02-2016 04:45:00 -1.4 C 91 % -2.68 C
1211 28-02-2016 04:50:00 -1.4 C 91 % -2.68 C
1212 28-02-2016 04:55:00 -1.4 C 91 % -2.68 C
1213 28-02-2016 05:00:00 -1.4 C 90 % -2.82 C
1214 28-02-2016 05:05:00 -1.3 C 91 % -2.58 C
1215 28-02-2016 05:10:00 -1.3 C 91 % -2.58 C
1216 28-02-2016 05:15:00 -1.3 C 90 % -2.73 C
1217 28-02-2016 05:20:00 -1.3 C 90 % -2.73 C
1218 28-02-2016 05:25:00 -1.3 C 90 % -2.73 C
1219 28-02-2016 05:30:00 -1.3 C 90 % -2.73 C
1220 28-02-2016 05:35:00 -1.3 C 90 % -2.73 C
1221 28-02-2016 05:40:00 -1.3 C 90 % -2.73 C
1222 28-02-2016 05:45:00 -1.3 C 90 % -2.73 C
1223 28-02-2016 05:50:00 -1.4 C 90 % -2.82 C
1224 28-02-2016 05:55:00 -1.4 C 89 % -2.97 C
1225 28-02-2016 06:00:00 -1.5 C 90 % -2.92 C
Sensor: Nr:Datum:Temp:Feuchte:Taupunkt:
Aussen-T/F 1226 28-02-2016 06:05:00 -1.6 C 89 % -3.17 C
1227 28-02-2016 06:10:00 -1.7 C 90 % -3.12 C
1228 28-02-2016 06:15:00 -1.7 C 90 % -3.12 C
1229 28-02-2016 06:20:00 -1.7 C 91 % -2.97 C
1230 28-02-2016 06:25:00 -1.6 C 91 % -2.87 C
1231 28-02-2016 06:30:00 -1.5 C 91 % -2.77 C
1232 28-02-2016 06:35:00 -1.4 C 90 % -2.82 C
1233 28-02-2016 06:40:00 -1.4 C 90 % -2.82 C
1234 28-02-2016 06:45:00 -1.3 C 90 % -2.73 C
1235 28-02-2016 06:50:00 -1.3 C 90 % -2.73 C
1236 28-02-2016 06:55:00 -1.3 C 90 % -2.73 C
1237 28-02-2016 07:00:00 -1.3 C 89 % -2.88 C
1238 28-02-2016 07:05:00 -1.3 C 89 % -2.88 C
1239 28-02-2016 07:10:00 -1.4 C 89 % -2.97 C
1240 28-02-2016 07:15:00 -1.4 C 89 % -2.97 C
1241 28-02-2016 07:20:00 -1.5 C 89 % -3.07 C
1242 28-02-2016 07:25:00 -1.6 C 89 % -3.17 C
1243 28-02-2016 07:30:00 -1.6 C 90 % -3.02 C
1244 28-02-2016 07:35:00 -1.4 C 90 % -2.82 C
1245 28-02-2016 07:40:00 -1.3 C 91 % -2.58 C
1246 28-02-2016 07:45:00 -1.2 C 90 % -2.63 C
1247 28-02-2016 07:50:00 -1.1 C 90 % -2.53 C
1248 28-02-2016 07:55:00 -1.1 C 90 % -2.53 C
1249 28-02-2016 08:00:00 -1 C 90 % -2.43 C
1250 28-02-2016 08:05:00 -1 C 90 % -2.43 C
Sensor: Nr:Datum:Temp:Feuchte:Taupunkt:
Aussen-T/F 1251 28-02-2016 08:10:00 -1 C 90 % -2.43 C
1252 28-02-2016 08:15:00 -1 C 90 % -2.43 C
1253 28-02-2016 08:20:00 -1.1 C 90 % -2.53 C
1254 28-02-2016 08:25:00 -1 C 90 % -2.43 C
1255 28-02-2016 08:30:00 -0.9 C 90 % -2.33 C
1256 28-02-2016 08:35:00 -0.8 C 90 % -2.23 C
1257 28-02-2016 08:40:00 -0.7 C 90 % -2.13 C
1258 28-02-2016 08:45:00 -0.6 C 90 % -2.03 C
1259 28-02-2016 08:50:00 -0.4 C 90 % -1.84 C
1260 28-02-2016 08:55:00 -0.3 C 89 % -1.89 C
1261 28-02-2016 09:00:00 -0.2 C 89 % -1.79 C
1262 28-02-2016 09:05:00 -0.1 C 88 % -1.84 C
1263 28-02-2016 09:10:00 0 C 88 % -1.74 C
1264 28-02-2016 09:15:00 0.1 C 88 % -1.65 C
1265 28-02-2016 09:20:00 0.2 C 86 % -1.86 C
1266 28-02-2016 09:25:00 0.4 C 86 % -1.66 C
1267 28-02-2016 09:30:00 0.6 C 85 % -1.62 C
1268 28-02-2016 09:35:00 0.7 C 85 % -1.53 C
1269 28-02-2016 09:40:00 0.8 C 84 % -1.59 C
1270 28-02-2016 10:35:00 2.4 C 77 % -1.21 C
1271 28-02-2016 10:55:00 2.6 C 77 % -1.02 C
1272 28-02-2016 11:00:00 2.9 C 76 % -0.9 C
1273 28-02-2016 11:05:00 3.2 C 75 % -0.79 C
1274 28-02-2016 11:10:00 3.4 C 74 % -0.78 C
1275 28-02-2016 11:15:00 3.6 C 74 % -0.59 C
Sensor: Nr:Datum:Temp:Feuchte:Taupunkt:
Aussen-T/F 1276 28-02-2016 11:20:00 3.7 C 71 % -1.06 C
1277 28-02-2016 11:25:00 3.8 C 71 % -0.96 C
1278 28-02-2016 11:30:00 3.9 C 71 % -0.87 C
1279 28-02-2016 11:35:00 4.2 C 70 % -0.77 C
1280 28-02-2016 11:40:00 4.4 C 69 % -0.78 C
1281 28-02-2016 11:45:00 4.6 C 69 % -0.58 C
1282 28-02-2016 11:50:00 4.7 C 68 % -0.69 C
1283 28-02-2016 11:55:00 4.8 C 67 % -0.8 C
1284 28-02-2016 12:00:00 4.8 C 67 % -0.8 C
1285 28-02-2016 12:05:00 4.9 C 67 % -0.7 C
1286 28-02-2016 12:10:00 5 C 69 % -0.2 C
1287 28-02-2016 12:15:00 5.1 C 67 % -0.51 C
1288 28-02-2016 12:20:00 5.3 C 67 % -0.32 C
1289 28-02-2016 12:25:00 5.4 C 66 % -0.43 C
1290 28-02-2016 12:30:00 5.8 C 63 % -0.69 C
1291 28-02-2016 12:35:00 6.1 C 60 % -1.07 C
1292 28-02-2016 12:40:00 6.3 C 59 % -1.11 C
1293 28-02-2016 12:45:00 6.4 C 58 % -1.25 C
1294 28-02-2016 12:50:00 6.5 C 58 % -1.15 C
1295 28-02-2016 12:55:00 6.6 C 57 % -1.3 C
1296 28-02-2016 13:00:00 6.6 C 58 % -1.06 C
1297 28-02-2016 13:05:00 6.6 C 57 % -1.3 C
1298 28-02-2016 13:10:00 6.7 C 58 % -0.97 C
1299 28-02-2016 13:15:00 6.6 C 58 % -1.06 C
1300 28-02-2016 13:20:00 6.6 C 57 % -1.3 C
Sensor: Nr:Datum:Temp:Feuchte:Taupunkt:
Aussen-T/F 1301 28-02-2016 13:25:00 6.7 C 59 % -0.73 C
1302 28-02-2016 13:30:00 6.7 C 58 % -0.97 C
1303 28-02-2016 13:35:00 6.8 C 58 % -0.87 C
1304 28-02-2016 13:40:00 6.8 C 59 % -0.64 C
1305 28-02-2016 13:45:00 6.8 C 58 % -0.87 C
1306 28-02-2016 13:50:00 6.9 C 58 % -0.78 C
1307 28-02-2016 13:55:00 6.9 C 57 % -1.01 C
1308 28-02-2016 14:00:00 6.9 C 58 % -0.78 C
1309 28-02-2016 14:05:00 6.9 C 58 % -0.78 C
1310 28-02-2016 14:10:00 6.9 C 57 % -1.01 C
1311 28-02-2016 14:15:00 7 C 58 % -0.68 C
1312 28-02-2016 14:20:00 7 C 57 % -0.92 C
1313 28-02-2016 14:25:00 7 C 57 % -0.92 C
1314 28-02-2016 14:30:00 7 C 57 % -0.92 C
1315 28-02-2016 14:35:00 7 C 56 % -1.16 C
1316 28-02-2016 14:40:00 6.9 C 57 % -1.01 C
1317 28-02-2016 14:45:00 7 C 57 % -0.92 C
1318 28-02-2016 14:50:00 7.1 C 57 % -0.83 C
1319 28-02-2016 14:55:00 7.1 C 58 % -0.59 C
1320 28-02-2016 15:00:00 6.9 C 57 % -1.01 C
1321 28-02-2016 15:05:00 6.8 C 58 % -0.87 C
1322 28-02-2016 15:10:00 6.8 C 58 % -0.87 C
1323 28-02-2016 15:15:00 6.7 C 58 % -0.97 C
1324 28-02-2016 15:20:00 6.6 C 58 % -1.06 C
1325 28-02-2016 15:25:00 6.6 C 58 % -1.06 C
Sensor: Nr:Datum:Temp:Feuchte:Taupunkt:
Aussen-T/F 1326 28-02-2016 15:30:00 6.6 C 58 % -1.06 C
1327 28-02-2016 15:35:00 6.5 C 58 % -1.15 C
1328 28-02-2016 15:40:00 6.5 C 58 % -1.15 C
1329 28-02-2016 15:45:00 6.4 C 58 % -1.25 C
1330 28-02-2016 15:50:00 6.4 C 59 % -1.01 C
1331 28-02-2016 15:55:00 6.3 C 59 % -1.11 C
1332 28-02-2016 16:00:00 6.3 C 58 % -1.34 C
1333 28-02-2016 16:05:00 6.2 C 59 % -1.2 C
1334 28-02-2016 16:10:00 6.2 C 59 % -1.2 C
1335 28-02-2016 16:15:00 6.2 C 59 % -1.2 C
1336 28-02-2016 16:20:00 6.2 C 59 % -1.2 C
1337 28-02-2016 16:25:00 6.2 C 59 % -1.2 C
1338 28-02-2016 16:30:00 6.2 C 60 % -0.97 C
1339 28-02-2016 16:35:00 6.2 C 59 % -1.2 C
1340 28-02-2016 16:40:00 6.1 C 60 % -1.07 C
1341 28-02-2016 16:45:00 6.1 C 59 % -1.3 C
1342 28-02-2016 16:50:00 6.1 C 59 % -1.3 C
1343 28-02-2016 16:55:00 6 C 58 % -1.62 C
1344 28-02-2016 17:00:00 5.9 C 58 % -1.72 C
1345 28-02-2016 17:05:00 5.9 C 58 % -1.72 C
1346 28-02-2016 17:10:00 5.8 C 59 % -1.58 C
1347 28-02-2016 17:15:00 5.8 C 59 % -1.58 C
1348 28-02-2016 17:20:00 5.7 C 59 % -1.67 C
1349 28-02-2016 17:25:00 5.7 C 59 % -1.67 C
1350 28-02-2016 17:30:00 5.7 C 59 % -1.67 C
Sensor: Nr:Datum:Temp:Feuchte:Taupunkt:
Aussen-T/F 1351 28-02-2016 17:35:00 5.6 C 59 % -1.77 C
1352 28-02-2016 17:40:00 5.6 C 59 % -1.77 C
1353 28-02-2016 17:45:00 5.5 C 60 % -1.63 C
1354 28-02-2016 17:50:00 5.4 C 61 % -1.5 C
1355 28-02-2016 17:55:00 5.3 C 62 % -1.38 C
1356 28-02-2016 18:00:00 5.2 C 62 % -1.47 C
1357 28-02-2016 18:05:00 5.1 C 65 % -0.92 C
1358 28-02-2016 18:10:00 4.9 C 66 % -0.91 C
1359 28-02-2016 18:15:00 4.7 C 67 % -0.89 C
1360 28-02-2016 18:20:00 4.6 C 68 % -0.78 C
1361 28-02-2016 18:25:00 4.3 C 70 % -0.68 C
1362 28-02-2016 18:30:00 3.9 C 72 % -0.68 C
1363 28-02-2016 18:35:00 3.8 C 72 % -0.77 C
1364 28-02-2016 18:40:00 3.8 C 73 % -0.58 C
1365 28-02-2016 18:45:00 3.6 C 74 % -0.59 C
1366 28-02-2016 18:50:00 3.5 C 74 % -0.69 C
1367 28-02-2016 18:55:00 3.4 C 75 % -0.6 C
1368 28-02-2016 19:00:00 3.5 C 72 % -1.06 C
1369 28-02-2016 19:05:00 3.8 C 70 % -1.16 C
1370 28-02-2016 19:10:00 4.1 C 68 % -1.26 C
1371 28-02-2016 19:15:00 4.3 C 69 % -0.87 C
1372 28-02-2016 19:20:00 4.2 C 68 % -1.17 C
1373 28-02-2016 19:25:00 4.1 C 70 % -0.87 C
1374 28-02-2016 19:30:00 3.9 C 71 % -0.87 C
1375 28-02-2016 19:35:00 3.6 C 73 % -0.78 C
Sensor: Nr:Datum:Temp:Feuchte:Taupunkt:
Aussen-T/F 1376 28-02-2016 19:40:00 3.3 C 75 % -0.7 C
1377 28-02-2016 19:45:00 3.1 C 75 % -0.89 C
1378 28-02-2016 19:50:00 2.8 C 76 % -1 C
1379 28-02-2016 19:55:00 2.7 C 78 % -0.74 C
1380 28-02-2016 20:00:00 2.6 C 78 % -0.84 C
1381 28-02-2016 20:05:00 2.4 C 79 % -0.86 C
1382 28-02-2016 20:10:00 2.3 C 79 % -0.96 C
1383 28-02-2016 20:15:00 2.2 C 79 % -1.05 C
1384 28-02-2016 20:20:00 2.2 C 80 % -0.88 C
1385 28-02-2016 20:25:00 2.1 C 80 % -0.98 C
1386 28-02-2016 20:30:00 2.1 C 80 % -0.98 C
1387 28-02-2016 20:35:00 2.1 C 80 % -0.98 C
1388 28-02-2016 20:40:00 2.1 C 80 % -0.98 C
1389 28-02-2016 20:45:00 2.1 C 80 % -0.98 C
1390 28-02-2016 20:50:00 2.1 C 80 % -0.98 C
1391 28-02-2016 20:55:00 2.1 C 79 % -1.15 C
1392 28-02-2016 21:00:00 2 C 80 % -1.08 C
1393 28-02-2016 21:05:00 1.9 C 80 % -1.18 C
1394 28-02-2016 21:10:00 1.9 C 80 % -1.18 C
1395 28-02-2016 21:15:00 1.9 C 79 % -1.35 C
1396 28-02-2016 21:20:00 1.9 C 79 % -1.35 C
1397 28-02-2016 21:25:00 1.9 C 79 % -1.35 C
1398 28-02-2016 21:30:00 1.8 C 79 % -1.44 C
1399 28-02-2016 21:35:00 1.8 C 80 % -1.27 C
1400 28-02-2016 21:40:00 1.7 C 81 % -1.2 C
Sensor: Nr:Datum:Temp:Feuchte:Taupunkt:
Aussen-T/F 1401 28-02-2016 21:45:00 1.6 C 80 % -1.47 C
1402 28-02-2016 21:50:00 1.6 C 81 % -1.3 C
1403 28-02-2016 21:55:00 1.6 C 81 % -1.3 C
1404 28-02-2016 22:00:00 1.6 C 81 % -1.3 C
1405 28-02-2016 22:05:00 1.7 C 81 % -1.2 C
1406 28-02-2016 22:10:00 1.7 C 81 % -1.2 C
1407 28-02-2016 22:15:00 1.7 C 81 % -1.2 C
1408 28-02-2016 22:20:00 1.7 C 81 % -1.2 C
1409 28-02-2016 22:25:00 1.7 C 81 % -1.2 C
1410 28-02-2016 22:30:00 1.7 C 81 % -1.2 C
1411 28-02-2016 22:35:00 1.6 C 81 % -1.3 C
1412 28-02-2016 22:40:00 1.6 C 82 % -1.13 C
1413 28-02-2016 22:45:00 1.4 C 83 % -1.16 C
1414 28-02-2016 22:50:00 1.3 C 83 % -1.26 C
1415 28-02-2016 22:55:00 1.3 C 83 % -1.26 C
1416 28-02-2016 23:00:00 1.3 C 83 % -1.26 C
1417 28-02-2016 23:05:00 1.3 C 83 % -1.26 C
1418 28-02-2016 23:10:00 1.3 C 83 % -1.26 C
1419 28-02-2016 23:15:00 1.4 C 82 % -1.33 C
1420 28-02-2016 23:20:00 1.4 C 82 % -1.33 C
1421 28-02-2016 23:25:00 1.4 C 83 % -1.16 C
1422 28-02-2016 23:30:00 1.4 C 82 % -1.33 C
1423 28-02-2016 23:35:00 1.4 C 82 % -1.33 C
1424 28-02-2016 23:40:00 1.4 C 82 % -1.33 C
1425 28-02-2016 23:45:00 1.4 C 82 % -1.33 C
Sensor: Nr:Datum:Temp:Feuchte:Taupunkt:
Aussen-T/F 1426 28-02-2016 23:50:00 1.4 C 82 % -1.33 C
1427 28-02-2016 23:55:00 1.5 C 82 % -1.23 C
1428 29-02-2016 00:00:00 1.4 C 82 % -1.33 C
1429 29-02-2016 00:05:00 1.3 C 82 % -1.43 C
1430 29-02-2016 00:10:00 1.2 C 82 % -1.52 C
1431 29-02-2016 00:15:00 1.3 C 82 % -1.43 C
1432 29-02-2016 00:20:00 1.5 C 81 % -1.4 C
1433 29-02-2016 00:25:00 1.7 C 79 % -1.54 C
1434 29-02-2016 00:30:00 1.9 C 77 % -1.69 C
1435 29-02-2016 00:35:00 2 C 77 % -1.6 C
1436 29-02-2016 00:40:00 1.9 C 79 % -1.35 C
1437 29-02-2016 00:45:00 1.8 C 79 % -1.44 C
1438 29-02-2016 00:50:00 1.8 C 79 % -1.44 C
1439 29-02-2016 00:55:00 1.7 C 79 % -1.54 C
1440 29-02-2016 01:00:00 1.7 C 80 % -1.37 C
1441 29-02-2016 01:05:00 1.7 C 79 % -1.54 C
1442 29-02-2016 01:10:00 1.7 C 78 % -1.71 C
1443 29-02-2016 01:15:00 1.7 C 79 % -1.54 C
1444 29-02-2016 01:20:00 1.7 C 79 % -1.54 C
1445 29-02-2016 01:25:00 1.8 C 78 % -1.62 C
1446 29-02-2016 01:30:00 1.9 C 78 % -1.52 C
1447 29-02-2016 01:35:00 1.8 C 78 % -1.62 C
1448 29-02-2016 01:40:00 1.8 C 78 % -1.62 C
1449 29-02-2016 01:45:00 1.8 C 78 % -1.62 C
1450 29-02-2016 01:50:00 1.8 C 78 % -1.62 C
Sensor: Nr:Datum:Temp:Feuchte:Taupunkt:
Aussen-T/F 1451 29-02-2016 01:55:00 1.7 C 79 % -1.54 C
1452 29-02-2016 02:00:00 1.7 C 78 % -1.71 C
1453 29-02-2016 02:05:00 1.7 C 79 % -1.54 C
1454 29-02-2016 02:10:00 1.7 C 79 % -1.54 C
1455 29-02-2016 02:15:00 1.6 C 79 % -1.64 C
1456 29-02-2016 02:20:00 1.6 C 79 % -1.64 C
1457 29-02-2016 02:25:00 1.6 C 79 % -1.64 C
1458 29-02-2016 02:30:00 1.6 C 79 % -1.64 C
1459 29-02-2016 02:35:00 1.6 C 79 % -1.64 C
1460 29-02-2016 02:40:00 1.6 C 80 % -1.47 C
1461 29-02-2016 02:45:00 1.5 C 80 % -1.57 C
1462 29-02-2016 02:50:00 1.4 C 81 % -1.49 C
1463 29-02-2016 02:55:00 1.4 C 81 % -1.49 C
1464 29-02-2016 03:00:00 1.3 C 81 % -1.59 C
1465 29-02-2016 03:05:00 1.3 C 81 % -1.59 C
1466 29-02-2016 03:10:00 1.3 C 80 % -1.76 C
1467 29-02-2016 03:15:00 1.3 C 80 % -1.76 C
1468 29-02-2016 03:20:00 1.3 C 81 % -1.59 C
1469 29-02-2016 03:25:00 1.3 C 80 % -1.76 C
1470 29-02-2016 03:30:00 1.4 C 79 % -1.83 C
1471 29-02-2016 03:35:00 1.6 C 79 % -1.64 C
1472 29-02-2016 03:40:00 1.6 C 79 % -1.64 C
1473 29-02-2016 03:45:00 1.5 C 80 % -1.57 C
1474 29-02-2016 03:50:00 1.4 C 80 % -1.66 C
1475 29-02-2016 03:55:00 1.3 C 80 % -1.76 C
Sensor: Nr:Datum:Temp:Feuchte:Taupunkt:
Aussen-T/F 1476 29-02-2016 04:00:00 1.3 C 81 % -1.59 C
1477 29-02-2016 04:05:00 1.2 C 81 % -1.69 C
1478 29-02-2016 04:10:00 1.2 C 82 % -1.52 C
1479 29-02-2016 04:15:00 1.1 C 82 % -1.62 C
1480 29-02-2016 04:20:00 1.1 C 82 % -1.62 C
1481 29-02-2016 04:25:00 0.9 C 82 % -1.82 C
1482 29-02-2016 04:30:00 0.9 C 83 % -1.65 C
1483 29-02-2016 04:35:00 0.9 C 83 % -1.65 C
1484 29-02-2016 04:40:00 0.8 C 82 % -1.91 C
1485 29-02-2016 04:45:00 0.8 C 83 % -1.75 C
1486 29-02-2016 04:50:00 0.7 C 84 % -1.69 C
1487 29-02-2016 04:55:00 0.7 C 84 % -1.69 C
1488 29-02-2016 05:00:00 0.6 C 84 % -1.78 C
1489 29-02-2016 05:05:00 0.6 C 84 % -1.78 C
1490 29-02-2016 05:10:00 0.4 C 85 % -1.82 C
1491 29-02-2016 05:15:00 0.4 C 85 % -1.82 C
1492 29-02-2016 05:20:00 0.3 C 85 % -1.92 C
1493 29-02-2016 05:25:00 0.3 C 85 % -1.92 C
1494 29-02-2016 05:30:00 0.2 C 85 % -2.02 C
1495 29-02-2016 05:35:00 0.2 C 85 % -2.02 C
1496 29-02-2016 05:40:00 0.2 C 86 % -1.86 C
1497 29-02-2016 05:45:00 0.3 C 86 % -1.76 C
1498 29-02-2016 05:50:00 0.3 C 86 % -1.76 C
1499 29-02-2016 05:55:00 0.3 C 86 % -1.76 C
1500 29-02-2016 06:00:00 0.3 C 86 % -1.76 C
Sensor: Nr:Datum:Temp:Feuchte:Taupunkt:
Aussen-T/F 1501 29-02-2016 06:05:00 0.3 C 86 % -1.76 C
1502 29-02-2016 06:10:00 0.3 C 86 % -1.76 C
1503 29-02-2016 06:15:00 0.3 C 86 % -1.76 C
1504 29-02-2016 06:20:00 0.3 C 85 % -1.92 C
1505 29-02-2016 06:25:00 0.2 C 86 % -1.86 C
1506 29-02-2016 06:30:00 0.2 C 86 % -1.86 C
1507 29-02-2016 06:35:00 0.1 C 86 % -1.96 C
1508 29-02-2016 06:40:00 0.1 C 86 % -1.96 C
1509 29-02-2016 06:45:00 0.1 C 87 % -1.8 C
1510 29-02-2016 06:50:00 0.1 C 87 % -1.8 C
1511 29-02-2016 06:55:00 0 C 87 % -1.9 C
1512 29-02-2016 07:00:00 0.1 C 87 % -1.8 C
1513 29-02-2016 07:05:00 0.2 C 86 % -1.86 C
1514 29-02-2016 07:10:00 0.2 C 86 % -1.86 C
1515 29-02-2016 07:15:00 0.2 C 86 % -1.86 C
1516 29-02-2016 07:20:00 0.2 C 86 % -1.86 C
1517 29-02-2016 07:25:00 0.3 C 86 % -1.76 C
1518 29-02-2016 07:30:00 0.3 C 86 % -1.76 C
1519 29-02-2016 07:35:00 0.3 C 86 % -1.76 C
1520 29-02-2016 07:40:00 0.4 C 86 % -1.66 C
1521 29-02-2016 07:45:00 0.4 C 85 % -1.82 C
1522 29-02-2016 07:50:00 0.5 C 85 % -1.72 C
1523 29-02-2016 07:55:00 0.6 C 85 % -1.62 C
1524 29-02-2016 08:00:00 0.5 C 85 % -1.72 C
1525 29-02-2016 08:05:00 0.4 C 85 % -1.82 C
Sensor: Nr:Datum:Temp:Feuchte:Taupunkt:
Aussen-T/F 1526 29-02-2016 08:10:00 0.4 C 85 % -1.82 C
1527 29-02-2016 08:15:00 0.4 C 85 % -1.82 C
1528 29-02-2016 08:20:00 0.4 C 84 % -1.98 C
1529 29-02-2016 08:25:00 0.3 C 84 % -2.08 C
1530 29-02-2016 08:30:00 0.2 C 84 % -2.18 C
1531 29-02-2016 08:35:00 0.1 C 85 % -2.11 C
1532 29-02-2016 08:40:00 0 C 86 % -2.05 C
1533 29-02-2016 08:45:00 -0.1 C 86 % -2.16 C
1534 29-02-2016 08:50:00 -0.1 C 86 % -2.16 C
1535 29-02-2016 08:55:00 -0.1 C 86 % -2.16 C
1536 29-02-2016 09:00:00 -0.2 C 86 % -2.25 C
1537 29-02-2016 09:05:00 -0.2 C 87 % -2.1 C
1538 29-02-2016 09:10:00 -0.2 C 87 % -2.1 C
1539 29-02-2016 09:15:00 -0.3 C 87 % -2.2 C
1540 29-02-2016 09:20:00 -0.3 C 87 % -2.2 C
1541 29-02-2016 09:25:00 -0.3 C 87 % -2.2 C
1542 29-02-2016 09:30:00 -0.3 C 87 % -2.2 C
1543 29-02-2016 09:35:00 -0.2 C 87 % -2.1 C
1544 29-02-2016 09:40:00 -0.1 C 87 % -2 C
1545 29-02-2016 09:45:00 0.1 C 86 % -1.96 C
1546 29-02-2016 09:50:00 0.1 C 87 % -1.8 C
1547 29-02-2016 09:55:00 0.2 C 86 % -1.86 C
1548 29-02-2016 10:00:00 0.3 C 86 % -1.76 C
1549 29-02-2016 10:05:00 0.4 C 86 % -1.66 C
1550 29-02-2016 10:10:00 0.7 C 85 % -1.53 C
Sensor: Nr:Datum:Temp:Feuchte:Taupunkt:
Aussen-T/F 1551 29-02-2016 10:15:00 0.8 C 85 % -1.43 C
1552 29-02-2016 10:20:00 1.1 C 84 % -1.29 C
1553 29-02-2016 10:25:00 1.3 C 83 % -1.26 C
1554 29-02-2016 10:30:00 1.6 C 83 % -0.97 C
1555 29-02-2016 10:35:00 1.9 C 82 % -0.84 C
1556 29-02-2016 10:40:00 2.3 C 79 % -0.96 C
1557 29-02-2016 10:45:00 2.8 C 76 % -1 C
1558 29-02-2016 10:50:00 3.2 C 74 % -0.98 C
1559 29-02-2016 10:55:00 3.4 C 73 % -0.97 C
1560 29-02-2016 11:00:00 3.7 C 73 % -0.68 C
1561 29-02-2016 11:05:00 3.9 C 71 % -0.87 C
1562 29-02-2016 11:10:00 4.1 C 71 % -0.67 C
1563 29-02-2016 11:15:00 4.3 C 70 % -0.68 C
1564 29-02-2016 11:20:00 4.5 C 70 % -0.48 C
1565 29-02-2016 11:25:00 4.7 C 69 % -0.49 C
1566 29-02-2016 11:30:00 4.8 C 67 % -0.8 C
1567 29-02-2016 11:35:00 4.9 C 67 % -0.7 C
1568 29-02-2016 11:40:00 4.9 C 67 % -0.7 C
1569 29-02-2016 11:45:00 5.2 C 66 % -0.62 C
1570 29-02-2016 11:50:00 5.3 C 66 % -0.52 C
1571 29-02-2016 11:55:00 5.6 C 66 % -0.24 C
1572 29-02-2016 12:00:00 5.8 C 65 % -0.26 C
1573 29-02-2016 12:05:00 6.1 C 61 % -0.84 C
1574 29-02-2016 12:10:00 6.3 C 59 % -1.11 C
1575 29-02-2016 12:15:00 6.4 C 59 % -1.01 C
Sensor: Nr:Datum:Temp:Feuchte:Taupunkt:
Aussen-T/F 1576 29-02-2016 12:20:00 6.4 C 58 % -1.25 C
1577 29-02-2016 12:25:00 6.6 C 59 % -0.83 C
1578 29-02-2016 12:30:00 6.6 C 57 % -1.3 C
1579 29-02-2016 12:35:00 6.7 C 57 % -1.2 C
1580 29-02-2016 12:40:00 6.7 C 57 % -1.2 C
1581 29-02-2016 12:45:00 6.8 C 57 % -1.11 C
1582 29-02-2016 12:50:00 7 C 56 % -1.16 C
1583 29-02-2016 12:55:00 7.1 C 56 % -1.07 C
1584 29-02-2016 13:00:00 7.3 C 56 % -0.88 C
1585 29-02-2016 13:05:00 7.3 C 56 % -0.88 C
1586 29-02-2016 13:10:00 7.3 C 55 % -1.13 C
1587 29-02-2016 13:15:00 7.3 C 54 % -1.38 C
1588 29-02-2016 13:20:00 7.4 C 55 % -1.03 C
1589 29-02-2016 13:25:00 7.4 C 55 % -1.03 C
1590 29-02-2016 13:30:00 7.4 C 55 % -1.03 C
1591 29-02-2016 13:35:00 7.5 C 55 % -0.94 C
1592 29-02-2016 13:40:00 7.4 C 55 % -1.03 C
1593 29-02-2016 13:45:00 7.4 C 55 % -1.03 C
1594 29-02-2016 13:50:00 7.5 C 56 % -0.7 C
1595 29-02-2016 13:55:00 7.6 C 55 % -0.85 C
1596 29-02-2016 14:00:00 7.7 C 54 % -1 C
1597 29-02-2016 14:05:00 7.6 C 55 % -0.85 C
1598 29-02-2016 14:10:00 7.7 C 55 % -0.75 C
1599 29-02-2016 14:15:00 7.6 C 54 % -1.1 C
1600 29-02-2016 14:20:00 7.6 C 54 % -1.1 C
Sensor: Nr:Datum:Temp:Feuchte:Taupunkt:
Aussen-T/F 1601 29-02-2016 14:25:00 7.6 C 54 % -1.1 C
1602 29-02-2016 14:30:00 7.6 C 53 % -1.35 C
1603 29-02-2016 14:35:00 7.6 C 54 % -1.1 C
1604 29-02-2016 14:40:00 7.7 C 53 % -1.26 C
1605 29-02-2016 14:45:00 7.7 C 54 % -1 C
1606 29-02-2016 14:50:00 7.8 C 54 % -0.91 C
1607 29-02-2016 14:55:00 7.7 C 53 % -1.26 C
1608 29-02-2016 15:00:00 7.7 C 53 % -1.26 C
1609 29-02-2016 15:05:00 7.8 C 54 % -0.91 C
1610 29-02-2016 15:10:00 7.8 C 53 % -1.17 C
1611 29-02-2016 15:15:00 7.8 C 53 % -1.17 C
1612 29-02-2016 15:20:00 7.8 C 54 % -0.91 C
1613 29-02-2016 15:25:00 7.8 C 53 % -1.17 C
1614 29-02-2016 15:30:00 7.7 C 54 % -1 C
1615 29-02-2016 15:35:00 7.7 C 54 % -1 C
1616 29-02-2016 15:40:00 7.7 C 54 % -1 C
1617 29-02-2016 15:45:00 7.7 C 54 % -1 C
1618 29-02-2016 15:50:00 7.8 C 55 % -0.66 C
1619 29-02-2016 15:55:00 7.7 C 56 % -0.51 C
1620 29-02-2016 16:00:00 7.7 C 56 % -0.51 C
1621 29-02-2016 16:05:00 7.7 C 55 % -0.75 C
1622 29-02-2016 16:10:00 7.7 C 54 % -1 C
1623 29-02-2016 16:15:00 7.6 C 55 % -0.85 C
1624 29-02-2016 16:20:00 7.6 C 55 % -0.85 C
1625 29-02-2016 16:25:00 7.6 C 56 % -0.6 C
Sensor: Nr:Datum:Temp:Feuchte:Taupunkt:
Aussen-T/F 1626 29-02-2016 16:30:00 7.6 C 56 % -0.6 C
1627 29-02-2016 16:35:00 7.6 C 56 % -0.6 C
1628 29-02-2016 16:40:00 7.6 C 56 % -0.6 C
1629 29-02-2016 16:45:00 7.5 C 55 % -0.94 C
1630 29-02-2016 16:50:00 7.4 C 55 % -1.03 C
1631 29-02-2016 16:55:00 7.4 C 55 % -1.03 C
1632 29-02-2016 17:00:00 7.3 C 55 % -1.13 C
1633 29-02-2016 17:05:00 7.2 C 55 % -1.22 C
1634 29-02-2016 17:10:00 7.1 C 54 % -1.56 C
1635 29-02-2016 17:15:00 7 C 54 % -1.66 C
1636 29-02-2016 17:20:00 7 C 55 % -1.41 C
1637 29-02-2016 17:25:00 6.9 C 54 % -1.75 C
1638 29-02-2016 17:30:00 6.9 C 55 % -1.5 C
1639 29-02-2016 17:35:00 6.9 C 55 % -1.5 C
1640 29-02-2016 17:40:00 6.8 C 55 % -1.59 C
1641 29-02-2016 17:45:00 6.8 C 55 % -1.59 C
1642 29-02-2016 17:50:00 6.8 C 55 % -1.59 C
1643 29-02-2016 17:55:00 6.7 C 55 % -1.69 C
1644 29-02-2016 18:00:00 6.7 C 54 % -1.94 C
1645 29-02-2016 18:05:00 6.6 C 55 % -1.78 C
1646 29-02-2016 18:10:00 6.6 C 56 % -1.54 C
1647 29-02-2016 18:15:00 6.4 C 56 % -1.72 C
1648 29-02-2016 18:20:00 6.3 C 55 % -2.06 C
1649 29-02-2016 18:25:00 6.1 C 55 % -2.25 C
1650 29-02-2016 18:30:00 6 C 54 % -2.59 C
Sensor: Nr:Datum:Temp:Feuchte:Taupunkt:
Aussen-T/F 1651 29-02-2016 18:35:00 5.9 C 54 % -2.68 C
1652 29-02-2016 18:40:00 5.8 C 54 % -2.77 C
1653 29-02-2016 18:45:00 5.7 C 55 % -2.62 C
1654 29-02-2016 18:50:00 5.5 C 55 % -2.81 C
1655 29-02-2016 18:55:00 5.4 C 55 % -2.9 C
1656 29-02-2016 19:00:00 5.3 C 56 % -2.75 C
1657 29-02-2016 19:05:00 5.3 C 57 % -2.51 C
1658 29-02-2016 19:10:00 5.2 C 58 % -2.37 C
1659 29-02-2016 19:15:00 5.1 C 59 % -2.24 C
1660 29-02-2016 19:20:00 4.9 C 59 % -2.42 C
1661 29-02-2016 19:25:00 4.9 C 59 % -2.42 C
1662 29-02-2016 19:30:00 4.8 C 59 % -2.52 C
1663 29-02-2016 19:35:00 4.7 C 60 % -2.39 C
1664 29-02-2016 19:40:00 4.7 C 60 % -2.39 C
1665 29-02-2016 19:45:00 4.6 C 60 % -2.48 C
1666 29-02-2016 19:50:00 4.6 C 61 % -2.26 C
1667 29-02-2016 19:55:00 4.4 C 61 % -2.45 C
1668 29-02-2016 20:00:00 4.4 C 61 % -2.45 C
1669 29-02-2016 20:05:00 4.3 C 61 % -2.54 C
1670 29-02-2016 20:10:00 4.3 C 62 % -2.32 C
1671 29-02-2016 20:15:00 4.2 C 62 % -2.42 C
1672 29-02-2016 20:20:00 4.2 C 62 % -2.42 C
1673 29-02-2016 20:25:00 4.1 C 63 % -2.3 C
1674 29-02-2016 20:30:00 4.1 C 63 % -2.3 C
1675 29-02-2016 20:35:00 4 C 63 % -2.39 C
Sensor: Nr:Datum:Temp:Feuchte:Taupunkt:
Aussen-T/F 1676 29-02-2016 20:40:00 3.9 C 63 % -2.49 C
1677 29-02-2016 20:45:00 3.9 C 64 % -2.27 C
1678 29-02-2016 20:50:00 3.8 C 64 % -2.37 C
1679 29-02-2016 20:55:00 3.8 C 64 % -2.37 C
1680 29-02-2016 21:00:00 3.8 C 64 % -2.37 C
1681 29-02-2016 21:05:00 3.7 C 65 % -2.25 C
1682 29-02-2016 21:10:00 3.7 C 65 % -2.25 C
1683 29-02-2016 21:15:00 3.6 C 65 % -2.35 C
1684 29-02-2016 21:20:00 3.6 C 65 % -2.35 C
1685 29-02-2016 21:25:00 3.5 C 66 % -2.24 C
1686 29-02-2016 21:30:00 3.4 C 66 % -2.33 C
1687 29-02-2016 21:35:00 3.3 C 66 % -2.43 C
1688 29-02-2016 21:40:00 3.3 C 66 % -2.43 C
1689 29-02-2016 21:45:00 3.1 C 67 % -2.42 C
1690 29-02-2016 21:50:00 3 C 66 % -2.72 C
1691 29-02-2016 21:55:00 2.9 C 67 % -2.61 C
1692 29-02-2016 22:00:00 2.8 C 67 % -2.7 C
1693 29-02-2016 22:05:00 2.7 C 68 % -2.6 C
1694 29-02-2016 22:10:00 2.7 C 68 % -2.6 C
1695 29-02-2016 22:15:00 2.7 C 68 % -2.6 C
1696 29-02-2016 22:20:00 2.7 C 68 % -2.6 C
1697 29-02-2016 22:25:00 2.6 C 69 % -2.5 C
1698 29-02-2016 22:30:00 2.6 C 68 % -2.7 C
1699 29-02-2016 22:35:00 2.4 C 70 % -2.5 C
1700 29-02-2016 22:40:00 2.3 C 70 % -2.59 C
Sensor: Nr:Datum:Temp:Feuchte:Taupunkt:
Aussen-T/F 1701 29-02-2016 22:45:00 2.2 C 71 % -2.5 C
1702 29-02-2016 22:50:00 1.9 C 72 % -2.6 C
1703 29-02-2016 22:55:00 1.7 C 71 % -2.98 C
1704 29-02-2016 23:00:00 1.5 C 73 % -2.8 C
1705 29-02-2016 23:05:00 1.2 C 75 % -2.73 C
1706 29-02-2016 23:10:00 1 C 76 % -2.74 C
1707 29-02-2016 23:15:00 0.8 C 77 % -2.76 C
1708 29-02-2016 23:20:00 0.6 C 77 % -2.96 C
1709 29-02-2016 23:25:00 0.5 C 77 % -3.05 C
1710 29-02-2016 23:30:00 0.3 C 77 % -3.25 C
1711 29-02-2016 23:35:00 0.2 C 78 % -3.17 C
1712 29-02-2016 23:40:00 0.1 C 78 % -3.27 C
1713 29-02-2016 23:45:00 0.1 C 78 % -3.27 C
1714 29-02-2016 23:50:00 0 C 78 % -3.37 C
1715 29-02-2016 23:55:00 -0.1 C 78 % -3.47 C
1716 01-03-2016 00:00:00 -0.2 C 79 % -3.39 C
1717 01-03-2016 00:05:00 -0.2 C 79 % -3.39 C
1718 01-03-2016 00:10:00 -0.3 C 80 % -3.32 C
1719 01-03-2016 00:15:00 -0.3 C 80 % -3.32 C
1720 01-03-2016 00:20:00 -0.4 C 80 % -3.42 C
1721 01-03-2016 00:25:00 -0.4 C 80 % -3.42 C
1722 01-03-2016 00:30:00 -0.5 C 80 % -3.52 C
1723 01-03-2016 00:35:00 -0.6 C 80 % -3.62 C
1724 01-03-2016 00:40:00 -0.6 C 80 % -3.62 C
1725 01-03-2016 00:45:00 -0.6 C 80 % -3.62 C
Sensor: Nr:Datum:Temp:Feuchte:Taupunkt:
Aussen-T/F 1726 01-03-2016 00:50:00 -0.7 C 81 % -3.55 C
1727 01-03-2016 00:55:00 -0.7 C 81 % -3.55 C
1728 01-03-2016 01:00:00 -0.7 C 81 % -3.55 C
1729 01-03-2016 01:05:00 -0.8 C 81 % -3.64 C
1730 01-03-2016 01:10:00 -0.8 C 82 % -3.48 C
1731 01-03-2016 01:15:00 -0.9 C 82 % -3.58 C
1732 01-03-2016 01:20:00 -0.9 C 83 % -3.42 C
1733 01-03-2016 01:25:00 -0.9 C 83 % -3.42 C
1734 01-03-2016 01:30:00 -1 C 83 % -3.51 C
1735 01-03-2016 01:35:00 -1 C 84 % -3.35 C
1736 01-03-2016 01:40:00 -1 C 84 % -3.35 C
1737 01-03-2016 01:45:00 -1.1 C 84 % -3.45 C
1738 01-03-2016 01:50:00 -1.1 C 84 % -3.45 C
1739 01-03-2016 01:55:00 -1.1 C 85 % -3.29 C
1740 01-03-2016 02:00:00 -1.1 C 85 % -3.29 C
1741 01-03-2016 02:05:00 -1.1 C 85 % -3.29 C
1742 01-03-2016 02:10:00 -1.1 C 85 % -3.29 C
1743 01-03-2016 02:15:00 -1.2 C 85 % -3.39 C
1744 01-03-2016 02:20:00 -1.2 C 85 % -3.39 C
1745 01-03-2016 02:25:00 -1.3 C 85 % -3.49 C
1746 01-03-2016 02:30:00 -1.4 C 85 % -3.59 C
1747 01-03-2016 02:35:00 -1.5 C 85 % -3.69 C
1748 01-03-2016 02:40:00 -1.6 C 85 % -3.79 C
1749 01-03-2016 02:45:00 -1.6 C 85 % -3.79 C
1750 01-03-2016 02:50:00 -1.7 C 86 % -3.73 C
Sensor: Nr:Datum:Temp:Feuchte:Taupunkt:
Aussen-T/F 1751 01-03-2016 02:55:00 -1.8 C 86 % -3.83 C
1752 01-03-2016 03:00:00 -1.9 C 86 % -3.92 C
1753 01-03-2016 03:05:00 -1.9 C 86 % -3.92 C
1754 01-03-2016 03:10:00 -2.1 C 87 % -3.97 C
1755 01-03-2016 03:15:00 -2.1 C 87 % -3.97 C
1756 01-03-2016 03:20:00 -2.1 C 88 % -3.82 C
1757 01-03-2016 03:25:00 -2.1 C 88 % -3.82 C
1758 01-03-2016 03:30:00 -2.2 C 88 % -3.91 C
1759 01-03-2016 03:35:00 -2.2 C 88 % -3.91 C
1760 01-03-2016 03:40:00 -2.3 C 88 % -4.01 C
1761 01-03-2016 03:45:00 -2.3 C 88 % -4.01 C
1762 01-03-2016 03:50:00 -2.4 C 88 % -4.11 C
1763 01-03-2016 03:55:00 -2.4 C 89 % -3.96 C
1764 01-03-2016 04:00:00 -2.5 C 89 % -4.06 C
1765 01-03-2016 04:05:00 -2.5 C 89 % -4.06 C
1766 01-03-2016 04:10:00 -2.5 C 89 % -4.06 C
1767 01-03-2016 04:15:00 -2.6 C 89 % -4.16 C
1768 01-03-2016 04:20:00 -2.6 C 89 % -4.16 C
1769 01-03-2016 04:25:00 -2.7 C 89 % -4.26 C
1770 01-03-2016 04:30:00 -2.7 C 90 % -4.11 C
1771 01-03-2016 04:35:00 -2.7 C 90 % -4.11 C
1772 01-03-2016 04:40:00 -2.6 C 90 % -4.01 C
1773 01-03-2016 04:45:00 -2.6 C 90 % -4.01 C
1774 01-03-2016 04:50:00 -2.7 C 90 % -4.11 C
1775 01-03-2016 04:55:00 -2.7 C 90 % -4.11 C
Sensor: Nr:Datum:Temp:Feuchte:Taupunkt:
Aussen-T/F 1776 01-03-2016 05:00:00 -2.8 C 90 % -4.21 C
1777 01-03-2016 05:05:00 -2.9 C 90 % -4.31 C
1778 01-03-2016 05:10:00 -2.9 C 90 % -4.31 C
1779 01-03-2016 05:15:00 -2.9 C 91 % -4.16 C
1780 01-03-2016 05:20:00 -2.9 C 91 % -4.16 C
1781 01-03-2016 05:25:00 -3 C 91 % -4.26 C
1782 01-03-2016 05:30:00 -3.1 C 91 % -4.36 C
1783 01-03-2016 05:35:00 -3.2 C 91 % -4.46 C
1784 01-03-2016 05:40:00 -3.2 C 91 % -4.46 C
1785 01-03-2016 05:45:00 -3.2 C 91 % -4.46 C
1786 01-03-2016 05:50:00 -3.3 C 91 % -4.56 C
1787 01-03-2016 05:55:00 -3.3 C 91 % -4.56 C
1788 01-03-2016 06:00:00 -3.3 C 91 % -4.56 C
1789 01-03-2016 06:05:00 -3.3 C 92 % -4.41 C
1790 01-03-2016 06:10:00 -3.4 C 92 % -4.51 C
1791 01-03-2016 06:15:00 -3.4 C 92 % -4.51 C
1792 01-03-2016 06:20:00 -3.4 C 92 % -4.51 C
1793 01-03-2016 06:25:00 -3.4 C 92 % -4.51 C
1794 01-03-2016 06:30:00 -3.4 C 92 % -4.51 C
1795 01-03-2016 06:35:00 -3.4 C 92 % -4.51 C
1796 01-03-2016 06:40:00 -3.5 C 92 % -4.61 C
1797 01-03-2016 06:45:00 -3.5 C 92 % -4.61 C
1798 01-03-2016 06:50:00 -3.5 C 92 % -4.61 C
1799 01-03-2016 06:55:00 -3.5 C 92 % -4.61 C
1800 01-03-2016 07:00:00 -3.5 C 92 % -4.61 C
Sensor: Nr:Datum:Temp:Feuchte:Taupunkt:
Aussen-T/F 1801 01-03-2016 07:05:00 -3.5 C 92 % -4.61 C
1802 01-03-2016 07:10:00 -3.5 C 92 % -4.61 C
1803 01-03-2016 07:15:00 -3.6 C 92 % -4.71 C
1804 01-03-2016 07:20:00 -3.6 C 92 % -4.71 C
1805 01-03-2016 07:25:00 -3.6 C 93 % -4.56 C
1806 01-03-2016 07:30:00 -3.6 C 93 % -4.56 C
1807 01-03-2016 07:35:00 -3.5 C 93 % -4.47 C
1808 01-03-2016 07:40:00 -3.5 C 93 % -4.47 C
1809 01-03-2016 07:45:00 -3.5 C 93 % -4.47 C
1810 01-03-2016 07:50:00 -3.4 C 93 % -4.37 C
1811 01-03-2016 07:55:00 -3.4 C 93 % -4.37 C
1812 01-03-2016 08:00:00 -3.4 C 93 % -4.37 C
1813 01-03-2016 08:05:00 -3.3 C 93 % -4.27 C
1814 01-03-2016 08:10:00 -3.3 C 93 % -4.27 C
1815 01-03-2016 08:15:00 -3.2 C 93 % -4.17 C
1816 01-03-2016 08:20:00 -3.1 C 93 % -4.07 C
1817 01-03-2016 08:25:00 -3 C 93 % -3.97 C
1818 01-03-2016 08:30:00 -2.9 C 93 % -3.87 C
1819 01-03-2016 08:35:00 -2.9 C 93 % -3.87 C
1820 01-03-2016 08:40:00 -2.9 C 93 % -3.87 C
1821 01-03-2016 08:45:00 -2.9 C 93 % -3.87 C
1822 01-03-2016 08:50:00 -2.9 C 93 % -3.87 C
1823 01-03-2016 08:55:00 -2.9 C 93 % -3.87 C
1824 01-03-2016 09:00:00 -2.9 C 93 % -3.87 C
1825 01-03-2016 09:05:00 -2.8 C 93 % -3.77 C
Sensor: Nr:Datum:Temp:Feuchte:Taupunkt:
Aussen-T/F 1826 01-03-2016 09:10:00 -2.8 C 93 % -3.77 C
1827 01-03-2016 09:15:00 -2.8 C 93 % -3.77 C
1828 01-03-2016 09:20:00 -2.7 C 93 % -3.67 C
1829 01-03-2016 09:25:00 -2.6 C 93 % -3.57 C
1830 01-03-2016 09:30:00 -2.5 C 93 % -3.47 C
1831 01-03-2016 09:35:00 -2.4 C 93 % -3.37 C
1832 01-03-2016 09:40:00 -2.3 C 93 % -3.28 C
1833 01-03-2016 09:45:00 -2.2 C 93 % -3.18 C
1834 01-03-2016 09:50:00 -2.1 C 93 % -3.08 C
1835 01-03-2016 09:55:00 -1.9 C 93 % -2.88 C
1836 01-03-2016 10:00:00 -1.8 C 93 % -2.78 C
1837 01-03-2016 10:05:00 -1.7 C 93 % -2.68 C
1838 01-03-2016 10:10:00 -1.6 C 92 % -2.73 C
1839 01-03-2016 10:15:00 -1.4 C 92 % -2.53 C
1840 01-03-2016 10:20:00 -1.2 C 92 % -2.33 C
1841 01-03-2016 10:25:00 -1.1 C 92 % -2.23 C
1842 01-03-2016 10:30:00 -0.8 C 91 % -2.08 C
1843 01-03-2016 10:35:00 -0.7 C 90 % -2.13 C
1844 01-03-2016 10:40:00 -0.4 C 90 % -1.84 C
1845 01-03-2016 10:45:00 -0.2 C 89 % -1.79 C
1846 01-03-2016 10:50:00 0.1 C 88 % -1.65 C
1847 01-03-2016 10:55:00 0.3 C 86 % -1.76 C
1848 01-03-2016 11:00:00 0.7 C 85 % -1.53 C
1849 01-03-2016 11:05:00 1.1 C 84 % -1.29 C
1850 01-03-2016 11:10:00 1.4 C 83 % -1.16 C
Sensor: Nr:Datum:Temp:Feuchte:Taupunkt:
Aussen-T/F 1851 01-03-2016 11:15:00 1.7 C 81 % -1.2 C
1852 01-03-2016 11:20:00 2 C 80 % -1.08 C
1853 01-03-2016 11:25:00 2.2 C 78 % -1.23 C
1854 01-03-2016 11:30:00 2.4 C 75 % -1.57 C
1855 01-03-2016 11:35:00 2.6 C 72 % -1.93 C
1856 01-03-2016 11:40:00 2.7 C 73 % -1.64 C
1857 01-03-2016 11:45:00 2.9 C 71 % -1.83 C
1858 01-03-2016 11:50:00 3.1 C 70 % -1.83 C
1859 01-03-2016 11:55:00 3.2 C 68 % -2.12 C
1860 01-03-2016 12:00:00 3.3 C 68 % -2.03 C
1861 01-03-2016 12:05:00 3.5 C 68 % -1.84 C
1862 01-03-2016 12:10:00 3.7 C 68 % -1.64 C
1863 01-03-2016 12:15:00 4 C 67 % -1.56 C
1864 01-03-2016 12:20:00 4.2 C 65 % -1.78 C
1865 01-03-2016 12:25:00 4.3 C 65 % -1.68 C
1866 01-03-2016 12:30:00 4.4 C 63 % -2.01 C
1867 01-03-2016 12:35:00 4.6 C 63 % -1.82 C
1868 01-03-2016 12:40:00 4.6 C 61 % -2.26 C
1869 01-03-2016 12:45:00 4.7 C 61 % -2.16 C
1870 01-03-2016 12:50:00 4.7 C 60 % -2.39 C
1871 01-03-2016 12:55:00 4.8 C 60 % -2.29 C
1872 01-03-2016 13:00:00 5 C 57 % -2.79 C
1873 01-03-2016 13:05:00 5.1 C 59 % -2.24 C
1874 01-03-2016 13:10:00 5.2 C 58 % -2.37 C
1875 01-03-2016 13:15:00 5.4 C 57 % -2.42 C
Sensor: Nr:Datum:Temp:Feuchte:Taupunkt:
Aussen-T/F 1876 01-03-2016 13:20:00 5.6 C 56 % -2.47 C
1877 01-03-2016 13:25:00 5.7 C 55 % -2.62 C
1878 01-03-2016 13:30:00 5.8 C 55 % -2.53 C
1879 01-03-2016 13:35:00 5.9 C 54 % -2.68 C
1880 01-03-2016 13:40:00 6 C 54 % -2.59 C
1881 01-03-2016 13:45:00 6.2 C 54 % -2.4 C
1882 01-03-2016 13:50:00 6.2 C 53 % -2.65 C
1883 01-03-2016 13:55:00 6.3 C 54 % -2.31 C
1884 01-03-2016 14:00:00 6.4 C 53 % -2.47 C
1885 01-03-2016 14:05:00 6.4 C 53 % -2.47 C
1886 01-03-2016 14:10:00 6.4 C 53 % -2.47 C
1887 01-03-2016 14:15:00 6.4 C 52 % -2.72 C
1888 01-03-2016 14:20:00 6.5 C 52 % -2.63 C
1889 01-03-2016 14:25:00 6.6 C 51 % -2.8 C
1890 01-03-2016 14:30:00 6.6 C 52 % -2.54 C
1891 01-03-2016 14:35:00 6.6 C 51 % -2.8 C
1892 01-03-2016 14:40:00 6.6 C 51 % -2.8 C
1893 01-03-2016 14:45:00 6.5 C 52 % -2.63 C
1894 01-03-2016 14:50:00 6.5 C 52 % -2.63 C
1895 01-03-2016 14:55:00 6.6 C 52 % -2.54 C
1896 01-03-2016 15:00:00 6.5 C 52 % -2.63 C
1897 01-03-2016 15:05:00 6.5 C 51 % -2.89 C
1898 01-03-2016 15:10:00 6.5 C 52 % -2.63 C
1899 01-03-2016 15:15:00 6.4 C 52 % -2.72 C
1900 01-03-2016 15:20:00 6.4 C 52 % -2.72 C
Sensor: Nr:Datum:Temp:Feuchte:Taupunkt:
Aussen-T/F 1901 01-03-2016 15:25:00 6.4 C 51 % -2.98 C
1902 01-03-2016 15:30:00 6.4 C 51 % -2.98 C
1903 01-03-2016 15:35:00 6.3 C 51 % -3.08 C
1904 01-03-2016 15:40:00 6.3 C 52 % -2.81 C
1905 01-03-2016 15:45:00 6.3 C 52 % -2.81 C
1906 01-03-2016 15:50:00 6.2 C 53 % -2.65 C
1907 01-03-2016 15:55:00 6.2 C 53 % -2.65 C
1908 01-03-2016 16:00:00 6.2 C 53 % -2.65 C
1909 01-03-2016 16:05:00 6.1 C 54 % -2.49 C
1910 01-03-2016 16:10:00 6.1 C 53 % -2.74 C
1911 01-03-2016 16:15:00 6.1 C 54 % -2.49 C
1912 01-03-2016 16:20:00 6 C 55 % -2.34 C
1913 01-03-2016 16:25:00 5.9 C 57 % -1.95 C
1914 01-03-2016 16:30:00 5.7 C 58 % -1.9 C
1915 01-03-2016 16:35:00 5.6 C 59 % -1.77 C
1916 01-03-2016 16:40:00 5.6 C 59 % -1.77 C
1917 01-03-2016 16:45:00 5.5 C 62 % -1.19 C
1918 01-03-2016 16:50:00 5.3 C 64 % -0.94 C
1919 01-03-2016 16:55:00 5.1 C 66 % -0.71 C
1920 01-03-2016 17:00:00 4.9 C 69 % -0.3 C
1921 01-03-2016 17:05:00 4.7 C 71 % -0.1 C
1922 01-03-2016 17:10:00 4.4 C 73 % 0 C
1923 01-03-2016 17:15:00 4.3 C 76 % 0.45 C
1924 01-03-2016 17:20:00 4.1 C 79 % 0.79 C
1925 01-03-2016 17:25:00 3.8 C 79 % 0.5 C
Sensor: Nr:Datum:Temp:Feuchte:Taupunkt:
Aussen-T/F 1926 01-03-2016 17:30:00 3.7 C 80 % 0.58 C
1927 01-03-2016 17:35:00 3.5 C 81 % 0.55 C
1928 01-03-2016 17:40:00 3.4 C 82 % 0.63 C
1929 01-03-2016 17:45:00 3.3 C 84 % 0.86 C
1930 01-03-2016 17:50:00 3.1 C 85 % 0.83 C
1931 01-03-2016 17:55:00 2.9 C 86 % 0.8 C
1932 01-03-2016 18:00:00 2.8 C 87 % 0.86 C
1933 01-03-2016 18:05:00 2.7 C 88 % 0.92 C
1934 01-03-2016 18:10:00 2.6 C 88 % 0.82 C
1935 01-03-2016 18:15:00 2.4 C 89 % 0.78 C
1936 01-03-2016 18:20:00 2.4 C 90 % 0.93 C
1937 01-03-2016 18:25:00 2.3 C 90 % 0.83 C
1938 01-03-2016 18:30:00 2.3 C 91 % 0.99 C
1939 01-03-2016 18:35:00 2.3 C 91 % 0.99 C
1940 01-03-2016 18:40:00 2.3 C 91 % 0.99 C
1941 01-03-2016 18:45:00 2.3 C 91 % 0.99 C
1942 01-03-2016 18:50:00 2.4 C 91 % 1.08 C
1943 01-03-2016 18:55:00 2.4 C 90 % 0.93 C
1944 01-03-2016 19:00:00 2.4 C 90 % 0.93 C
1945 01-03-2016 19:05:00 2.6 C 89 % 0.97 C
1946 01-03-2016 19:10:00 2.6 C 88 % 0.82 C
1947 01-03-2016 19:15:00 2.7 C 88 % 0.92 C
1948 01-03-2016 19:20:00 2.7 C 88 % 0.92 C
1949 01-03-2016 19:25:00 2.6 C 89 % 0.97 C
1950 01-03-2016 19:30:00 2.6 C 89 % 0.97 C
Sensor: Nr:Datum:Temp:Feuchte:Taupunkt:
Aussen-T/F 1951 01-03-2016 19:35:00 2.5 C 90 % 1.03 C
1952 01-03-2016 19:40:00 2.4 C 90 % 0.93 C
1953 01-03-2016 19:45:00 2.4 C 91 % 1.08 C
1954 01-03-2016 19:50:00 2.4 C 91 % 1.08 C
1955 01-03-2016 19:55:00 2.4 C 91 % 1.08 C
1956 01-03-2016 20:00:00 2.4 C 91 % 1.08 C
1957 01-03-2016 20:05:00 2.4 C 92 % 1.24 C
1958 01-03-2016 20:10:00 2.4 C 92 % 1.24 C
1959 01-03-2016 20:15:00 2.4 C 92 % 1.24 C
1960 01-03-2016 20:20:00 2.4 C 92 % 1.24 C
1961 01-03-2016 20:25:00 2.4 C 92 % 1.24 C
1962 01-03-2016 20:30:00 2.4 C 92 % 1.24 C
1963 01-03-2016 20:35:00 2.3 C 92 % 1.14 C
1964 01-03-2016 20:40:00 2.3 C 92 % 1.14 C
1965 01-03-2016 20:45:00 2.3 C 92 % 1.14 C
1966 01-03-2016 20:50:00 2.4 C 93 % 1.39 C
1967 01-03-2016 20:55:00 2.6 C 92 % 1.43 C
1968 01-03-2016 21:00:00 2.6 C 92 % 1.43 C
1969 01-03-2016 21:05:00 2.6 C 92 % 1.43 C
1970 01-03-2016 21:10:00 2.6 C 92 % 1.43 C
1971 01-03-2016 21:15:00 2.6 C 93 % 1.59 C
1972 01-03-2016 21:20:00 2.6 C 93 % 1.59 C
1973 01-03-2016 21:25:00 2.7 C 93 % 1.68 C
1974 01-03-2016 21:30:00 2.7 C 93 % 1.68 C
1975 01-03-2016 21:35:00 2.8 C 93 % 1.78 C
Sensor: Nr:Datum:Temp:Feuchte:Taupunkt:
Aussen-T/F 1976 01-03-2016 21:40:00 2.9 C 93 % 1.88 C
1977 01-03-2016 21:45:00 2.9 C 93 % 1.88 C
1978 01-03-2016 21:50:00 3 C 93 % 1.98 C
1979 01-03-2016 21:55:00 3.1 C 93 % 2.08 C
1980 01-03-2016 22:00:00 3.2 C 92 % 2.03 C
1981 01-03-2016 22:05:00 3.2 C 92 % 2.03 C
1982 01-03-2016 22:10:00 3.3 C 92 % 2.13 C
1983 01-03-2016 22:15:00 3.4 C 92 % 2.23 C
1984 01-03-2016 22:20:00 3.4 C 92 % 2.23 C
1985 01-03-2016 22:25:00 3.6 C 92 % 2.42 C
1986 01-03-2016 22:30:00 3.6 C 92 % 2.42 C
1987 01-03-2016 22:35:00 3.7 C 92 % 2.52 C
1988 01-03-2016 22:40:00 3.8 C 92 % 2.62 C
1989 01-03-2016 22:45:00 3.8 C 92 % 2.62 C
1990 01-03-2016 22:50:00 3.8 C 92 % 2.62 C
1991 01-03-2016 22:55:00 3.9 C 92 % 2.72 C
1992 01-03-2016 23:00:00 3.9 C 92 % 2.72 C
1993 01-03-2016 23:05:00 4 C 92 % 2.82 C
1994 01-03-2016 23:10:00 4 C 92 % 2.82 C
1995 01-03-2016 23:15:00 4.1 C 92 % 2.92 C
1996 01-03-2016 23:20:00 4.1 C 92 % 2.92 C
1997 01-03-2016 23:25:00 4.2 C 92 % 3.02 C
1998 01-03-2016 23:30:00 4.2 C 92 % 3.02 C
1999 01-03-2016 23:35:00 4.3 C 92 % 3.12 C
2000 01-03-2016 23:40:00 4.4 C 92 % 3.22 C
Sensor: Nr:Datum:Temp:Feuchte:Taupunkt:
Aussen-T/F 2001 01-03-2016 23:45:00 4.4 C 92 % 3.22 C
2002 01-03-2016 23:50:00 4.6 C 91 % 3.26 C
2003 01-03-2016 23:55:00 4.7 C 91 % 3.36 C
2004 02-03-2016 00:00:00 4.8 C 91 % 3.46 C
2005 02-03-2016 00:05:00 4.9 C 91 % 3.56 C
2006 02-03-2016 00:10:00 4.9 C 91 % 3.56 C
2007 02-03-2016 00:15:00 4.9 C 91 % 3.56 C
2008 02-03-2016 00:20:00 4.9 C 91 % 3.56 C
2009 02-03-2016 00:25:00 5 C 91 % 3.66 C
2010 02-03-2016 00:30:00 5 C 91 % 3.66 C
2011 02-03-2016 00:35:00 5.1 C 91 % 3.76 C
2012 02-03-2016 00:40:00 5.1 C 91 % 3.76 C
2013 02-03-2016 00:45:00 5.1 C 91 % 3.76 C
2014 02-03-2016 00:50:00 5.1 C 91 % 3.76 C
2015 02-03-2016 00:55:00 5.1 C 91 % 3.76 C
2016 02-03-2016 01:00:00 5 C 91 % 3.66 C
2017 02-03-2016 01:05:00 4.9 C 91 % 3.56 C
2018 02-03-2016 01:10:00 5 C 91 % 3.66 C
2019 02-03-2016 01:15:00 5 C 92 % 3.81 C
2020 02-03-2016 01:20:00 5 C 92 % 3.81 C
2021 02-03-2016 01:25:00 5 C 92 % 3.81 C
2022 02-03-2016 01:30:00 5 C 92 % 3.81 C
2023 02-03-2016 01:35:00 5.1 C 92 % 3.91 C
2024 02-03-2016 01:40:00 5.1 C 92 % 3.91 C
2025 02-03-2016 01:45:00 5.1 C 92 % 3.91 C
Sensor: Nr:Datum:Temp:Feuchte:Taupunkt:
Aussen-T/F 2026 02-03-2016 01:50:00 5.1 C 92 % 3.91 C
2027 02-03-2016 01:55:00 5.1 C 92 % 3.91 C
2028 02-03-2016 02:00:00 5.1 C 92 % 3.91 C
2029 02-03-2016 02:05:00 5.1 C 92 % 3.91 C
2030 02-03-2016 02:10:00 5.2 C 92 % 4.01 C
2031 02-03-2016 02:15:00 5.2 C 92 % 4.01 C
2032 02-03-2016 02:20:00 5.2 C 93 % 4.16 C
2033 02-03-2016 02:25:00 5.3 C 92 % 4.11 C
2034 02-03-2016 02:30:00 5.3 C 92 % 4.11 C
2035 02-03-2016 02:35:00 5.3 C 93 % 4.26 C
2036 02-03-2016 02:40:00 5.4 C 93 % 4.36 C
2037 02-03-2016 02:45:00 5.5 C 92 % 4.31 C
2038 02-03-2016 02:50:00 5.6 C 92 % 4.41 C
2039 02-03-2016 02:55:00 5.6 C 92 % 4.41 C
2040 02-03-2016 03:00:00 5.7 C 92 % 4.5 C
2041 02-03-2016 03:05:00 5.7 C 92 % 4.5 C
2042 02-03-2016 03:10:00 5.8 C 92 % 4.6 C
2043 02-03-2016 03:15:00 5.8 C 92 % 4.6 C
2044 02-03-2016 03:20:00 5.8 C 92 % 4.6 C
2045 02-03-2016 03:25:00 5.9 C 92 % 4.7 C
2046 02-03-2016 03:30:00 5.9 C 92 % 4.7 C
2047 02-03-2016 03:35:00 5.9 C 92 % 4.7 C
2048 02-03-2016 03:40:00 5.9 C 92 % 4.7 C
2049 02-03-2016 03:45:00 5.9 C 92 % 4.7 C
2050 02-03-2016 03:50:00 5.9 C 92 % 4.7 C
Sensor: Nr:Datum:Temp:Feuchte:Taupunkt:
Aussen-T/F 2051 02-03-2016 03:55:00 5.9 C 92 % 4.7 C
2052 02-03-2016 04:00:00 5.9 C 92 % 4.7 C
2053 02-03-2016 04:05:00 5.9 C 92 % 4.7 C
2054 02-03-2016 04:10:00 5.8 C 92 % 4.6 C
2055 02-03-2016 04:15:00 5.8 C 93 % 4.76 C
2056 02-03-2016 04:20:00 5.8 C 93 % 4.76 C
2057 02-03-2016 04:25:00 5.9 C 93 % 4.86 C
2058 02-03-2016 04:30:00 5.9 C 93 % 4.86 C
2059 02-03-2016 04:35:00 5.8 C 93 % 4.76 C
2060 02-03-2016 04:40:00 5.8 C 93 % 4.76 C
2061 02-03-2016 04:45:00 5.8 C 93 % 4.76 C
2062 02-03-2016 04:50:00 5.8 C 93 % 4.76 C
2063 02-03-2016 04:55:00 5.9 C 94 % 5.01 C
2064 02-03-2016 05:00:00 5.9 C 94 % 5.01 C
2065 02-03-2016 05:05:00 5.9 C 94 % 5.01 C
2066 02-03-2016 05:10:00 5.9 C 94 % 5.01 C
2067 02-03-2016 05:15:00 5.9 C 94 % 5.01 C
2068 02-03-2016 05:20:00 6 C 94 % 5.11 C
2069 02-03-2016 05:25:00 6.2 C 95 % 5.46 C
2070 02-03-2016 05:30:00 6.4 C 95 % 5.66 C
2071 02-03-2016 05:35:00 6.6 C 94 % 5.71 C
2072 02-03-2016 05:40:00 6.8 C 93 % 5.75 C
2073 02-03-2016 05:45:00 7 C 92 % 5.79 C
2074 02-03-2016 05:50:00 7.3 C 91 % 5.93 C
2075 02-03-2016 05:55:00 7.5 C 89 % 5.81 C
Sensor: Nr:Datum:Temp:Feuchte:Taupunkt:
Aussen-T/F 2076 02-03-2016 06:00:00 7.7 C 87 % 5.68 C
2077 02-03-2016 06:05:00 7.8 C 87 % 5.78 C
2078 02-03-2016 06:10:00 7.9 C 86 % 5.71 C
2079 02-03-2016 06:15:00 7.9 C 86 % 5.71 C
2080 02-03-2016 06:20:00 7.9 C 86 % 5.71 C
2081 02-03-2016 06:25:00 8 C 86 % 5.81 C
2082 02-03-2016 06:30:00 8 C 86 % 5.81 C
2083 02-03-2016 06:35:00 8 C 86 % 5.81 C
2084 02-03-2016 06:40:00 7.9 C 86 % 5.71 C
2085 02-03-2016 06:45:00 7.9 C 86 % 5.71 C
2086 02-03-2016 06:50:00 7.9 C 87 % 5.87 C
2087 02-03-2016 06:55:00 7.9 C 87 % 5.87 C
2088 02-03-2016 07:00:00 7.8 C 87 % 5.78 C
2089 02-03-2016 07:05:00 7.8 C 88 % 5.94 C
2090 02-03-2016 07:10:00 7.7 C 88 % 5.84 C
2091 02-03-2016 07:15:00 7.6 C 89 % 5.91 C
2092 02-03-2016 07:20:00 7.5 C 89 % 5.81 C
2093 02-03-2016 07:25:00 7.5 C 89 % 5.81 C
2094 02-03-2016 07:30:00 7.5 C 90 % 5.97 C
2095 02-03-2016 07:35:00 7.4 C 90 % 5.87 C
2096 02-03-2016 07:40:00 7.3 C 91 % 5.93 C
2097 02-03-2016 07:45:00 7.2 C 92 % 5.99 C
2098 02-03-2016 07:50:00 7.1 C 92 % 5.89 C
2099 02-03-2016 07:55:00 7.1 C 93 % 6.05 C
2100 02-03-2016 08:00:00 7.1 C 93 % 6.05 C
Sensor: Nr:Datum:Temp:Feuchte:Taupunkt:
Aussen-T/F 2101 02-03-2016 08:05:00 7.1 C 93 % 6.05 C
2102 02-03-2016 08:10:00 7.1 C 93 % 6.05 C
2103 02-03-2016 08:15:00 7.1 C 94 % 6.2 C
2104 02-03-2016 08:20:00 7.1 C 94 % 6.2 C
2105 02-03-2016 08:25:00 7.2 C 94 % 6.3 C
2106 02-03-2016 08:30:00 7.2 C 94 % 6.3 C
2107 02-03-2016 08:35:00 7.2 C 94 % 6.3 C
2108 02-03-2016 08:40:00 7.2 C 94 % 6.3 C
2109 02-03-2016 08:45:00 7.1 C 94 % 6.2 C
2110 02-03-2016 08:50:00 7.1 C 94 % 6.2 C
2111 02-03-2016 08:55:00 7.1 C 94 % 6.2 C
2112 02-03-2016 09:00:00 7.1 C 94 % 6.2 C
2113 02-03-2016 09:05:00 7.2 C 94 % 6.3 C
2114 02-03-2016 09:10:00 7.2 C 94 % 6.3 C
2115 02-03-2016 09:15:00 7.3 C 93 % 6.25 C
2116 02-03-2016 09:20:00 7.5 C 93 % 6.44 C
2117 02-03-2016 09:25:00 7.6 C 92 % 6.39 C
2118 02-03-2016 09:30:00 7.7 C 91 % 6.33 C
2119 02-03-2016 09:35:00 7.8 C 91 % 6.43 C
2120 02-03-2016 09:40:00 7.8 C 91 % 6.43 C
2121 02-03-2016 09:45:00 7.8 C 90 % 6.27 C
2122 02-03-2016 09:50:00 7.8 C 90 % 6.27 C
2123 02-03-2016 09:55:00 7.8 C 90 % 6.27 C
2124 02-03-2016 10:00:00 7.8 C 90 % 6.27 C
2125 02-03-2016 10:05:00 7.8 C 90 % 6.27 C
Sensor: Nr:Datum:Temp:Feuchte:Taupunkt:
Aussen-T/F 2126 02-03-2016 10:10:00 7.8 C 89 % 6.1 C
2127 02-03-2016 10:15:00 7.9 C 90 % 6.36 C
2128 02-03-2016 10:20:00 8 C 89 % 6.3 C
2129 02-03-2016 10:25:00 8.1 C 89 % 6.4 C
2130 02-03-2016 10:30:00 8.1 C 89 % 6.4 C
2131 02-03-2016 10:35:00 8 C 89 % 6.3 C
2132 02-03-2016 10:40:00 8 C 90 % 6.46 C
2133 02-03-2016 10:45:00 7.9 C 90 % 6.36 C
2134 02-03-2016 10:50:00 7.8 C 90 % 6.27 C
2135 02-03-2016 10:55:00 7.7 C 90 % 6.17 C
2136 02-03-2016 11:00:00 7.7 C 89 % 6 C
2137 02-03-2016 11:05:00 7.6 C 88 % 5.74 C
2138 02-03-2016 11:10:00 7.7 C 87 % 5.68 C
2139 02-03-2016 11:15:00 7.7 C 86 % 5.51 C
2140 02-03-2016 11:20:00 7.8 C 83 % 5.1 C
2141 02-03-2016 11:25:00 7.9 C 83 % 5.2 C
2142 02-03-2016 11:30:00 8.1 C 82 % 5.22 C
2143 02-03-2016 11:35:00 8.2 C 82 % 5.32 C
2144 02-03-2016 11:40:00 8.2 C 81 % 5.14 C
2145 02-03-2016 11:45:00 8.3 C 80 % 5.06 C
2146 02-03-2016 11:50:00 8.4 C 80 % 5.16 C
2147 02-03-2016 11:55:00 8.4 C 79 % 4.98 C
2148 02-03-2016 12:00:00 8.2 C 81 % 5.14 C
2149 02-03-2016 12:05:00 7.7 C 83 % 5 C
2150 02-03-2016 12:10:00 7.3 C 85 % 4.95 C
Sensor: Nr:Datum:Temp:Feuchte:Taupunkt:
Aussen-T/F 2151 02-03-2016 12:15:00 7.2 C 86 % 5.02 C
2152 02-03-2016 12:20:00 7.2 C 85 % 4.85 C
2153 02-03-2016 12:25:00 7.3 C 86 % 5.12 C
2154 02-03-2016 12:30:00 7.4 C 85 % 5.05 C
2155 02-03-2016 12:35:00 7.4 C 82 % 4.53 C
2156 02-03-2016 12:40:00 7.3 C 81 % 4.26 C
2157 02-03-2016 12:45:00 7.3 C 78 % 3.73 C
2158 02-03-2016 12:50:00 7.4 C 79 % 4 C
2159 02-03-2016 12:55:00 7.4 C 79 % 4 C
2160 02-03-2016 13:00:00 7.6 C 77 % 3.83 C
2161 02-03-2016 13:05:00 7.6 C 77 % 3.83 C
2162 02-03-2016 13:10:00 7.6 C 75 % 3.46 C
2163 02-03-2016 13:15:00 7.6 C 75 % 3.46 C
2164 02-03-2016 13:20:00 7.6 C 73 % 3.08 C
2165 02-03-2016 13:25:00 7.6 C 73 % 3.08 C
2166 02-03-2016 13:30:00 7.6 C 73 % 3.08 C
2167 02-03-2016 13:35:00 7.6 C 73 % 3.08 C
2168 02-03-2016 13:40:00 7.6 C 73 % 3.08 C
2169 02-03-2016 13:45:00 7.6 C 72 % 2.88 C
2170 02-03-2016 13:50:00 7.6 C 71 % 2.69 C
2171 02-03-2016 13:55:00 7.6 C 72 % 2.88 C
2172 02-03-2016 14:00:00 7.6 C 69 % 2.29 C
2173 02-03-2016 14:05:00 7.5 C 70 % 2.39 C
2174 02-03-2016 14:10:00 7.5 C 71 % 2.59 C
2175 02-03-2016 14:15:00 7.5 C 70 % 2.39 C
Sensor: Nr:Datum:Temp:Feuchte:Taupunkt:
Aussen-T/F 2176 02-03-2016 14:20:00 7.5 C 70 % 2.39 C
2177 02-03-2016 14:25:00 7.6 C 71 % 2.69 C
2178 02-03-2016 14:30:00 7.6 C 70 % 2.49 C
2179 02-03-2016 14:35:00 7.7 C 69 % 2.38 C
2180 02-03-2016 14:40:00 7.7 C 69 % 2.38 C
2181 02-03-2016 14:45:00 7.8 C 70 % 2.68 C
2182 02-03-2016 14:50:00 7.9 C 70 % 2.78 C
2183 02-03-2016 14:55:00 7.8 C 69 % 2.48 C
2184 02-03-2016 15:00:00 7.8 C 68 % 2.27 C
2185 02-03-2016 15:05:00 7.7 C 70 % 2.58 C
2186 02-03-2016 15:10:00 7.8 C 70 % 2.68 C
2187 02-03-2016 15:15:00 7.8 C 70 % 2.68 C
2188 02-03-2016 15:20:00 7.8 C 70 % 2.68 C
2189 02-03-2016 15:25:00 7.8 C 70 % 2.68 C
2190 02-03-2016 15:30:00 7.9 C 70 % 2.78 C
2191 02-03-2016 15:35:00 8 C 70 % 2.87 C
2192 02-03-2016 15:40:00 8.1 C 70 % 2.97 C
2193 02-03-2016 15:45:00 8.1 C 70 % 2.97 C
2194 02-03-2016 15:50:00 8.1 C 70 % 2.97 C
2195 02-03-2016 15:55:00 8.1 C 70 % 2.97 C
2196 02-03-2016 16:00:00 8.1 C 69 % 2.77 C
2197 02-03-2016 16:05:00 8.1 C 70 % 2.97 C
2198 02-03-2016 16:10:00 8.2 C 70 % 3.06 C
2199 02-03-2016 16:15:00 8.2 C 71 % 3.26 C
2200 02-03-2016 16:20:00 8.2 C 69 % 2.86 C
Sensor: Nr:Datum:Temp:Feuchte:Taupunkt:
Aussen-T/F 2201 02-03-2016 16:25:00 8.3 C 70 % 3.16 C
2202 02-03-2016 16:30:00 8.6 C 69 % 3.24 C
2203 02-03-2016 16:35:00 8.8 C 68 % 3.23 C
2204 02-03-2016 16:40:00 8.8 C 66 % 2.81 C
2205 02-03-2016 16:45:00 9 C 65 % 2.78 C
2206 02-03-2016 16:50:00 9.1 C 65 % 2.88 C
2207 02-03-2016 16:55:00 8.9 C 65 % 2.69 C
2208 02-03-2016 17:00:00 8.7 C 65 % 2.5 C
2209 02-03-2016 17:05:00 8.5 C 67 % 2.73 C
2210 02-03-2016 17:10:00 8.3 C 70 % 3.16 C
2211 02-03-2016 17:15:00 8.1 C 68 % 2.56 C
2212 02-03-2016 17:20:00 7.9 C 70 % 2.78 C
2213 02-03-2016 17:25:00 7.9 C 69 % 2.57 C
2214 02-03-2016 17:30:00 7.8 C 70 % 2.68 C
2215 02-03-2016 17:35:00 7.7 C 69 % 2.38 C
2216 02-03-2016 17:40:00 7.6 C 71 % 2.69 C
2217 02-03-2016 17:45:00 7.4 C 72 % 2.69 C
2218 02-03-2016 17:50:00 7.2 C 73 % 2.69 C
2219 02-03-2016 17:55:00 7.1 C 73 % 2.6 C
2220 02-03-2016 18:00:00 6.9 C 74 % 2.6 C
2221 02-03-2016 18:05:00 6.7 C 75 % 2.59 C
2222 02-03-2016 18:10:00 6.4 C 75 % 2.3 C
2223 02-03-2016 18:15:00 6.3 C 75 % 2.2 C
2224 02-03-2016 18:20:00 6.2 C 75 % 2.11 C
2225 02-03-2016 18:25:00 6 C 76 % 2.1 C
Sensor: Nr:Datum:Temp:Feuchte:Taupunkt:
Aussen-T/F 2226 02-03-2016 18:30:00 5.8 C 77 % 2.09 C
2227 02-03-2016 18:35:00 5.6 C 78 % 2.07 C
2228 02-03-2016 18:40:00 5.4 C 79 % 2.06 C
2229 02-03-2016 18:45:00 5.2 C 80 % 2.04 C
2230 02-03-2016 18:50:00 5 C 81 % 2.02 C
2231 02-03-2016 18:55:00 4.8 C 81 % 1.82 C
2232 02-03-2016 19:00:00 4.7 C 82 % 1.9 C
2233 02-03-2016 19:05:00 4.5 C 82 % 1.7 C
2234 02-03-2016 19:10:00 4.4 C 82 % 1.6 C
2235 02-03-2016 19:15:00 4.3 C 82 % 1.51 C
2236 02-03-2016 19:20:00 4.2 C 83 % 1.58 C
2237 02-03-2016 19:25:00 4.3 C 83 % 1.67 C
2238 02-03-2016 19:30:00 4.4 C 82 % 1.6 C
2239 02-03-2016 19:35:00 4.6 C 82 % 1.8 C
2240 02-03-2016 19:40:00 4.7 C 81 % 1.73 C
2241 02-03-2016 19:45:00 4.6 C 81 % 1.63 C
2242 02-03-2016 19:50:00 4.5 C 82 % 1.7 C
2243 02-03-2016 19:55:00 4.6 C 81 % 1.63 C
2244 02-03-2016 20:00:00 4.7 C 81 % 1.73 C
2245 02-03-2016 20:05:00 4.8 C 80 % 1.65 C
2246 02-03-2016 20:10:00 4.8 C 80 % 1.65 C
2247 02-03-2016 20:15:00 4.9 C 80 % 1.75 C
2248 02-03-2016 20:20:00 5 C 79 % 1.67 C
2249 02-03-2016 20:25:00 5.1 C 80 % 1.94 C
2250 02-03-2016 20:30:00 5.1 C 80 % 1.94 C
Sensor: Nr:Datum:Temp:Feuchte:Taupunkt:
Aussen-T/F 2251 02-03-2016 20:35:00 5.2 C 80 % 2.04 C
2252 02-03-2016 20:40:00 5.3 C 79 % 1.96 C
2253 02-03-2016 20:45:00 5.4 C 79 % 2.06 C
2254 02-03-2016 20:50:00 5.4 C 79 % 2.06 C
2255 02-03-2016 20:55:00 5.5 C 78 % 1.98 C
2256 02-03-2016 21:00:00 5.6 C 78 % 2.07 C
2257 02-03-2016 21:05:00 5.6 C 78 % 2.07 C
2258 02-03-2016 21:10:00 5.6 C 79 % 2.25 C
2259 02-03-2016 21:15:00 5.6 C 79 % 2.25 C
2260 02-03-2016 21:20:00 5.6 C 79 % 2.25 C
2261 02-03-2016 21:25:00 5.5 C 79 % 2.16 C
2262 02-03-2016 21:30:00 5.4 C 79 % 2.06 C
2263 02-03-2016 21:35:00 5.4 C 78 % 1.88 C
2264 02-03-2016 21:40:00 5.3 C 78 % 1.78 C
2265 02-03-2016 21:45:00 5.2 C 79 % 1.86 C
2266 02-03-2016 21:50:00 5.1 C 79 % 1.77 C
2267 02-03-2016 21:55:00 5.1 C 80 % 1.94 C
2268 02-03-2016 22:00:00 5 C 79 % 1.67 C
2269 02-03-2016 22:05:00 5.1 C 81 % 2.12 C
2270 02-03-2016 22:10:00 5 C 81 % 2.02 C
2271 02-03-2016 22:15:00 4.9 C 81 % 1.92 C
2272 02-03-2016 22:20:00 4.8 C 81 % 1.82 C
2273 02-03-2016 22:25:00 4.7 C 81 % 1.73 C
2274 02-03-2016 22:30:00 4.7 C 80 % 1.55 C
2275 02-03-2016 22:35:00 4.7 C 80 % 1.55 C
Sensor: Nr:Datum:Temp:Feuchte:Taupunkt:
Aussen-T/F 2276 02-03-2016 22:40:00 4.6 C 81 % 1.63 C
2277 02-03-2016 22:45:00 4.6 C 81 % 1.63 C
2278 02-03-2016 22:50:00 4.6 C 81 % 1.63 C
2279 02-03-2016 22:55:00 4.6 C 82 % 1.8 C
2280 02-03-2016 23:00:00 4.5 C 82 % 1.7 C
2281 02-03-2016 23:05:00 4.4 C 83 % 1.77 C
2282 02-03-2016 23:10:00 4.4 C 83 % 1.77 C
2283 02-03-2016 23:15:00 4.3 C 83 % 1.67 C
2284 02-03-2016 23:20:00 4.3 C 83 % 1.67 C
2285 02-03-2016 23:25:00 4.3 C 83 % 1.67 C
2286 02-03-2016 23:30:00 4.3 C 83 % 1.67 C
2287 02-03-2016 23:35:00 4.2 C 83 % 1.58 C
2288 02-03-2016 23:40:00 4.2 C 83 % 1.58 C
2289 02-03-2016 23:45:00 4.2 C 83 % 1.58 C
2290 02-03-2016 23:50:00 4.2 C 83 % 1.58 C
2291 02-03-2016 23:55:00 4.1 C 82 % 1.31 C
2292 03-03-2016 00:00:00 4.1 C 82 % 1.31 C
2293 03-03-2016 00:05:00 4.1 C 81 % 1.14 C
2294 03-03-2016 00:10:00 4.1 C 81 % 1.14 C
2295 03-03-2016 00:15:00 4.1 C 81 % 1.14 C
2296 03-03-2016 00:20:00 4.1 C 81 % 1.14 C
2297 03-03-2016 00:25:00 4.1 C 81 % 1.14 C
2298 03-03-2016 00:30:00 4.1 C 81 % 1.14 C
2299 03-03-2016 00:35:00 4.1 C 81 % 1.14 C
2300 03-03-2016 00:40:00 4.1 C 81 % 1.14 C
Sensor: Nr:Datum:Temp:Feuchte:Taupunkt:
Aussen-T/F 2301 03-03-2016 00:45:00 4.1 C 81 % 1.14 C
2302 03-03-2016 00:50:00 4.1 C 82 % 1.31 C
2303 03-03-2016 00:55:00 4.1 C 81 % 1.14 C
2304 03-03-2016 01:00:00 4 C 82 % 1.21 C
2305 03-03-2016 01:05:00 3.9 C 82 % 1.12 C
2306 03-03-2016 01:10:00 3.9 C 82 % 1.12 C
2307 03-03-2016 01:15:00 3.9 C 82 % 1.12 C
2308 03-03-2016 01:20:00 3.8 C 82 % 1.02 C
2309 03-03-2016 01:25:00 3.8 C 82 % 1.02 C
2310 03-03-2016 01:30:00 3.7 C 82 % 0.92 C
2311 03-03-2016 01:35:00 3.6 C 83 % 0.99 C
2312 03-03-2016 01:40:00 3.6 C 83 % 0.99 C
2313 03-03-2016 01:45:00 3.6 C 83 % 0.99 C
2314 03-03-2016 01:50:00 3.5 C 84 % 1.06 C
2315 03-03-2016 01:55:00 3.4 C 84 % 0.96 C
2316 03-03-2016 02:00:00 3.3 C 84 % 0.86 C
2317 03-03-2016 02:05:00 3.3 C 84 % 0.86 C
2318 03-03-2016 02:10:00 3.2 C 84 % 0.76 C
2319 03-03-2016 02:15:00 3.2 C 85 % 0.93 C
2320 03-03-2016 02:20:00 3.2 C 85 % 0.93 C
2321 03-03-2016 02:25:00 3.3 C 85 % 1.03 C
2322 03-03-2016 02:30:00 3.3 C 85 % 1.03 C
2323 03-03-2016 02:35:00 3.4 C 85 % 1.12 C
2324 03-03-2016 02:40:00 3.5 C 84 % 1.06 C
2325 03-03-2016 02:45:00 3.6 C 84 % 1.16 C
Sensor: Nr:Datum:Temp:Feuchte:Taupunkt:
Aussen-T/F 2326 03-03-2016 02:50:00 3.6 C 84 % 1.16 C
2327 03-03-2016 02:55:00 3.6 C 84 % 1.16 C
2328 03-03-2016 03:00:00 3.6 C 84 % 1.16 C
2329 03-03-2016 03:05:00 3.5 C 84 % 1.06 C
2330 03-03-2016 03:10:00 3.4 C 84 % 0.96 C
2331 03-03-2016 03:15:00 3.4 C 84 % 0.96 C
2332 03-03-2016 03:20:00 3.4 C 85 % 1.12 C
2333 03-03-2016 03:25:00 3.4 C 85 % 1.12 C
2334 03-03-2016 03:30:00 3.4 C 85 % 1.12 C
2335 03-03-2016 03:35:00 3.4 C 84 % 0.96 C
2336 03-03-2016 03:40:00 3.4 C 84 % 0.96 C
2337 03-03-2016 03:45:00 3.4 C 84 % 0.96 C
2338 03-03-2016 03:50:00 3.4 C 84 % 0.96 C
2339 03-03-2016 03:55:00 3.4 C 85 % 1.12 C
2340 03-03-2016 04:00:00 3.4 C 85 % 1.12 C
2341 03-03-2016 04:05:00 3.4 C 85 % 1.12 C
2342 03-03-2016 04:10:00 3.3 C 85 % 1.03 C
2343 03-03-2016 04:15:00 3.3 C 85 % 1.03 C
2344 03-03-2016 04:20:00 3.3 C 85 % 1.03 C
2345 03-03-2016 04:25:00 3.4 C 84 % 0.96 C
2346 03-03-2016 04:30:00 3.4 C 84 % 0.96 C
2347 03-03-2016 04:35:00 3.5 C 84 % 1.06 C
2348 03-03-2016 04:40:00 3.4 C 84 % 0.96 C
2349 03-03-2016 04:45:00 3.5 C 84 % 1.06 C
2350 03-03-2016 04:50:00 3.5 C 83 % 0.89 C
Sensor: Nr:Datum:Temp:Feuchte:Taupunkt:
Aussen-T/F 2351 03-03-2016 04:55:00 3.6 C 83 % 0.99 C
2352 03-03-2016 05:00:00 3.6 C 83 % 0.99 C
2353 03-03-2016 05:05:00 3.6 C 83 % 0.99 C
2354 03-03-2016 05:10:00 3.6 C 83 % 0.99 C
2355 03-03-2016 05:15:00 3.6 C 83 % 0.99 C
2356 03-03-2016 05:20:00 3.6 C 82 % 0.82 C
2357 03-03-2016 05:25:00 3.7 C 82 % 0.92 C
2358 03-03-2016 05:30:00 3.7 C 82 % 0.92 C
2359 03-03-2016 05:35:00 3.6 C 82 % 0.82 C
2360 03-03-2016 05:40:00 3.6 C 81 % 0.65 C
2361 03-03-2016 05:45:00 3.6 C 81 % 0.65 C
2362 03-03-2016 05:50:00 3.6 C 81 % 0.65 C
2363 03-03-2016 05:55:00 3.5 C 82 % 0.72 C
2364 03-03-2016 06:00:00 3.4 C 82 % 0.63 C
2365 03-03-2016 06:05:00 3.3 C 82 % 0.53 C
2366 03-03-2016 06:10:00 3.1 C 83 % 0.5 C
2367 03-03-2016 06:15:00 2.8 C 84 % 0.37 C
2368 03-03-2016 06:20:00 2.8 C 84 % 0.37 C
2369 03-03-2016 06:25:00 2.6 C 85 % 0.34 C
2370 03-03-2016 06:30:00 2.5 C 86 % 0.4 C
2371 03-03-2016 06:35:00 2.4 C 87 % 0.46 C
2372 03-03-2016 06:40:00 2.4 C 87 % 0.46 C
2373 03-03-2016 06:45:00 2.4 C 87 % 0.46 C
2374 03-03-2016 06:50:00 2.4 C 87 % 0.46 C
2375 03-03-2016 06:55:00 2.4 C 87 % 0.46 C
Sensor: Nr:Datum:Temp:Feuchte:Taupunkt:
Aussen-T/F 2376 03-03-2016 07:00:00 2.4 C 88 % 0.62 C
2377 03-03-2016 07:05:00 2.4 C 88 % 0.62 C
2378 03-03-2016 07:10:00 2.4 C 88 % 0.62 C
2379 03-03-2016 07:15:00 2.5 C 89 % 0.88 C
2380 03-03-2016 07:20:00 2.5 C 89 % 0.88 C
2381 03-03-2016 07:25:00 2.4 C 89 % 0.78 C
2382 03-03-2016 07:30:00 2.5 C 89 % 0.88 C
2383 03-03-2016 07:35:00 2.5 C 89 % 0.88 C
2384 03-03-2016 07:40:00 2.5 C 90 % 1.03 C
2385 03-03-2016 07:45:00 2.6 C 90 % 1.13 C
2386 03-03-2016 07:50:00 2.7 C 90 % 1.23 C
2387 03-03-2016 07:55:00 2.7 C 90 % 1.23 C
2388 03-03-2016 08:00:00 2.7 C 91 % 1.38 C
2389 03-03-2016 08:05:00 2.8 C 91 % 1.48 C
2390 03-03-2016 08:10:00 2.8 C 91 % 1.48 C
2391 03-03-2016 08:15:00 2.9 C 91 % 1.58 C
2392 03-03-2016 08:20:00 2.9 C 91 % 1.58 C
2393 03-03-2016 08:25:00 3.1 C 91 % 1.78 C
2394 03-03-2016 08:30:00 3.1 C 91 % 1.78 C
2395 03-03-2016 08:35:00 3.2 C 91 % 1.88 C
2396 03-03-2016 08:40:00 3.2 C 91 % 1.88 C
2397 03-03-2016 08:45:00 3.3 C 91 % 1.98 C
2398 03-03-2016 08:50:00 3.3 C 90 % 1.82 C
2399 03-03-2016 08:55:00 3.3 C 91 % 1.98 C
2400 03-03-2016 09:00:00 3.4 C 90 % 1.92 C
Sensor: Nr:Datum:Temp:Feuchte:Taupunkt:
Aussen-T/F 2401 03-03-2016 09:05:00 3.4 C 90 % 1.92 C
2402 03-03-2016 09:10:00 3.6 C 90 % 2.12 C
2403 03-03-2016 09:15:00 3.7 C 90 % 2.22 C
2404 03-03-2016 09:20:00 3.8 C 90 % 2.31 C
2405 03-03-2016 09:25:00 3.9 C 90 % 2.41 C
2406 03-03-2016 09:30:00 4.1 C 89 % 2.45 C
2407 03-03-2016 09:35:00 4.2 C 88 % 2.39 C
2408 03-03-2016 09:40:00 4.4 C 88 % 2.59 C
2409 03-03-2016 09:45:00 4.6 C 87 % 2.63 C
2410 03-03-2016 09:50:00 4.7 C 86 % 2.56 C
2411 03-03-2016 09:55:00 4.8 C 86 % 2.66 C
2412 03-03-2016 10:00:00 5.1 C 86 % 2.96 C
2413 03-03-2016 10:05:00 5.2 C 85 % 2.89 C
2414 03-03-2016 10:10:00 5.3 C 84 % 2.82 C
2415 03-03-2016 10:15:00 5.3 C 83 % 2.65 C
2416 03-03-2016 10:20:00 5.4 C 83 % 2.75 C
2417 03-03-2016 10:25:00 5.4 C 82 % 2.58 C
2418 03-03-2016 10:30:00 5.5 C 83 % 2.85 C
2419 03-03-2016 10:35:00 5.6 C 82 % 2.78 C
2420 03-03-2016 10:40:00 5.7 C 82 % 2.87 C
2421 03-03-2016 10:45:00 5.7 C 81 % 2.7 C
2422 03-03-2016 10:50:00 5.9 C 81 % 2.9 C
2423 03-03-2016 10:55:00 5.9 C 80 % 2.72 C
2424 03-03-2016 11:00:00 5.9 C 80 % 2.72 C
2425 03-03-2016 11:05:00 5.9 C 79 % 2.54 C
Sensor: Nr:Datum:Temp:Feuchte:Taupunkt:
Aussen-T/F 2426 03-03-2016 11:10:00 6 C 80 % 2.82 C
2427 03-03-2016 11:15:00 5.9 C 79 % 2.54 C
2428 03-03-2016 11:20:00 5.8 C 80 % 2.62 C
2429 03-03-2016 11:25:00 5.7 C 80 % 2.53 C
2430 03-03-2016 11:30:00 5.7 C 80 % 2.53 C
2431 03-03-2016 11:35:00 5.5 C 81 % 2.51 C
2432 03-03-2016 11:40:00 5.4 C 81 % 2.41 C
2433 03-03-2016 11:45:00 5.3 C 82 % 2.48 C
2434 03-03-2016 11:50:00 5.3 C 82 % 2.48 C
2435 03-03-2016 11:55:00 5.4 C 82 % 2.58 C
2436 03-03-2016 12:00:00 5.6 C 82 % 2.78 C
2437 03-03-2016 12:05:00 5.7 C 82 % 2.87 C
2438 03-03-2016 12:10:00 5.8 C 81 % 2.8 C
2439 03-03-2016 12:15:00 5.9 C 80 % 2.72 C
2440 03-03-2016 12:20:00 6 C 80 % 2.82 C
2441 03-03-2016 12:25:00 6.2 C 80 % 3.01 C
2442 03-03-2016 12:30:00 6.2 C 80 % 3.01 C
2443 03-03-2016 12:35:00 6.2 C 79 % 2.84 C
2444 03-03-2016 12:40:00 6.1 C 79 % 2.74 C
2445 03-03-2016 12:45:00 6.1 C 80 % 2.92 C
2446 03-03-2016 12:50:00 6 C 80 % 2.82 C
2447 03-03-2016 12:55:00 6 C 81 % 2.99 C
2448 03-03-2016 13:00:00 6 C 80 % 2.82 C
2449 03-03-2016 13:05:00 5.9 C 80 % 2.72 C
2450 03-03-2016 13:10:00 5.9 C 80 % 2.72 C
Sensor: Nr:Datum:Temp:Feuchte:Taupunkt:
Aussen-T/F 2451 03-03-2016 13:15:00 5.8 C 80 % 2.62 C
2452 03-03-2016 13:20:00 5.8 C 81 % 2.8 C
2453 03-03-2016 13:25:00 5.9 C 81 % 2.9 C
2454 03-03-2016 13:30:00 5.9 C 81 % 2.9 C
2455 03-03-2016 13:35:00 5.8 C 81 % 2.8 C
2456 03-03-2016 13:40:00 5.8 C 81 % 2.8 C
2457 03-03-2016 13:45:00 5.8 C 81 % 2.8 C
2458 03-03-2016 13:50:00 5.8 C 82 % 2.97 C
2459 03-03-2016 13:55:00 5.9 C 82 % 3.07 C
2460 03-03-2016 14:00:00 6.1 C 82 % 3.26 C
2461 03-03-2016 14:05:00 6.2 C 82 % 3.36 C
2462 03-03-2016 14:10:00 6.1 C 81 % 3.09 C
2463 03-03-2016 14:15:00 6.1 C 82 % 3.26 C
2464 03-03-2016 14:20:00 6.1 C 82 % 3.26 C
2465 03-03-2016 14:25:00 6.1 C 81 % 3.09 C
2466 03-03-2016 14:30:00 6 C 81 % 2.99 C
2467 03-03-2016 14:35:00 5.9 C 81 % 2.9 C
2468 03-03-2016 14:40:00 5.8 C 81 % 2.8 C
2469 03-03-2016 14:45:00 5.4 C 82 % 2.58 C
2470 03-03-2016 14:50:00 4.9 C 84 % 2.43 C
2471 03-03-2016 14:55:00 4.7 C 86 % 2.56 C
2472 03-03-2016 15:00:00 4.4 C 87 % 2.43 C
2473 03-03-2016 15:05:00 4.3 C 89 % 2.65 C
2474 03-03-2016 15:10:00 4.1 C 89 % 2.45 C
2475 03-03-2016 15:15:00 4.1 C 90 % 2.61 C
Sensor: Nr:Datum:Temp:Feuchte:Taupunkt:
Aussen-T/F 2476 03-03-2016 15:20:00 4 C 90 % 2.51 C
2477 03-03-2016 15:25:00 4 C 91 % 2.67 C
2478 03-03-2016 15:30:00 4 C 91 % 2.67 C
2479 03-03-2016 15:35:00 4.1 C 92 % 2.92 C
2480 03-03-2016 15:40:00 4.1 C 92 % 2.92 C
2481 03-03-2016 15:45:00 4.1 C 92 % 2.92 C
2482 03-03-2016 15:50:00 4.2 C 93 % 3.17 C
2483 03-03-2016 15:55:00 4.2 C 92 % 3.02 C
2484 03-03-2016 16:00:00 4.3 C 93 % 3.27 C
2485 03-03-2016 16:05:00 4.3 C 92 % 3.12 C
2486 03-03-2016 16:10:00 4.3 C 92 % 3.12 C
2487 03-03-2016 16:15:00 4.4 C 92 % 3.22 C
2488 03-03-2016 16:20:00 4.5 C 92 % 3.32 C
2489 03-03-2016 16:25:00 4.6 C 92 % 3.42 C
2490 03-03-2016 16:30:00 4.7 C 92 % 3.51 C
2491 03-03-2016 16:35:00 4.8 C 92 % 3.61 C
2492 03-03-2016 16:40:00 4.9 C 91 % 3.56 C
2493 03-03-2016 16:45:00 4.9 C 91 % 3.56 C
2494 03-03-2016 16:50:00 5 C 91 % 3.66 C
2495 03-03-2016 16:55:00 5.1 C 91 % 3.76 C
2496 03-03-2016 17:00:00 5.1 C 90 % 3.6 C
2497 03-03-2016 17:05:00 5.1 C 89 % 3.44 C
2498 03-03-2016 17:10:00 5 C 89 % 3.34 C
2499 03-03-2016 17:15:00 5 C 90 % 3.5 C
2500 03-03-2016 17:20:00 5 C 90 % 3.5 C
Sensor: Nr:Datum:Temp:Feuchte:Taupunkt:
Aussen-T/F 2501 03-03-2016 17:25:00 5 C 90 % 3.5 C
2502 03-03-2016 17:30:00 5.2 C 90 % 3.7 C
2503 03-03-2016 17:35:00 5.3 C 88 % 3.48 C
2504 03-03-2016 17:40:00 5.3 C 88 % 3.48 C
2505 03-03-2016 17:45:00 5.4 C 87 % 3.41 C
2506 03-03-2016 17:50:00 5.6 C 88 % 3.77 C
2507 03-03-2016 17:55:00 5.7 C 88 % 3.87 C
2508 03-03-2016 18:00:00 5.5 C 87 % 3.51 C
2509 03-03-2016 18:05:00 5.3 C 86 % 3.15 C
2510 03-03-2016 18:10:00 5.2 C 87 % 3.22 C
2511 03-03-2016 18:15:00 4.9 C 87 % 2.92 C
2512 03-03-2016 18:20:00 4.6 C 87 % 2.63 C
2513 03-03-2016 18:25:00 4.3 C 88 % 2.49 C
2514 03-03-2016 18:30:00 4.2 C 89 % 2.55 C
2515 03-03-2016 18:35:00 4.2 C 89 % 2.55 C
2516 03-03-2016 18:40:00 4 C 89 % 2.36 C
2517 03-03-2016 18:45:00 3.8 C 89 % 2.16 C
2518 03-03-2016 18:50:00 3.5 C 90 % 2.02 C
2519 03-03-2016 18:55:00 3.3 C 90 % 1.82 C
2520 03-03-2016 19:00:00 3.2 C 91 % 1.88 C
2521 03-03-2016 19:05:00 3.1 C 92 % 1.93 C
2522 03-03-2016 19:10:00 3.1 C 92 % 1.93 C
2523 03-03-2016 19:15:00 3 C 92 % 1.83 C
2524 03-03-2016 19:20:00 2.9 C 92 % 1.73 C
2525 03-03-2016 19:25:00 2.8 C 92 % 1.63 C
Sensor: Nr:Datum:Temp:Feuchte:Taupunkt:
Aussen-T/F 2526 03-03-2016 19:30:00 2.6 C 92 % 1.43 C
2527 03-03-2016 19:35:00 2.5 C 92 % 1.34 C
2528 03-03-2016 19:40:00 2.4 C 93 % 1.39 C
2529 03-03-2016 19:45:00 2.4 C 93 % 1.39 C
2530 03-03-2016 19:50:00 2.3 C 93 % 1.29 C
2531 03-03-2016 19:55:00 2.3 C 93 % 1.29 C
2532 03-03-2016 20:00:00 2.2 C 93 % 1.19 C
2533 03-03-2016 20:05:00 2.1 C 93 % 1.09 C
2534 03-03-2016 20:10:00 2 C 93 % 0.99 C
2535 03-03-2016 20:15:00 1.8 C 93 % 0.79 C
2536 03-03-2016 20:20:00 1.7 C 93 % 0.69 C
2537 03-03-2016 20:25:00 1.6 C 93 % 0.59 C
2538 03-03-2016 20:30:00 1.4 C 93 % 0.4 C
2539 03-03-2016 20:35:00 1.4 C 94 % 0.54 C
2540 03-03-2016 20:40:00 1.4 C 94 % 0.54 C
2541 03-03-2016 20:45:00 1.4 C 94 % 0.54 C
2542 03-03-2016 20:50:00 1.3 C 94 % 0.44 C
2543 03-03-2016 20:55:00 1.2 C 94 % 0.34 C
2544 03-03-2016 21:00:00 1.2 C 94 % 0.34 C
2545 03-03-2016 21:05:00 1.2 C 94 % 0.34 C
2546 03-03-2016 21:10:00 1.1 C 94 % 0.24 C
2547 03-03-2016 21:15:00 0.9 C 94 % 0.05 C
2548 03-03-2016 21:20:00 0.9 C 94 % 0.05 C
2549 03-03-2016 21:25:00 0.8 C 94 % -0.05 C
2550 03-03-2016 21:30:00 0.8 C 95 % 0.09 C
Sensor: Nr:Datum:Temp:Feuchte:Taupunkt:
Aussen-T/F 2551 03-03-2016 21:35:00 0.8 C 94 % -0.05 C
2552 03-03-2016 21:40:00 0.8 C 94 % -0.05 C
2553 03-03-2016 21:45:00 0.8 C 95 % 0.09 C
2554 03-03-2016 21:50:00 0.8 C 95 % 0.09 C
2555 03-03-2016 21:55:00 0.7 C 95 % -0.01 C
2556 03-03-2016 22:00:00 0.7 C 95 % -0.01 C
2557 03-03-2016 22:05:00 0.7 C 95 % -0.01 C
2558 03-03-2016 22:10:00 0.6 C 95 % -0.11 C
2559 03-03-2016 22:15:00 0.6 C 95 % -0.11 C
2560 03-03-2016 22:20:00 0.6 C 95 % -0.11 C
2561 03-03-2016 22:25:00 0.5 C 95 % -0.21 C
2562 03-03-2016 22:30:00 0.4 C 95 % -0.31 C
2563 03-03-2016 22:35:00 0.4 C 95 % -0.31 C
2564 03-03-2016 22:40:00 0.3 C 95 % -0.4 C
2565 03-03-2016 22:45:00 0.2 C 95 % -0.5 C
2566 03-03-2016 22:50:00 0.2 C 95 % -0.5 C
2567 03-03-2016 22:55:00 0.1 C 95 % -0.6 C
2568 03-03-2016 23:00:00 0.2 C 95 % -0.5 C
2569 03-03-2016 23:05:00 0.3 C 95 % -0.4 C
2570 03-03-2016 23:10:00 0.3 C 95 % -0.4 C
2571 03-03-2016 23:15:00 0.2 C 95 % -0.5 C
2572 03-03-2016 23:20:00 0.1 C 95 % -0.6 C
2573 03-03-2016 23:25:00 0 C 95 % -0.7 C
2574 03-03-2016 23:30:00 -0.1 C 95 % -0.8 C
2575 03-03-2016 23:35:00 -0.2 C 95 % -0.9 C
Sensor: Nr:Datum:Temp:Feuchte:Taupunkt:
Aussen-T/F 2576 03-03-2016 23:40:00 -0.2 C 95 % -0.9 C
2577 03-03-2016 23:45:00 -0.3 C 95 % -1 C
2578 03-03-2016 23:50:00 -0.3 C 95 % -1 C
2579 03-03-2016 23:55:00 -0.2 C 95 % -0.9 C
2580 04-03-2016 00:00:00 -0.2 C 95 % -0.9 C
2581 04-03-2016 00:05:00 -0.3 C 95 % -1 C
2582 04-03-2016 00:10:00 -0.2 C 95 % -0.9 C
2583 04-03-2016 00:15:00 -0.3 C 95 % -1 C
2584 04-03-2016 00:20:00 -0.3 C 95 % -1 C
2585 04-03-2016 00:25:00 -0.4 C 95 % -1.1 C
2586 04-03-2016 00:30:00 -0.3 C 95 % -1 C
2587 04-03-2016 00:35:00 -0.3 C 95 % -1 C
2588 04-03-2016 00:40:00 -0.3 C 96 % -0.86 C
2589 04-03-2016 00:45:00 -0.4 C 96 % -0.96 C
2590 04-03-2016 00:50:00 -0.4 C 95 % -1.1 C
2591 04-03-2016 00:55:00 -0.5 C 95 % -1.2 C
2592 04-03-2016 01:00:00 -0.6 C 95 % -1.3 C
2593 04-03-2016 01:05:00 -0.6 C 95 % -1.3 C
2594 04-03-2016 01:10:00 -0.6 C 95 % -1.3 C
2595 04-03-2016 01:15:00 -0.6 C 96 % -1.16 C
2596 04-03-2016 01:20:00 -0.6 C 96 % -1.16 C
2597 04-03-2016 01:25:00 -0.6 C 96 % -1.16 C
2598 04-03-2016 01:30:00 -0.5 C 96 % -1.06 C
2599 04-03-2016 01:35:00 -0.6 C 96 % -1.16 C
2600 04-03-2016 01:40:00 -0.5 C 96 % -1.06 C
Sensor: Nr:Datum:Temp:Feuchte:Taupunkt:
Aussen-T/F 2601 04-03-2016 01:45:00 -0.4 C 96 % -0.96 C
2602 04-03-2016 01:50:00 -0.4 C 96 % -0.96 C
2603 04-03-2016 01:55:00 -0.4 C 96 % -0.96 C
2604 04-03-2016 02:00:00 -0.3 C 96 % -0.86 C
2605 04-03-2016 02:05:00 -0.2 C 96 % -0.76 C
2606 04-03-2016 02:10:00 -0.2 C 96 % -0.76 C
2607 04-03-2016 02:15:00 -0.3 C 96 % -0.86 C
2608 04-03-2016 02:20:00 -0.4 C 96 % -0.96 C
2609 04-03-2016 02:25:00 -0.6 C 96 % -1.16 C
2610 04-03-2016 02:30:00 -0.7 C 96 % -1.26 C
2611 04-03-2016 02:35:00 -0.8 C 95 % -1.5 C
2612 04-03-2016 02:40:00 -0.8 C 95 % -1.5 C
2613 04-03-2016 02:45:00 -0.9 C 96 % -1.46 C
2614 04-03-2016 02:50:00 -1.1 C 96 % -1.66 C
2615 04-03-2016 02:55:00 -1.1 C 95 % -1.8 C
2616 04-03-2016 03:00:00 -1.2 C 95 % -1.9 C
2617 04-03-2016 03:05:00 -1.2 C 96 % -1.75 C
2618 04-03-2016 03:10:00 -1.2 C 96 % -1.75 C
2619 04-03-2016 03:15:00 -1.3 C 96 % -1.85 C
2620 04-03-2016 03:20:00 -1.3 C 96 % -1.85 C
2621 04-03-2016 03:25:00 -1.3 C 96 % -1.85 C
2622 04-03-2016 03:30:00 -1.3 C 96 % -1.85 C
2623 04-03-2016 03:35:00 -1.4 C 95 % -2.1 C
2624 04-03-2016 03:40:00 -1.4 C 96 % -1.95 C
2625 04-03-2016 03:45:00 -1.4 C 96 % -1.95 C
Sensor: Nr:Datum:Temp:Feuchte:Taupunkt:
Aussen-T/F 2626 04-03-2016 03:50:00 -1.4 C 96 % -1.95 C
2627 04-03-2016 03:55:00 -1.5 C 96 % -2.05 C
2628 04-03-2016 04:00:00 -1.5 C 96 % -2.05 C
2629 04-03-2016 04:05:00 -1.6 C 96 % -2.15 C
2630 04-03-2016 04:10:00 -1.5 C 96 % -2.05 C
2631 04-03-2016 04:15:00 -1.4 C 96 % -1.95 C
2632 04-03-2016 04:20:00 -1.4 C 96 % -1.95 C
2633 04-03-2016 04:25:00 -1.4 C 96 % -1.95 C
2634 04-03-2016 04:30:00 -1.4 C 96 % -1.95 C
2635 04-03-2016 04:35:00 -1.5 C 96 % -2.05 C
2636 04-03-2016 04:40:00 -1.5 C 96 % -2.05 C
2637 04-03-2016 04:45:00 -1.6 C 96 % -2.15 C
2638 04-03-2016 04:50:00 -1.5 C 96 % -2.05 C
2639 04-03-2016 04:55:00 -1.4 C 96 % -1.95 C
2640 04-03-2016 05:00:00 -1.4 C 96 % -1.95 C
2641 04-03-2016 05:05:00 -1.3 C 96 % -1.85 C
2642 04-03-2016 05:10:00 -1.1 C 96 % -1.66 C
2643 04-03-2016 05:15:00 -0.9 C 96 % -1.46 C
2644 04-03-2016 05:20:00 -0.8 C 96 % -1.36 C
2645 04-03-2016 05:25:00 -0.8 C 96 % -1.36 C
2646 04-03-2016 05:30:00 -0.8 C 96 % -1.36 C
2647 04-03-2016 05:35:00 -0.8 C 96 % -1.36 C
2648 04-03-2016 05:40:00 -0.8 C 96 % -1.36 C
2649 04-03-2016 05:45:00 -0.8 C 96 % -1.36 C
2650 04-03-2016 05:50:00 -0.8 C 96 % -1.36 C
Sensor: Nr:Datum:Temp:Feuchte:Taupunkt:
Aussen-T/F 2651 04-03-2016 05:55:00 -0.8 C 96 % -1.36 C
2652 04-03-2016 06:00:00 -0.8 C 96 % -1.36 C
2653 04-03-2016 06:05:00 -0.9 C 96 % -1.46 C
2654 04-03-2016 06:10:00 -0.9 C 96 % -1.46 C
2655 04-03-2016 06:15:00 -0.9 C 96 % -1.46 C
2656 04-03-2016 06:20:00 -0.8 C 96 % -1.36 C
2657 04-03-2016 06:25:00 -0.8 C 96 % -1.36 C
2658 04-03-2016 06:30:00 -0.8 C 96 % -1.36 C
2659 04-03-2016 06:35:00 -0.8 C 96 % -1.36 C
2660 04-03-2016 06:40:00 -0.8 C 96 % -1.36 C
2661 04-03-2016 06:45:00 -0.8 C 96 % -1.36 C
2662 04-03-2016 06:50:00 -0.8 C 96 % -1.36 C
2663 04-03-2016 06:55:00 -0.7 C 96 % -1.26 C
2664 04-03-2016 07:00:00 -0.8 C 96 % -1.36 C
2665 04-03-2016 07:05:00 -0.7 C 96 % -1.26 C
2666 04-03-2016 07:10:00 -0.7 C 96 % -1.26 C
2667 04-03-2016 07:15:00 -0.7 C 96 % -1.26 C
2668 04-03-2016 07:20:00 -0.6 C 96 % -1.16 C
2669 04-03-2016 07:25:00 -0.6 C 96 % -1.16 C
2670 04-03-2016 07:30:00 -0.4 C 96 % -0.96 C
2671 04-03-2016 07:35:00 -0.2 C 96 % -0.76 C
2672 04-03-2016 07:40:00 -0.1 C 96 % -0.66 C
2673 04-03-2016 07:45:00 0.2 C 97 % -0.22 C
2674 04-03-2016 07:50:00 0.3 C 97 % -0.12 C
2675 04-03-2016 07:55:00 0.4 C 97 % -0.02 C
Sensor: Nr:Datum:Temp:Feuchte:Taupunkt:
Aussen-T/F 2676 04-03-2016 08:00:00 0.5 C 96 % -0.06 C
2677 04-03-2016 08:05:00 0.6 C 97 % 0.18 C
2678 04-03-2016 08:10:00 0.6 C 96 % 0.04 C
2679 04-03-2016 08:15:00 0.7 C 96 % 0.14 C
2680 04-03-2016 08:20:00 0.7 C 96 % 0.14 C
2681 04-03-2016 08:25:00 0.8 C 96 % 0.24 C
2682 04-03-2016 08:30:00 0.8 C 96 % 0.24 C
2683 04-03-2016 08:35:00 0.9 C 96 % 0.34 C
2684 04-03-2016 08:40:00 0.9 C 96 % 0.34 C
2685 04-03-2016 08:45:00 1 C 96 % 0.44 C
2686 04-03-2016 08:50:00 1.1 C 95 % 0.39 C
2687 04-03-2016 08:55:00 1.2 C 95 % 0.49 C
2688 04-03-2016 09:00:00 1.3 C 95 % 0.59 C
2689 04-03-2016 09:05:00 1.3 C 95 % 0.59 C
2690 04-03-2016 09:10:00 1.4 C 94 % 0.54 C
2691 04-03-2016 09:15:00 1.5 C 94 % 0.64 C
2692 04-03-2016 09:20:00 1.6 C 94 % 0.74 C
2693 04-03-2016 09:25:00 1.7 C 93 % 0.69 C
2694 04-03-2016 09:30:00 1.7 C 92 % 0.54 C
2695 04-03-2016 09:35:00 1.8 C 92 % 0.64 C
2696 04-03-2016 09:40:00 1.9 C 91 % 0.59 C
2697 04-03-2016 09:45:00 2 C 91 % 0.69 C
2698 04-03-2016 09:50:00 2.1 C 91 % 0.79 C
2699 04-03-2016 09:55:00 2.1 C 90 % 0.64 C
2700 04-03-2016 10:00:00 2.2 C 90 % 0.73 C
Sensor: Nr:Datum:Temp:Feuchte:Taupunkt:
Aussen-T/F 2701 04-03-2016 10:05:00 2.3 C 90 % 0.83 C
2702 04-03-2016 10:10:00 2.3 C 90 % 0.83 C
2703 04-03-2016 10:15:00 2.3 C 89 % 0.68 C
2704 04-03-2016 10:20:00 2.3 C 89 % 0.68 C
2705 04-03-2016 10:25:00 2.4 C 89 % 0.78 C
2706 04-03-2016 10:30:00 2.5 C 89 % 0.88 C
2707 04-03-2016 10:35:00 2.6 C 89 % 0.97 C
2708 04-03-2016 10:40:00 2.6 C 88 % 0.82 C
2709 04-03-2016 10:45:00 2.7 C 88 % 0.92 C
2710 04-03-2016 10:50:00 2.7 C 88 % 0.92 C
2711 04-03-2016 10:55:00 2.8 C 88 % 1.02 C
2712 04-03-2016 11:00:00 2.8 C 88 % 1.02 C
2713 04-03-2016 11:05:00 2.8 C 87 % 0.86 C
2714 04-03-2016 11:10:00 2.9 C 87 % 0.96 C
2715 04-03-2016 11:15:00 3 C 87 % 1.05 C
2716 04-03-2016 11:20:00 3.1 C 88 % 1.31 C
2717 04-03-2016 11:25:00 3.2 C 88 % 1.41 C
2718 04-03-2016 11:30:00 3.3 C 87 % 1.35 C
2719 04-03-2016 11:35:00 3.4 C 87 % 1.45 C
2720 04-03-2016 11:40:00 3.6 C 87 % 1.64 C
2721 04-03-2016 11:45:00 3.6 C 85 % 1.32 C
2722 04-03-2016 11:50:00 3.7 C 85 % 1.42 C
2723 04-03-2016 11:55:00 3.7 C 84 % 1.25 C
2724 04-03-2016 12:00:00 3.7 C 84 % 1.25 C
2725 04-03-2016 12:05:00 3.8 C 84 % 1.35 C
Sensor: Nr:Datum:Temp:Feuchte:Taupunkt:
Aussen-T/F 2726 04-03-2016 12:10:00 3.8 C 84 % 1.35 C
2727 04-03-2016 12:15:00 3.8 C 84 % 1.35 C
2728 04-03-2016 12:20:00 3.8 C 85 % 1.52 C
2729 04-03-2016 12:25:00 3.8 C 85 % 1.52 C
2730 04-03-2016 12:30:00 3.9 C 86 % 1.78 C
2731 04-03-2016 12:35:00 3.9 C 85 % 1.61 C
2732 04-03-2016 12:40:00 4 C 85 % 1.71 C
2733 04-03-2016 12:45:00 4.1 C 85 % 1.81 C
2734 04-03-2016 12:50:00 4.1 C 84 % 1.65 C
2735 04-03-2016 12:55:00 4.1 C 85 % 1.81 C
2736 04-03-2016 13:00:00 4.2 C 85 % 1.91 C
2737 04-03-2016 13:05:00 4.2 C 84 % 1.74 C
2738 04-03-2016 13:10:00 4.2 C 84 % 1.74 C
2739 04-03-2016 13:15:00 4.2 C 83 % 1.58 C
2740 04-03-2016 13:20:00 4.2 C 84 % 1.74 C
2741 04-03-2016 13:25:00 4.2 C 84 % 1.74 C
2742 04-03-2016 13:30:00 4.2 C 83 % 1.58 C
2743 04-03-2016 13:35:00 4.2 C 84 % 1.74 C
2744 04-03-2016 13:40:00 4.2 C 84 % 1.74 C
2745 04-03-2016 13:45:00 4.2 C 84 % 1.74 C
2746 04-03-2016 13:50:00 4.2 C 84 % 1.74 C
2747 04-03-2016 13:55:00 4.2 C 84 % 1.74 C
2748 04-03-2016 14:00:00 4.2 C 85 % 1.91 C
2749 04-03-2016 14:05:00 4.1 C 86 % 1.97 C
2750 04-03-2016 14:10:00 3.9 C 87 % 1.94 C
Sensor: Nr:Datum:Temp:Feuchte:Taupunkt:
Aussen-T/F 2751 04-03-2016 14:15:00 3.8 C 88 % 2 C
2752 04-03-2016 14:20:00 3.7 C 89 % 2.06 C
2753 04-03-2016 14:25:00 3.7 C 90 % 2.22 C
2754 04-03-2016 14:30:00 3.6 C 90 % 2.12 C
2755 04-03-2016 14:35:00 3.6 C 90 % 2.12 C
2756 04-03-2016 14:40:00 3.5 C 91 % 2.17 C
2757 04-03-2016 14:45:00 3.5 C 91 % 2.17 C
2758 04-03-2016 14:50:00 3.5 C 92 % 2.33 C
2759 04-03-2016 14:55:00 3.4 C 92 % 2.23 C
2760 04-03-2016 15:00:00 3.4 C 92 % 2.23 C
2761 04-03-2016 15:05:00 3.3 C 92 % 2.13 C
2762 04-03-2016 15:10:00 3.3 C 92 % 2.13 C
2763 04-03-2016 15:15:00 3.2 C 93 % 2.18 C
2764 04-03-2016 15:20:00 3.2 C 93 % 2.18 C
2765 04-03-2016 15:25:00 3.1 C 93 % 2.08 C
2766 04-03-2016 15:30:00 3.1 C 93 % 2.08 C
2767 04-03-2016 15:35:00 2.9 C 93 % 1.88 C
2768 04-03-2016 15:40:00 2.8 C 93 % 1.78 C
2769 04-03-2016 15:45:00 2.8 C 93 % 1.78 C
2770 04-03-2016 15:50:00 2.8 C 93 % 1.78 C
2771 04-03-2016 15:55:00 2.7 C 93 % 1.68 C
2772 04-03-2016 16:00:00 2.7 C 94 % 1.83 C
2773 04-03-2016 16:05:00 2.7 C 94 % 1.83 C
2774 04-03-2016 16:10:00 2.8 C 94 % 1.93 C
2775 04-03-2016 16:15:00 2.8 C 94 % 1.93 C
Sensor: Nr:Datum:Temp:Feuchte:Taupunkt:
Aussen-T/F 2776 04-03-2016 16:20:00 2.8 C 94 % 1.93 C
2777 04-03-2016 16:25:00 2.9 C 94 % 2.03 C
2778 04-03-2016 16:30:00 2.9 C 94 % 2.03 C
2779 04-03-2016 16:35:00 2.9 C 94 % 2.03 C
2780 04-03-2016 16:40:00 3 C 94 % 2.13 C
2781 04-03-2016 16:45:00 3 C 94 % 2.13 C
2782 04-03-2016 16:50:00 3.1 C 94 % 2.23 C
2783 04-03-2016 16:55:00 3.1 C 94 % 2.23 C
2784 04-03-2016 17:00:00 3.1 C 94 % 2.23 C
2785 04-03-2016 17:05:00 3.2 C 94 % 2.33 C
2786 04-03-2016 17:10:00 3.2 C 94 % 2.33 C
2787 04-03-2016 17:15:00 3.2 C 94 % 2.33 C
2788 04-03-2016 17:20:00 3.2 C 94 % 2.33 C
2789 04-03-2016 17:25:00 3.3 C 94 % 2.43 C
2790 04-03-2016 17:30:00 3.3 C 94 % 2.43 C
2791 04-03-2016 17:35:00 3.3 C 94 % 2.43 C
2792 04-03-2016 17:40:00 3.3 C 94 % 2.43 C
2793 04-03-2016 17:45:00 3.3 C 94 % 2.43 C
2794 04-03-2016 17:50:00 3.3 C 94 % 2.43 C
2795 04-03-2016 17:55:00 3.3 C 94 % 2.43 C
2796 04-03-2016 18:00:00 3.3 C 94 % 2.43 C
2797 04-03-2016 18:05:00 3.2 C 94 % 2.33 C
2798 04-03-2016 18:10:00 3.2 C 94 % 2.33 C
2799 04-03-2016 18:15:00 3.2 C 94 % 2.33 C
2800 04-03-2016 18:20:00 3.2 C 95 % 2.48 C
Sensor: Nr:Datum:Temp:Feuchte:Taupunkt:
Aussen-T/F 2801 04-03-2016 18:25:00 3.2 C 95 % 2.48 C
2802 04-03-2016 18:30:00 3.2 C 95 % 2.48 C
2803 04-03-2016 18:35:00 3.2 C 95 % 2.48 C
2804 04-03-2016 18:40:00 3.2 C 95 % 2.48 C
2805 04-03-2016 18:45:00 3.2 C 95 % 2.48 C
2806 04-03-2016 18:50:00 3.2 C 95 % 2.48 C
2807 04-03-2016 18:55:00 3.1 C 95 % 2.38 C
2808 04-03-2016 19:00:00 3.1 C 95 % 2.38 C
2809 04-03-2016 19:05:00 3.2 C 95 % 2.48 C
2810 04-03-2016 19:10:00 3.2 C 95 % 2.48 C
2811 04-03-2016 19:15:00 3.2 C 95 % 2.48 C
2812 04-03-2016 19:20:00 3.2 C 95 % 2.48 C
2813 04-03-2016 19:25:00 3.2 C 95 % 2.48 C
2814 04-03-2016 19:30:00 3.2 C 95 % 2.48 C
2815 04-03-2016 19:35:00 3.2 C 95 % 2.48 C
2816 04-03-2016 19:40:00 3.2 C 95 % 2.48 C
2817 04-03-2016 19:45:00 3.2 C 95 % 2.48 C
2818 04-03-2016 19:50:00 3.2 C 95 % 2.48 C
2819 04-03-2016 19:55:00 3.2 C 96 % 2.63 C
2820 04-03-2016 20:00:00 3.2 C 96 % 2.63 C
2821 04-03-2016 20:05:00 3.1 C 96 % 2.53 C
2822 04-03-2016 20:10:00 3.1 C 95 % 2.38 C
2823 04-03-2016 20:15:00 3.2 C 95 % 2.48 C
2824 04-03-2016 20:20:00 3.2 C 96 % 2.63 C
2825 04-03-2016 20:25:00 3.2 C 96 % 2.63 C
Sensor: Nr:Datum:Temp:Feuchte:Taupunkt:
Aussen-T/F 2826 04-03-2016 20:30:00 3.2 C 96 % 2.63 C
2827 04-03-2016 20:35:00 3.2 C 96 % 2.63 C
2828 04-03-2016 20:40:00 3.2 C 96 % 2.63 C
2829 04-03-2016 20:45:00 3.2 C 96 % 2.63 C
2830 04-03-2016 20:50:00 3.2 C 96 % 2.63 C
2831 04-03-2016 20:55:00 3.2 C 96 % 2.63 C
2832 04-03-2016 21:00:00 3.2 C 96 % 2.63 C
2833 04-03-2016 21:05:00 3.2 C 96 % 2.63 C
2834 04-03-2016 21:10:00 3.2 C 96 % 2.63 C
2835 04-03-2016 21:15:00 3.2 C 96 % 2.63 C
2836 04-03-2016 21:20:00 3.2 C 96 % 2.63 C
2837 04-03-2016 21:25:00 3.2 C 96 % 2.63 C
2838 04-03-2016 21:30:00 3.2 C 96 % 2.63 C
2839 04-03-2016 21:35:00 3.2 C 96 % 2.63 C
2840 04-03-2016 21:40:00 3.2 C 96 % 2.63 C
2841 04-03-2016 21:45:00 3.3 C 96 % 2.72 C
2842 04-03-2016 21:50:00 3.3 C 96 % 2.72 C
2843 04-03-2016 21:55:00 3.3 C 96 % 2.72 C
2844 04-03-2016 22:00:00 3.3 C 96 % 2.72 C
2845 04-03-2016 22:05:00 3.3 C 96 % 2.72 C
2846 04-03-2016 22:10:00 3.3 C 96 % 2.72 C
2847 04-03-2016 22:15:00 3.3 C 96 % 2.72 C
2848 04-03-2016 22:20:00 3.3 C 96 % 2.72 C
2849 04-03-2016 22:25:00 3.3 C 96 % 2.72 C
2850 04-03-2016 22:30:00 3.3 C 96 % 2.72 C
Sensor: Nr:Datum:Temp:Feuchte:Taupunkt:
Aussen-T/F 2851 04-03-2016 22:35:00 3.3 C 96 % 2.72 C
2852 04-03-2016 22:40:00 3.3 C 96 % 2.72 C
2853 04-03-2016 22:45:00 3.3 C 96 % 2.72 C
2854 04-03-2016 22:50:00 3.3 C 96 % 2.72 C
2855 04-03-2016 22:55:00 3.3 C 96 % 2.72 C
2856 04-03-2016 23:00:00 3.3 C 96 % 2.72 C
2857 04-03-2016 23:05:00 3.3 C 96 % 2.72 C
2858 04-03-2016 23:10:00 3.3 C 96 % 2.72 C
2859 04-03-2016 23:15:00 3.4 C 96 % 2.82 C
2860 04-03-2016 23:20:00 3.4 C 96 % 2.82 C
2861 04-03-2016 23:25:00 3.4 C 96 % 2.82 C
2862 04-03-2016 23:30:00 3.3 C 96 % 2.72 C
2863 04-03-2016 23:35:00 3.3 C 96 % 2.72 C
2864 04-03-2016 23:40:00 3.4 C 96 % 2.82 C
2865 04-03-2016 23:45:00 3.4 C 97 % 2.97 C
2866 04-03-2016 23:50:00 3.4 C 97 % 2.97 C
2867 04-03-2016 23:55:00 3.4 C 97 % 2.97 C
2868 05-03-2016 00:00:00 3.3 C 97 % 2.87 C
2869 05-03-2016 00:05:00 3.4 C 97 % 2.97 C
2870 05-03-2016 00:10:00 3.4 C 96 % 2.82 C
2871 05-03-2016 00:15:00 3.4 C 96 % 2.82 C
2872 05-03-2016 00:20:00 3.4 C 96 % 2.82 C
2873 05-03-2016 00:25:00 3.4 C 96 % 2.82 C
2874 05-03-2016 00:30:00 3.4 C 96 % 2.82 C
2875 05-03-2016 00:35:00 3.4 C 96 % 2.82 C
Sensor: Nr:Datum:Temp:Feuchte:Taupunkt:
Aussen-T/F 2876 05-03-2016 00:40:00 3.4 C 96 % 2.82 C
2877 05-03-2016 00:45:00 3.4 C 96 % 2.82 C
2878 05-03-2016 00:50:00 3.4 C 97 % 2.97 C
2879 05-03-2016 00:55:00 3.4 C 97 % 2.97 C
2880 05-03-2016 01:00:00 3.4 C 97 % 2.97 C
2881 05-03-2016 01:05:00 3.4 C 97 % 2.97 C
2882 05-03-2016 01:10:00 3.4 C 97 % 2.97 C
2883 05-03-2016 01:15:00 3.4 C 96 % 2.82 C
2884 05-03-2016 01:20:00 3.4 C 96 % 2.82 C
2885 05-03-2016 01:25:00 3.4 C 96 % 2.82 C
2886 05-03-2016 01:30:00 3.4 C 96 % 2.82 C
2887 05-03-2016 01:35:00 3.4 C 96 % 2.82 C
2888 05-03-2016 01:40:00 3.3 C 96 % 2.72 C
2889 05-03-2016 01:45:00 3.3 C 96 % 2.72 C
2890 05-03-2016 01:50:00 3.3 C 96 % 2.72 C
2891 05-03-2016 01:55:00 3.3 C 96 % 2.72 C
2892 05-03-2016 02:00:00 3.3 C 96 % 2.72 C
2893 05-03-2016 02:05:00 3.3 C 96 % 2.72 C
2894 05-03-2016 02:10:00 3.3 C 97 % 2.87 C
2895 05-03-2016 02:15:00 3.3 C 97 % 2.87 C
2896 05-03-2016 02:20:00 3.3 C 97 % 2.87 C
2897 05-03-2016 02:25:00 3.3 C 97 % 2.87 C
2898 05-03-2016 02:30:00 3.2 C 97 % 2.77 C
2899 05-03-2016 02:35:00 3.2 C 97 % 2.77 C
2900 05-03-2016 02:40:00 3.2 C 97 % 2.77 C
Sensor: Nr:Datum:Temp:Feuchte:Taupunkt:
Aussen-T/F 2901 05-03-2016 02:45:00 3.2 C 97 % 2.77 C
2902 05-03-2016 02:50:00 3.2 C 97 % 2.77 C
2903 05-03-2016 02:55:00 3.2 C 97 % 2.77 C
2904 05-03-2016 03:00:00 3.2 C 97 % 2.77 C
2905 05-03-2016 03:05:00 3.2 C 97 % 2.77 C
2906 05-03-2016 03:10:00 3.2 C 97 % 2.77 C
2907 05-03-2016 03:15:00 3.2 C 97 % 2.77 C
2908 05-03-2016 03:20:00 3.2 C 97 % 2.77 C
2909 05-03-2016 03:25:00 3.2 C 97 % 2.77 C
2910 05-03-2016 03:30:00 3.2 C 97 % 2.77 C
2911 05-03-2016 03:35:00 3.2 C 97 % 2.77 C
2912 05-03-2016 03:40:00 3.2 C 97 % 2.77 C
2913 05-03-2016 03:45:00 3.2 C 97 % 2.77 C
2914 05-03-2016 03:50:00 3.2 C 97 % 2.77 C
2915 05-03-2016 03:55:00 3.2 C 97 % 2.77 C
2916 05-03-2016 04:00:00 3.2 C 97 % 2.77 C
2917 05-03-2016 04:05:00 3.2 C 97 % 2.77 C
2918 05-03-2016 04:10:00 3.3 C 97 % 2.87 C
2919 05-03-2016 04:15:00 3.3 C 97 % 2.87 C
2920 05-03-2016 04:20:00 3.3 C 97 % 2.87 C
2921 05-03-2016 04:25:00 3.3 C 97 % 2.87 C
2922 05-03-2016 04:30:00 3.3 C 97 % 2.87 C
2923 05-03-2016 04:35:00 3.3 C 97 % 2.87 C
2924 05-03-2016 04:40:00 3.3 C 97 % 2.87 C
2925 05-03-2016 04:45:00 3.3 C 97 % 2.87 C
Sensor: Nr:Datum:Temp:Feuchte:Taupunkt:
Aussen-T/F 2926 05-03-2016 04:50:00 3.3 C 97 % 2.87 C
2927 05-03-2016 04:55:00 3.3 C 97 % 2.87 C
2928 05-03-2016 05:00:00 3.3 C 97 % 2.87 C
2929 05-03-2016 05:05:00 3.3 C 97 % 2.87 C
2930 05-03-2016 05:10:00 3.3 C 97 % 2.87 C
2931 05-03-2016 05:15:00 3.3 C 97 % 2.87 C
2932 05-03-2016 05:20:00 3.3 C 97 % 2.87 C
2933 05-03-2016 05:25:00 3.4 C 97 % 2.97 C
2934 05-03-2016 05:30:00 3.4 C 97 % 2.97 C
2935 05-03-2016 05:35:00 3.4 C 97 % 2.97 C
2936 05-03-2016 05:40:00 3.4 C 97 % 2.97 C
2937 05-03-2016 05:45:00 3.4 C 97 % 2.97 C
2938 05-03-2016 05:50:00 3.4 C 97 % 2.97 C
2939 05-03-2016 05:55:00 3.3 C 97 % 2.87 C
2940 05-03-2016 06:00:00 3.3 C 97 % 2.87 C
2941 05-03-2016 06:05:00 3.3 C 97 % 2.87 C
2942 05-03-2016 06:10:00 3.3 C 97 % 2.87 C
2943 05-03-2016 06:15:00 3.3 C 97 % 2.87 C
2944 05-03-2016 06:20:00 3.3 C 97 % 2.87 C
2945 05-03-2016 06:25:00 3.3 C 97 % 2.87 C
2946 05-03-2016 06:30:00 3.3 C 97 % 2.87 C
2947 05-03-2016 06:35:00 3.3 C 97 % 2.87 C
2948 05-03-2016 06:40:00 3.3 C 97 % 2.87 C
2949 05-03-2016 06:45:00 3.3 C 97 % 2.87 C
2950 05-03-2016 06:50:00 3.3 C 97 % 2.87 C
Sensor: Nr:Datum:Temp:Feuchte:Taupunkt:
Aussen-T/F 2951 05-03-2016 06:55:00 3.2 C 97 % 2.77 C
2952 05-03-2016 07:00:00 3.2 C 97 % 2.77 C
2953 05-03-2016 07:05:00 3.2 C 97 % 2.77 C
2954 05-03-2016 07:10:00 3.2 C 97 % 2.77 C
2955 05-03-2016 07:15:00 3.2 C 97 % 2.77 C
2956 05-03-2016 07:20:00 3.2 C 97 % 2.77 C
2957 05-03-2016 07:25:00 3.2 C 97 % 2.77 C
2958 05-03-2016 07:30:00 3.2 C 97 % 2.77 C
2959 05-03-2016 07:35:00 3.2 C 97 % 2.77 C
2960 05-03-2016 07:40:00 3.2 C 97 % 2.77 C
2961 05-03-2016 07:45:00 3.2 C 97 % 2.77 C
2962 05-03-2016 07:50:00 3.2 C 97 % 2.77 C
2963 05-03-2016 07:55:00 3.2 C 97 % 2.77 C
2964 05-03-2016 08:00:00 3.2 C 97 % 2.77 C
2965 05-03-2016 08:05:00 3.2 C 97 % 2.77 C
2966 05-03-2016 08:10:00 3.2 C 97 % 2.77 C
2967 05-03-2016 08:15:00 3.2 C 97 % 2.77 C
2968 05-03-2016 08:20:00 3.2 C 97 % 2.77 C
2969 05-03-2016 08:25:00 3.2 C 97 % 2.77 C
2970 05-03-2016 08:30:00 3.2 C 97 % 2.77 C
2971 05-03-2016 08:35:00 3.2 C 97 % 2.77 C
2972 05-03-2016 08:40:00 3.2 C 97 % 2.77 C
2973 05-03-2016 08:45:00 3.2 C 97 % 2.77 C
2974 05-03-2016 08:50:00 3.2 C 97 % 2.77 C
2975 05-03-2016 08:55:00 3.2 C 97 % 2.77 C
Sensor: Nr:Datum:Temp:Feuchte:Taupunkt:
Aussen-T/F 2976 05-03-2016 09:00:00 3.2 C 97 % 2.77 C
2977 05-03-2016 09:05:00 3.3 C 97 % 2.87 C
2978 05-03-2016 09:10:00 3.3 C 97 % 2.87 C
2979 05-03-2016 09:15:00 3.3 C 97 % 2.87 C
2980 05-03-2016 09:20:00 3.3 C 97 % 2.87 C
2981 05-03-2016 09:25:00 3.3 C 97 % 2.87 C
2982 05-03-2016 09:30:00 3.3 C 97 % 2.87 C
2983 05-03-2016 09:35:00 3.4 C 97 % 2.97 C
2984 05-03-2016 09:40:00 3.4 C 97 % 2.97 C
2985 05-03-2016 09:45:00 3.5 C 97 % 3.07 C
2986 05-03-2016 09:50:00 3.5 C 97 % 3.07 C
2987 05-03-2016 09:55:00 3.6 C 97 % 3.17 C
2988 05-03-2016 10:00:00 3.6 C 97 % 3.17 C
2989 05-03-2016 10:05:00 3.6 C 97 % 3.17 C
2990 05-03-2016 10:10:00 3.7 C 97 % 3.27 C
2991 05-03-2016 10:15:00 3.7 C 97 % 3.27 C
2992 05-03-2016 10:20:00 3.8 C 97 % 3.37 C
2993 05-03-2016 10:25:00 4 C 97 % 3.57 C
2994 05-03-2016 10:30:00 4.1 C 97 % 3.67 C
2995 05-03-2016 10:35:00 4.2 C 97 % 3.77 C
2996 05-03-2016 10:40:00 4.2 C 97 % 3.77 C
2997 05-03-2016 10:45:00 4.2 C 97 % 3.77 C
2998 05-03-2016 10:50:00 4.2 C 97 % 3.77 C
2999 05-03-2016 10:55:00 4.2 C 97 % 3.77 C
3000 05-03-2016 11:00:00 4.2 C 96 % 3.62 C
Sensor: Nr:Datum:Temp:Feuchte:Taupunkt:
Aussen-T/F 3001 05-03-2016 11:05:00 4.3 C 96 % 3.72 C
3002 05-03-2016 11:10:00 4.3 C 97 % 3.87 C
3003 05-03-2016 11:15:00 4.4 C 96 % 3.82 C
3004 05-03-2016 11:20:00 4.5 C 96 % 3.92 C
3005 05-03-2016 11:25:00 4.5 C 96 % 3.92 C
3006 05-03-2016 11:30:00 4.6 C 96 % 4.02 C
3007 05-03-2016 11:35:00 4.7 C 96 % 4.12 C
3008 05-03-2016 11:40:00 4.8 C 96 % 4.22 C
3009 05-03-2016 11:45:00 5.1 C 96 % 4.52 C
3010 05-03-2016 11:50:00 5.3 C 96 % 4.72 C
3011 05-03-2016 11:55:00 5.4 C 96 % 4.81 C
3012 05-03-2016 12:00:00 5.6 C 95 % 4.86 C
3013 05-03-2016 12:05:00 5.7 C 95 % 4.96 C
3014 05-03-2016 12:10:00 5.8 C 94 % 4.91 C
3015 05-03-2016 12:15:00 6 C 93 % 4.96 C
3016 05-03-2016 12:20:00 6.2 C 92 % 5 C
3017 05-03-2016 12:25:00 6.2 C 92 % 5 C
3018 05-03-2016 12:30:00 6.3 C 91 % 4.94 C
3019 05-03-2016 12:35:00 6.3 C 90 % 4.78 C
3020 05-03-2016 12:40:00 6.4 C 90 % 4.88 C
3021 05-03-2016 12:45:00 6.4 C 89 % 4.72 C
3022 05-03-2016 12:50:00 6.5 C 89 % 4.82 C
3023 05-03-2016 12:55:00 6.6 C 89 % 4.92 C
3024 05-03-2016 13:00:00 6.8 C 89 % 5.12 C
3025 05-03-2016 13:05:00 6.8 C 88 % 4.96 C
Sensor: Nr:Datum:Temp:Feuchte:Taupunkt:
Aussen-T/F 3026 05-03-2016 13:10:00 6.8 C 88 % 4.96 C
3027 05-03-2016 13:15:00 6.9 C 87 % 4.89 C
3028 05-03-2016 13:20:00 6.9 C 87 % 4.89 C
3029 05-03-2016 13:25:00 7 C 87 % 4.99 C
3030 05-03-2016 13:30:00 7 C 87 % 4.99 C
3031 05-03-2016 13:35:00 7 C 86 % 4.82 C
3032 05-03-2016 13:40:00 7.1 C 87 % 5.09 C
3033 05-03-2016 13:45:00 7.1 C 87 % 5.09 C
3034 05-03-2016 13:50:00 7.1 C 86 % 4.92 C
3035 05-03-2016 13:55:00 6.9 C 85 % 4.56 C
3036 05-03-2016 14:00:00 6.9 C 85 % 4.56 C
3037 05-03-2016 14:05:00 7 C 86 % 4.82 C
3038 05-03-2016 14:10:00 6.9 C 85 % 4.56 C
3039 05-03-2016 14:15:00 7 C 84 % 4.49 C
3040 05-03-2016 14:20:00 7.1 C 85 % 4.75 C
3041 05-03-2016 14:25:00 7.2 C 84 % 4.68 C
3042 05-03-2016 14:30:00 7.2 C 83 % 4.51 C
3043 05-03-2016 14:35:00 7.2 C 82 % 4.34 C
3044 05-03-2016 14:40:00 7.1 C 82 % 4.24 C
3045 05-03-2016 14:45:00 7.1 C 83 % 4.41 C
3046 05-03-2016 14:50:00 7.2 C 82 % 4.34 C
3047 05-03-2016 14:55:00 7.3 C 83 % 4.61 C
3048 05-03-2016 15:00:00 7.4 C 82 % 4.53 C
3049 05-03-2016 15:05:00 7.5 C 83 % 4.81 C
3050 05-03-2016 15:10:00 7.6 C 82 % 4.73 C
Sensor: Nr:Datum:Temp:Feuchte:Taupunkt:
Aussen-T/F 3051 05-03-2016 15:15:00 7.5 C 81 % 4.46 C
3052 05-03-2016 15:20:00 7.4 C 81 % 4.36 C
3053 05-03-2016 15:25:00 7.4 C 82 % 4.53 C
3054 05-03-2016 15:30:00 7.5 C 82 % 4.63 C
3055 05-03-2016 15:35:00 7.6 C 80 % 4.38 C
3056 05-03-2016 15:40:00 7.8 C 79 % 4.39 C
3057 05-03-2016 15:45:00 7.9 C 77 % 4.12 C
3058 05-03-2016 15:50:00 8.1 C 78 % 4.5 C
3059 05-03-2016 15:55:00 8.2 C 76 % 4.23 C
3060 05-03-2016 16:00:00 8.3 C 74 % 3.95 C
3061 05-03-2016 16:05:00 8.2 C 75 % 4.04 C
3062 05-03-2016 16:10:00 7.9 C 76 % 3.94 C
3063 05-03-2016 16:15:00 7.8 C 77 % 4.03 C
3064 05-03-2016 16:20:00 7.7 C 78 % 4.11 C
3065 05-03-2016 16:25:00 7.7 C 78 % 4.11 C
3066 05-03-2016 16:30:00 7.8 C 77 % 4.03 C
3067 05-03-2016 16:35:00 7.9 C 77 % 4.12 C
3068 05-03-2016 16:40:00 8 C 75 % 3.85 C
3069 05-03-2016 16:45:00 7.8 C 75 % 3.65 C
3070 05-03-2016 16:50:00 7.7 C 76 % 3.75 C
3071 05-03-2016 16:55:00 7.5 C 78 % 3.92 C
3072 05-03-2016 17:00:00 7.3 C 77 % 3.54 C
3073 05-03-2016 17:05:00 7.2 C 78 % 3.63 C
3074 05-03-2016 17:10:00 7.1 C 78 % 3.53 C
3075 05-03-2016 17:15:00 7 C 78 % 3.43 C
Sensor: Nr:Datum:Temp:Feuchte:Taupunkt:
Aussen-T/F 3076 05-03-2016 17:20:00 6.9 C 78 % 3.34 C
3077 05-03-2016 17:25:00 6.9 C 79 % 3.52 C
3078 05-03-2016 17:30:00 6.9 C 77 % 3.16 C
3079 05-03-2016 17:35:00 7.1 C 78 % 3.53 C
3080 05-03-2016 17:40:00 7.1 C 75 % 2.98 C
3081 05-03-2016 17:45:00 7.1 C 75 % 2.98 C
3082 05-03-2016 17:50:00 7.1 C 80 % 3.89 C
3083 05-03-2016 17:55:00 6.8 C 80 % 3.6 C
3084 05-03-2016 18:00:00 6.4 C 82 % 3.56 C
3085 05-03-2016 18:05:00 6.1 C 83 % 3.44 C
3086 05-03-2016 18:10:00 5.7 C 84 % 3.21 C
3087 05-03-2016 18:15:00 5.3 C 85 % 2.99 C
3088 05-03-2016 18:20:00 5.1 C 86 % 2.96 C
3089 05-03-2016 18:25:00 4.8 C 87 % 2.82 C
3090 05-03-2016 18:30:00 4.7 C 88 % 2.89 C
3091 05-03-2016 18:35:00 4.6 C 88 % 2.79 C
3092 05-03-2016 18:40:00 4.6 C 89 % 2.95 C
3093 05-03-2016 18:45:00 4.5 C 89 % 2.85 C
3094 05-03-2016 18:50:00 4.4 C 90 % 2.91 C
3095 05-03-2016 18:55:00 4.4 C 90 % 2.91 C
3096 05-03-2016 19:00:00 4.3 C 90 % 2.81 C
3097 05-03-2016 19:05:00 4.3 C 90 % 2.81 C
3098 05-03-2016 19:10:00 4.2 C 91 % 2.87 C
3099 05-03-2016 19:15:00 4.1 C 91 % 2.77 C
3100 05-03-2016 19:20:00 4 C 90 % 2.51 C
Sensor: Nr:Datum:Temp:Feuchte:Taupunkt:
Aussen-T/F 3101 05-03-2016 19:25:00 3.8 C 91 % 2.47 C
3102 05-03-2016 19:30:00 3.8 C 91 % 2.47 C
3103 05-03-2016 19:35:00 3.7 C 91 % 2.37 C
3104 05-03-2016 19:40:00 3.7 C 91 % 2.37 C
3105 05-03-2016 19:45:00 3.6 C 91 % 2.27 C
3106 05-03-2016 19:50:00 3.5 C 92 % 2.33 C
3107 05-03-2016 19:55:00 3.4 C 92 % 2.23 C
3108 05-03-2016 20:00:00 3.4 C 92 % 2.23 C
3109 05-03-2016 20:05:00 3.3 C 92 % 2.13 C
3110 05-03-2016 20:10:00 3.2 C 92 % 2.03 C
3111 05-03-2016 20:15:00 3.2 C 92 % 2.03 C
3112 05-03-2016 20:20:00 3.1 C 92 % 1.93 C
3113 05-03-2016 20:25:00 3 C 92 % 1.83 C
3114 05-03-2016 20:30:00 2.9 C 93 % 1.88 C
3115 05-03-2016 20:35:00 2.8 C 92 % 1.63 C
3116 05-03-2016 20:40:00 2.7 C 93 % 1.68 C
3117 05-03-2016 20:45:00 2.7 C 93 % 1.68 C
3118 05-03-2016 20:50:00 2.6 C 93 % 1.59 C
3119 05-03-2016 20:55:00 2.5 C 93 % 1.49 C
3120 05-03-2016 21:00:00 2.5 C 93 % 1.49 C
3121 05-03-2016 21:05:00 2.4 C 93 % 1.39 C
3122 05-03-2016 21:10:00 2.3 C 93 % 1.29 C
3123 05-03-2016 21:15:00 2.3 C 94 % 1.44 C
3124 05-03-2016 21:20:00 2.4 C 94 % 1.54 C
3125 05-03-2016 21:25:00 2.5 C 94 % 1.63 C
Sensor: Nr:Datum:Temp:Feuchte:Taupunkt:
Aussen-T/F 3126 05-03-2016 21:30:00 2.6 C 94 % 1.73 C
3127 05-03-2016 21:35:00 2.6 C 94 % 1.73 C
3128 05-03-2016 21:40:00 2.6 C 94 % 1.73 C
3129 05-03-2016 21:45:00 2.7 C 94 % 1.83 C
3130 05-03-2016 21:50:00 2.7 C 94 % 1.83 C
3131 05-03-2016 21:55:00 2.7 C 94 % 1.83 C
3132 05-03-2016 22:00:00 2.7 C 94 % 1.83 C
3133 05-03-2016 22:05:00 2.7 C 94 % 1.83 C
3134 05-03-2016 22:10:00 2.7 C 94 % 1.83 C
3135 05-03-2016 22:15:00 2.6 C 94 % 1.73 C
3136 05-03-2016 22:20:00 2.7 C 94 % 1.83 C
3137 05-03-2016 22:25:00 2.7 C 94 % 1.83 C
3138 05-03-2016 22:30:00 2.8 C 95 % 2.08 C
3139 05-03-2016 22:35:00 2.8 C 94 % 1.93 C
3140 05-03-2016 22:40:00 2.8 C 95 % 2.08 C
3141 05-03-2016 22:45:00 2.7 C 94 % 1.83 C
3142 05-03-2016 22:50:00 2.7 C 94 % 1.83 C
3143 05-03-2016 22:55:00 2.6 C 94 % 1.73 C
3144 05-03-2016 23:00:00 2.4 C 94 % 1.54 C
3145 05-03-2016 23:05:00 2.3 C 94 % 1.44 C
3146 05-03-2016 23:10:00 2.3 C 94 % 1.44 C
3147 05-03-2016 23:15:00 2.3 C 94 % 1.44 C
3148 05-03-2016 23:20:00 2.3 C 94 % 1.44 C
3149 05-03-2016 23:25:00 2.3 C 94 % 1.44 C
3150 05-03-2016 23:30:00 2.3 C 94 % 1.44 C
Sensor: Nr:Datum:Temp:Feuchte:Taupunkt:
Aussen-T/F 3151 05-03-2016 23:35:00 2.3 C 95 % 1.58 C
3152 05-03-2016 23:40:00 2.3 C 95 % 1.58 C
3153 05-03-2016 23:45:00 2.3 C 95 % 1.58 C
3154 05-03-2016 23:50:00 2.3 C 95 % 1.58 C
3155 05-03-2016 23:55:00 2.3 C 95 % 1.58 C
3156 06-03-2016 00:00:00 2.3 C 95 % 1.58 C
3157 06-03-2016 00:05:00 2.3 C 95 % 1.58 C
3158 06-03-2016 00:10:00 2.4 C 95 % 1.68 C
3159 06-03-2016 00:15:00 2.3 C 95 % 1.58 C
3160 06-03-2016 00:20:00 2.3 C 94 % 1.44 C
3161 06-03-2016 00:25:00 2.3 C 94 % 1.44 C
3162 06-03-2016 00:30:00 2.3 C 94 % 1.44 C
3163 06-03-2016 00:35:00 2.3 C 94 % 1.44 C
3164 06-03-2016 00:40:00 2.3 C 95 % 1.58 C
3165 06-03-2016 00:45:00 2.3 C 95 % 1.58 C
3166 06-03-2016 00:50:00 2.3 C 95 % 1.58 C
3167 06-03-2016 00:55:00 2.3 C 95 % 1.58 C
3168 06-03-2016 01:00:00 2.3 C 94 % 1.44 C
3169 06-03-2016 01:05:00 2.3 C 94 % 1.44 C
3170 06-03-2016 01:10:00 2.2 C 94 % 1.34 C
3171 06-03-2016 01:15:00 2.2 C 94 % 1.34 C
3172 06-03-2016 01:20:00 2.2 C 94 % 1.34 C
3173 06-03-2016 01:25:00 2.2 C 94 % 1.34 C
3174 06-03-2016 01:30:00 2.2 C 94 % 1.34 C
3175 06-03-2016 01:35:00 2.2 C 94 % 1.34 C
Sensor: Nr:Datum:Temp:Feuchte:Taupunkt:
Aussen-T/F 3176 06-03-2016 01:40:00 2.2 C 94 % 1.34 C
3177 06-03-2016 01:45:00 2.2 C 94 % 1.34 C
3178 06-03-2016 01:50:00 2.2 C 94 % 1.34 C
3179 06-03-2016 01:55:00 2.2 C 94 % 1.34 C
3180 06-03-2016 02:00:00 2.2 C 94 % 1.34 C
3181 06-03-2016 02:05:00 2.3 C 94 % 1.44 C
3182 06-03-2016 02:10:00 2.3 C 94 % 1.44 C
3183 06-03-2016 02:15:00 2.3 C 94 % 1.44 C
3184 06-03-2016 02:20:00 2.3 C 94 % 1.44 C
3185 06-03-2016 02:25:00 2.3 C 94 % 1.44 C
3186 06-03-2016 02:30:00 2.3 C 94 % 1.44 C
3187 06-03-2016 02:35:00 2.3 C 94 % 1.44 C
3188 06-03-2016 02:40:00 2.3 C 94 % 1.44 C
3189 06-03-2016 02:45:00 2.3 C 94 % 1.44 C
3190 06-03-2016 02:50:00 2.4 C 94 % 1.54 C
3191 06-03-2016 02:55:00 2.4 C 94 % 1.54 C
3192 06-03-2016 03:00:00 2.3 C 94 % 1.44 C
3193 06-03-2016 03:05:00 2.3 C 94 % 1.44 C
3194 06-03-2016 03:10:00 2.3 C 94 % 1.44 C
3195 06-03-2016 03:15:00 2.3 C 94 % 1.44 C
3196 06-03-2016 03:20:00 2.3 C 94 % 1.44 C
3197 06-03-2016 03:25:00 2.3 C 94 % 1.44 C
3198 06-03-2016 03:30:00 2.3 C 94 % 1.44 C
3199 06-03-2016 03:35:00 2.3 C 94 % 1.44 C
3200 06-03-2016 03:40:00 2.3 C 94 % 1.44 C
Sensor: Nr:Datum:Temp:Feuchte:Taupunkt:
Aussen-T/F 3201 06-03-2016 03:45:00 2.3 C 94 % 1.44 C
3202 06-03-2016 03:50:00 2.3 C 94 % 1.44 C
3203 06-03-2016 03:55:00 2.3 C 95 % 1.58 C
3204 06-03-2016 04:00:00 2.3 C 95 % 1.58 C
3205 06-03-2016 04:05:00 2.3 C 95 % 1.58 C
3206 06-03-2016 04:10:00 2.3 C 95 % 1.58 C
3207 06-03-2016 04:15:00 2.3 C 95 % 1.58 C
3208 06-03-2016 04:20:00 2.3 C 95 % 1.58 C
3209 06-03-2016 04:25:00 2.3 C 95 % 1.58 C
3210 06-03-2016 04:30:00 2.3 C 95 % 1.58 C
3211 06-03-2016 04:35:00 2.3 C 95 % 1.58 C
3212 06-03-2016 04:40:00 2.3 C 95 % 1.58 C
3213 06-03-2016 04:45:00 2.3 C 95 % 1.58 C
3214 06-03-2016 04:50:00 2.3 C 95 % 1.58 C
3215 06-03-2016 04:55:00 2.3 C 95 % 1.58 C
3216 06-03-2016 05:00:00 2.3 C 95 % 1.58 C
3217 06-03-2016 05:05:00 2.4 C 95 % 1.68 C
3218 06-03-2016 05:10:00 2.4 C 95 % 1.68 C
3219 06-03-2016 05:15:00 2.4 C 95 % 1.68 C
3220 06-03-2016 05:20:00 2.4 C 95 % 1.68 C
3221 06-03-2016 05:25:00 2.4 C 94 % 1.54 C
3222 06-03-2016 05:30:00 2.4 C 94 % 1.54 C
3223 06-03-2016 05:35:00 2.4 C 94 % 1.54 C
3224 06-03-2016 05:40:00 2.4 C 94 % 1.54 C
3225 06-03-2016 05:45:00 2.3 C 94 % 1.44 C
Sensor: Nr:Datum:Temp:Feuchte:Taupunkt:
Aussen-T/F 3226 06-03-2016 05:50:00 2.3 C 94 % 1.44 C
3227 06-03-2016 05:55:00 2.2 C 93 % 1.19 C
3228 06-03-2016 06:00:00 2.1 C 93 % 1.09 C
3229 06-03-2016 06:05:00 2 C 94 % 1.14 C
3230 06-03-2016 06:10:00 1.9 C 94 % 1.04 C
3231 06-03-2016 06:15:00 1.9 C 94 % 1.04 C
3232 06-03-2016 06:20:00 1.9 C 94 % 1.04 C
3233 06-03-2016 06:25:00 1.9 C 94 % 1.04 C
3234 06-03-2016 06:30:00 1.9 C 94 % 1.04 C
3235 06-03-2016 06:35:00 1.9 C 94 % 1.04 C
3236 06-03-2016 06:40:00 1.9 C 94 % 1.04 C
3237 06-03-2016 06:45:00 1.9 C 94 % 1.04 C
3238 06-03-2016 06:50:00 1.9 C 94 % 1.04 C
3239 06-03-2016 06:55:00 1.9 C 94 % 1.04 C
3240 06-03-2016 07:00:00 2 C 94 % 1.14 C
3241 06-03-2016 07:05:00 2 C 94 % 1.14 C
3242 06-03-2016 07:10:00 2 C 94 % 1.14 C
3243 06-03-2016 07:15:00 2 C 94 % 1.14 C
3244 06-03-2016 07:20:00 2 C 94 % 1.14 C
3245 06-03-2016 07:25:00 2.1 C 94 % 1.24 C
3246 06-03-2016 07:30:00 2.1 C 94 % 1.24 C
3247 06-03-2016 07:35:00 2.2 C 94 % 1.34 C
3248 06-03-2016 07:40:00 2.2 C 93 % 1.19 C
3249 06-03-2016 07:45:00 2.2 C 93 % 1.19 C
3250 06-03-2016 07:50:00 2.2 C 93 % 1.19 C
Sensor: Nr:Datum:Temp:Feuchte:Taupunkt:
Aussen-T/F 3251 06-03-2016 07:55:00 2.3 C 93 % 1.29 C
3252 06-03-2016 08:00:00 2.3 C 93 % 1.29 C
3253 06-03-2016 08:05:00 2.4 C 92 % 1.24 C
3254 06-03-2016 08:10:00 2.5 C 92 % 1.34 C
3255 06-03-2016 08:15:00 2.6 C 92 % 1.43 C
3256 06-03-2016 08:20:00 2.6 C 91 % 1.28 C
3257 06-03-2016 08:25:00 2.6 C 91 % 1.28 C
3258 06-03-2016 08:30:00 2.7 C 91 % 1.38 C
3259 06-03-2016 08:35:00 2.7 C 91 % 1.38 C
3260 06-03-2016 08:40:00 2.8 C 91 % 1.48 C
3261 06-03-2016 08:45:00 2.8 C 92 % 1.63 C
3262 06-03-2016 08:50:00 2.9 C 92 % 1.73 C
3263 06-03-2016 08:55:00 2.9 C 92 % 1.73 C
3264 06-03-2016 09:00:00 2.9 C 92 % 1.73 C
3265 06-03-2016 09:05:00 3 C 92 % 1.83 C
3266 06-03-2016 09:10:00 3.1 C 92 % 1.93 C
3267 06-03-2016 09:15:00 3.2 C 92 % 2.03 C
3268 06-03-2016 09:20:00 3.3 C 93 % 2.28 C
3269 06-03-2016 09:25:00 3.3 C 93 % 2.28 C
3270 06-03-2016 09:30:00 3.4 C 93 % 2.38 C
3271 06-03-2016 09:35:00 3.4 C 93 % 2.38 C
3272 06-03-2016 09:40:00 3.4 C 93 % 2.38 C
3273 06-03-2016 09:45:00 3.4 C 93 % 2.38 C
3274 06-03-2016 09:50:00 3.4 C 93 % 2.38 C
3275 06-03-2016 09:55:00 3.4 C 93 % 2.38 C
Sensor: Nr:Datum:Temp:Feuchte:Taupunkt:
Aussen-T/F 3276 06-03-2016 10:00:00 3.4 C 93 % 2.38 C
3277 06-03-2016 10:05:00 3.3 C 93 % 2.28 C
3278 06-03-2016 10:10:00 3.3 C 94 % 2.43 C
3279 06-03-2016 10:15:00 3.3 C 94 % 2.43 C
3280 06-03-2016 10:20:00 3.3 C 94 % 2.43 C
3281 06-03-2016 10:25:00 3.4 C 94 % 2.53 C
3282 06-03-2016 10:30:00 3.4 C 94 % 2.53 C
3283 06-03-2016 10:35:00 3.4 C 94 % 2.53 C
3284 06-03-2016 10:40:00 3.5 C 94 % 2.63 C
3285 06-03-2016 10:45:00 3.6 C 94 % 2.73 C
3286 06-03-2016 10:50:00 3.6 C 94 % 2.73 C
3287 06-03-2016 10:55:00 3.6 C 94 % 2.73 C
3288 06-03-2016 11:00:00 3.6 C 93 % 2.58 C
3289 06-03-2016 11:05:00 3.4 C 93 % 2.38 C
3290 06-03-2016 11:10:00 3.3 C 93 % 2.28 C
3291 06-03-2016 11:15:00 3.3 C 94 % 2.43 C
3292 06-03-2016 11:20:00 3.4 C 94 % 2.53 C
3293 06-03-2016 11:25:00 3.4 C 94 % 2.53 C
3294 06-03-2016 11:30:00 3.6 C 95 % 2.88 C
3295 06-03-2016 11:35:00 3.7 C 95 % 2.98 C
3296 06-03-2016 11:40:00 3.8 C 95 % 3.07 C
3297 06-03-2016 11:45:00 3.8 C 95 % 3.07 C
3298 06-03-2016 11:50:00 3.8 C 95 % 3.07 C
3299 06-03-2016 11:55:00 3.9 C 95 % 3.17 C
3300 06-03-2016 12:00:00 3.9 C 94 % 3.02 C
Sensor: Nr:Datum:Temp:Feuchte:Taupunkt:
Aussen-T/F 3301 06-03-2016 12:05:00 3.9 C 94 % 3.02 C
3302 06-03-2016 12:10:00 3.9 C 94 % 3.02 C
3303 06-03-2016 12:15:00 3.8 C 94 % 2.93 C
3304 06-03-2016 12:20:00 3.9 C 94 % 3.02 C
3305 06-03-2016 12:25:00 4 C 94 % 3.12 C
3306 06-03-2016 12:30:00 4.1 C 94 % 3.22 C
3307 06-03-2016 12:35:00 4.2 C 95 % 3.47 C
3308 06-03-2016 12:40:00 4.3 C 95 % 3.57 C
3309 06-03-2016 12:45:00 4.4 C 94 % 3.52 C
3310 06-03-2016 12:50:00 4.6 C 94 % 3.72 C
3311 06-03-2016 12:55:00 4.6 C 94 % 3.72 C
3312 06-03-2016 13:00:00 4.7 C 94 % 3.82 C
3313 06-03-2016 13:05:00 4.7 C 93 % 3.67 C
3314 06-03-2016 13:10:00 4.8 C 94 % 3.92 C
3315 06-03-2016 13:15:00 4.9 C 93 % 3.87 C
3316 06-03-2016 13:20:00 5 C 93 % 3.96 C
3317 06-03-2016 13:25:00 5 C 92 % 3.81 C
3318 06-03-2016 13:30:00 4.9 C 91 % 3.56 C
3319 06-03-2016 13:35:00 4.7 C 90 % 3.2 C
3320 06-03-2016 13:40:00 4.3 C 90 % 2.81 C
3321 06-03-2016 13:45:00 4.1 C 91 % 2.77 C
3322 06-03-2016 13:50:00 3.9 C 91 % 2.57 C
3323 06-03-2016 13:55:00 3.8 C 91 % 2.47 C
3324 06-03-2016 14:00:00 3.7 C 92 % 2.52 C
3325 06-03-2016 14:05:00 3.6 C 92 % 2.42 C
Sensor: Nr:Datum:Temp:Feuchte:Taupunkt:
Aussen-T/F 3326 06-03-2016 14:10:00 3.5 C 92 % 2.33 C
3327 06-03-2016 14:15:00 3.3 C 93 % 2.28 C
3328 06-03-2016 14:20:00 3.2 C 93 % 2.18 C
3329 06-03-2016 14:25:00 3.3 C 94 % 2.43 C
3330 06-03-2016 14:30:00 3.4 C 94 % 2.53 C
3331 06-03-2016 14:35:00 3.6 C 95 % 2.88 C
3332 06-03-2016 14:40:00 3.7 C 95 % 2.98 C
3333 06-03-2016 14:45:00 3.8 C 95 % 3.07 C
3334 06-03-2016 14:50:00 3.9 C 95 % 3.17 C
3335 06-03-2016 14:55:00 4.1 C 95 % 3.37 C
3336 06-03-2016 15:00:00 4.2 C 95 % 3.47 C
3337 06-03-2016 15:05:00 4.3 C 95 % 3.57 C
3338 06-03-2016 15:10:00 4.2 C 95 % 3.47 C
3339 06-03-2016 15:15:00 4.2 C 95 % 3.47 C
3340 06-03-2016 15:20:00 4.1 C 95 % 3.37 C
3341 06-03-2016 15:25:00 4.1 C 94 % 3.22 C
3342 06-03-2016 15:30:00 4.1 C 94 % 3.22 C
3343 06-03-2016 15:35:00 4.1 C 95 % 3.37 C
3344 06-03-2016 15:40:00 4.2 C 95 % 3.47 C
3345 06-03-2016 15:45:00 4.4 C 95 % 3.67 C
3346 06-03-2016 15:50:00 4.5 C 95 % 3.77 C
3347 06-03-2016 15:55:00 4.6 C 95 % 3.87 C
3348 06-03-2016 16:00:00 4.7 C 95 % 3.97 C
3349 06-03-2016 16:05:00 4.7 C 95 % 3.97 C
3350 06-03-2016 16:10:00 4.8 C 95 % 4.07 C
Sensor: Nr:Datum:Temp:Feuchte:Taupunkt:
Aussen-T/F 3351 06-03-2016 16:15:00 4.8 C 95 % 4.07 C
3352 06-03-2016 16:20:00 4.8 C 94 % 3.92 C
3353 06-03-2016 16:25:00 4.8 C 94 % 3.92 C
3354 06-03-2016 16:30:00 4.8 C 94 % 3.92 C
3355 06-03-2016 16:35:00 4.8 C 94 % 3.92 C
3356 06-03-2016 16:40:00 4.7 C 93 % 3.67 C
3357 06-03-2016 16:45:00 4.4 C 91 % 3.06 C
3358 06-03-2016 16:50:00 4 C 91 % 2.67 C
3359 06-03-2016 16:55:00 3.8 C 91 % 2.47 C
3360 06-03-2016 17:00:00 3.7 C 92 % 2.52 C
3361 06-03-2016 17:05:00 3.6 C 92 % 2.42 C
3362 06-03-2016 17:10:00 3.6 C 93 % 2.58 C
3363 06-03-2016 17:15:00 3.6 C 93 % 2.58 C
3364 06-03-2016 17:20:00 3.4 C 93 % 2.38 C
3365 06-03-2016 17:25:00 3.4 C 93 % 2.38 C
3366 06-03-2016 17:30:00 3.3 C 94 % 2.43 C
3367 06-03-2016 17:35:00 3.4 C 94 % 2.53 C
3368 06-03-2016 17:40:00 3.3 C 94 % 2.43 C
3369 06-03-2016 17:45:00 3.3 C 94 % 2.43 C
3370 06-03-2016 17:50:00 3.3 C 94 % 2.43 C
3371 06-03-2016 17:55:00 3.3 C 95 % 2.58 C
3372 06-03-2016 18:00:00 3.3 C 95 % 2.58 C
3373 06-03-2016 18:05:00 3.3 C 95 % 2.58 C
3374 06-03-2016 18:10:00 3.2 C 95 % 2.48 C
3375 06-03-2016 18:15:00 3.2 C 95 % 2.48 C
Sensor: Nr:Datum:Temp:Feuchte:Taupunkt:
Aussen-T/F 3376 06-03-2016 18:20:00 3.2 C 95 % 2.48 C
3377 06-03-2016 18:25:00 3.1 C 95 % 2.38 C
3378 06-03-2016 18:30:00 3.1 C 95 % 2.38 C
3379 06-03-2016 18:35:00 3.1 C 95 % 2.38 C
3380 06-03-2016 18:40:00 3.1 C 95 % 2.38 C
3381 06-03-2016 18:45:00 3.1 C 95 % 2.38 C
3382 06-03-2016 18:50:00 3.1 C 95 % 2.38 C
3383 06-03-2016 18:55:00 3.1 C 96 % 2.53 C
3384 06-03-2016 19:00:00 3.1 C 95 % 2.38 C
3385 06-03-2016 19:05:00 3.2 C 96 % 2.63 C
3386 06-03-2016 19:10:00 3.2 C 96 % 2.63 C
3387 06-03-2016 19:15:00 3.2 C 96 % 2.63 C
3388 06-03-2016 19:20:00 3.2 C 96 % 2.63 C
3389 06-03-2016 19:25:00 3.3 C 96 % 2.72 C
3390 06-03-2016 19:30:00 3.3 C 96 % 2.72 C
3391 06-03-2016 19:35:00 3.3 C 96 % 2.72 C
3392 06-03-2016 19:40:00 3.3 C 96 % 2.72 C
3393 06-03-2016 19:45:00 3.3 C 96 % 2.72 C
3394 06-03-2016 19:50:00 3.3 C 96 % 2.72 C
3395 06-03-2016 19:55:00 3.3 C 96 % 2.72 C
3396 06-03-2016 20:00:00 3.3 C 96 % 2.72 C
3397 06-03-2016 20:05:00 3.3 C 96 % 2.72 C
3398 06-03-2016 20:10:00 3.3 C 96 % 2.72 C
3399 06-03-2016 20:15:00 3.3 C 96 % 2.72 C
3400 06-03-2016 20:20:00 3.2 C 96 % 2.63 C
Sensor: Nr:Datum:Temp:Feuchte:Taupunkt:
Aussen-T/F 3401 06-03-2016 20:25:00 3.2 C 96 % 2.63 C
3402 06-03-2016 20:30:00 3.2 C 96 % 2.63 C
3403 06-03-2016 20:35:00 3.2 C 96 % 2.63 C
3404 06-03-2016 20:40:00 3.2 C 96 % 2.63 C
3405 06-03-2016 20:45:00 3.1 C 95 % 2.38 C
3406 06-03-2016 20:50:00 2.9 C 95 % 2.18 C
3407 06-03-2016 20:55:00 2.8 C 95 % 2.08 C
3408 06-03-2016 21:00:00 2.8 C 95 % 2.08 C
3409 06-03-2016 21:05:00 2.7 C 95 % 1.98 C
3410 06-03-2016 21:10:00 2.6 C 95 % 1.88 C
3411 06-03-2016 21:15:00 2.6 C 95 % 1.88 C
3412 06-03-2016 21:20:00 2.6 C 96 % 2.03 C
3413 06-03-2016 21:25:00 2.6 C 96 % 2.03 C
3414 06-03-2016 21:30:00 2.7 C 96 % 2.13 C
3415 06-03-2016 21:35:00 2.7 C 96 % 2.13 C
3416 06-03-2016 21:40:00 2.8 C 96 % 2.23 C
3417 06-03-2016 21:45:00 2.8 C 96 % 2.23 C
3418 06-03-2016 21:50:00 2.8 C 96 % 2.23 C
3419 06-03-2016 21:55:00 2.8 C 96 % 2.23 C
3420 06-03-2016 22:00:00 2.7 C 96 % 2.13 C
3421 06-03-2016 22:05:00 2.7 C 96 % 2.13 C
3422 06-03-2016 22:10:00 2.6 C 96 % 2.03 C
3423 06-03-2016 22:15:00 2.6 C 96 % 2.03 C
3424 06-03-2016 22:20:00 2.6 C 96 % 2.03 C
3425 06-03-2016 22:25:00 2.6 C 96 % 2.03 C
Sensor: Nr:Datum:Temp:Feuchte:Taupunkt:
Aussen-T/F 3426 06-03-2016 22:30:00 2.6 C 96 % 2.03 C
3427 06-03-2016 22:35:00 2.7 C 96 % 2.13 C
3428 06-03-2016 22:40:00 2.7 C 96 % 2.13 C
3429 06-03-2016 22:45:00 2.7 C 96 % 2.13 C
3430 06-03-2016 22:50:00 2.8 C 96 % 2.23 C
3431 06-03-2016 22:55:00 2.8 C 96 % 2.23 C
3432 06-03-2016 23:00:00 2.8 C 96 % 2.23 C
3433 06-03-2016 23:05:00 2.8 C 96 % 2.23 C
3434 06-03-2016 23:10:00 2.8 C 96 % 2.23 C
3435 06-03-2016 23:15:00 2.8 C 96 % 2.23 C
3436 06-03-2016 23:20:00 2.8 C 96 % 2.23 C
3437 06-03-2016 23:25:00 2.8 C 96 % 2.23 C
3438 06-03-2016 23:30:00 2.8 C 96 % 2.23 C
3439 06-03-2016 23:35:00 2.8 C 96 % 2.23 C
3440 06-03-2016 23:40:00 2.7 C 96 % 2.13 C
3441 06-03-2016 23:45:00 2.7 C 96 % 2.13 C
3442 06-03-2016 23:50:00 2.7 C 96 % 2.13 C
3443 06-03-2016 23:55:00 2.7 C 96 % 2.13 C
3444 07-03-2016 00:00:00 2.7 C 96 % 2.13 C
3445 07-03-2016 00:05:00 2.7 C 96 % 2.13 C
3446 07-03-2016 00:10:00 2.7 C 96 % 2.13 C
3447 07-03-2016 00:15:00 2.7 C 96 % 2.13 C
3448 07-03-2016 00:20:00 2.7 C 96 % 2.13 C
3449 07-03-2016 00:25:00 2.7 C 96 % 2.13 C
3450 07-03-2016 00:30:00 2.7 C 96 % 2.13 C
Sensor: Nr:Datum:Temp:Feuchte:Taupunkt:
Aussen-T/F 3451 07-03-2016 00:35:00 2.6 C 96 % 2.03 C
3452 07-03-2016 00:40:00 2.6 C 96 % 2.03 C
3453 07-03-2016 00:45:00 2.6 C 96 % 2.03 C
3454 07-03-2016 00:50:00 2.6 C 96 % 2.03 C
3455 07-03-2016 00:55:00 2.5 C 96 % 1.93 C
3456 07-03-2016 01:00:00 2.5 C 96 % 1.93 C
3457 07-03-2016 01:05:00 2.5 C 96 % 1.93 C
3458 07-03-2016 01:10:00 2.5 C 96 % 1.93 C
3459 07-03-2016 01:15:00 2.4 C 96 % 1.83 C
3460 07-03-2016 01:20:00 2.4 C 96 % 1.83 C
3461 07-03-2016 01:25:00 2.4 C 96 % 1.83 C
3462 07-03-2016 01:30:00 2.3 C 96 % 1.73 C
3463 07-03-2016 01:35:00 2.2 C 96 % 1.63 C
3464 07-03-2016 01:40:00 2.1 C 96 % 1.53 C
3465 07-03-2016 01:45:00 2.1 C 96 % 1.53 C
3466 07-03-2016 01:50:00 2.1 C 96 % 1.53 C
3467 07-03-2016 01:55:00 2.1 C 96 % 1.53 C
3468 07-03-2016 02:00:00 2.1 C 96 % 1.53 C
3469 07-03-2016 02:05:00 2.1 C 96 % 1.53 C
3470 07-03-2016 02:10:00 2.1 C 96 % 1.53 C
3471 07-03-2016 02:15:00 2.1 C 96 % 1.53 C
3472 07-03-2016 02:20:00 2.1 C 96 % 1.53 C
3473 07-03-2016 02:25:00 2.1 C 96 % 1.53 C
3474 07-03-2016 02:30:00 2.1 C 96 % 1.53 C
3475 07-03-2016 02:35:00 2.1 C 96 % 1.53 C
Sensor: Nr:Datum:Temp:Feuchte:Taupunkt:
Aussen-T/F 3476 07-03-2016 02:40:00 1.9 C 96 % 1.33 C
3477 07-03-2016 02:45:00 1.8 C 96 % 1.23 C
3478 07-03-2016 02:50:00 1.8 C 96 % 1.23 C
3479 07-03-2016 02:55:00 1.7 C 96 % 1.13 C
3480 07-03-2016 03:00:00 1.7 C 96 % 1.13 C
3481 07-03-2016 03:05:00 1.7 C 96 % 1.13 C
3482 07-03-2016 03:10:00 1.7 C 96 % 1.13 C
3483 07-03-2016 03:15:00 1.7 C 96 % 1.13 C
3484 07-03-2016 03:20:00 1.7 C 96 % 1.13 C
3485 07-03-2016 03:25:00 1.8 C 96 % 1.23 C
3486 07-03-2016 03:30:00 1.8 C 97 % 1.38 C
3487 07-03-2016 03:35:00 1.8 C 97 % 1.38 C
3488 07-03-2016 03:40:00 1.9 C 97 % 1.48 C
3489 07-03-2016 03:45:00 1.9 C 97 % 1.48 C
3490 07-03-2016 03:50:00 1.9 C 97 % 1.48 C
3491 07-03-2016 03:55:00 2 C 97 % 1.58 C
3492 07-03-2016 04:00:00 2 C 97 % 1.58 C
3493 07-03-2016 04:05:00 2.1 C 97 % 1.67 C
3494 07-03-2016 04:10:00 2.1 C 97 % 1.67 C
3495 07-03-2016 04:15:00 2.1 C 97 % 1.67 C
3496 07-03-2016 04:20:00 2.1 C 97 % 1.67 C
3497 07-03-2016 04:25:00 2.1 C 97 % 1.67 C
3498 07-03-2016 04:30:00 2.1 C 97 % 1.67 C
3499 07-03-2016 04:35:00 2 C 97 % 1.58 C
3500 07-03-2016 04:40:00 2 C 97 % 1.58 C
Sensor: Nr:Datum:Temp:Feuchte:Taupunkt:
Aussen-T/F 3501 07-03-2016 04:45:00 2 C 97 % 1.58 C
3502 07-03-2016 04:50:00 2 C 97 % 1.58 C
3503 07-03-2016 04:55:00 2 C 97 % 1.58 C
3504 07-03-2016 05:00:00 1.9 C 97 % 1.48 C
3505 07-03-2016 05:05:00 1.9 C 97 % 1.48 C
3506 07-03-2016 05:10:00 1.9 C 97 % 1.48 C
3507 07-03-2016 05:15:00 1.8 C 97 % 1.38 C
3508 07-03-2016 05:20:00 1.8 C 96 % 1.23 C
3509 07-03-2016 05:25:00 1.7 C 96 % 1.13 C
3510 07-03-2016 05:30:00 1.6 C 96 % 1.03 C
3511 07-03-2016 05:35:00 1.4 C 96 % 0.83 C
3512 07-03-2016 05:40:00 1.3 C 96 % 0.73 C
3513 07-03-2016 05:45:00 1.3 C 96 % 0.73 C
3514 07-03-2016 05:50:00 1.3 C 96 % 0.73 C
3515 07-03-2016 05:55:00 1.2 C 97 % 0.78 C
3516 07-03-2016 06:00:00 1.3 C 97 % 0.88 C
3517 07-03-2016 06:05:00 1.3 C 97 % 0.88 C
3518 07-03-2016 06:10:00 1.4 C 97 % 0.98 C
3519 07-03-2016 06:15:00 1.4 C 97 % 0.98 C
3520 07-03-2016 06:20:00 1.5 C 97 % 1.08 C
3521 07-03-2016 06:25:00 1.6 C 97 % 1.18 C
3522 07-03-2016 06:30:00 1.6 C 97 % 1.18 C
3523 07-03-2016 06:35:00 1.7 C 97 % 1.28 C
3524 07-03-2016 06:40:00 1.7 C 97 % 1.28 C
3525 07-03-2016 06:45:00 1.7 C 97 % 1.28 C
Sensor: Nr:Datum:Temp:Feuchte:Taupunkt:
Aussen-T/F 3526 07-03-2016 06:50:00 1.7 C 97 % 1.28 C
3527 07-03-2016 06:55:00 1.7 C 97 % 1.28 C
3528 07-03-2016 07:00:00 1.7 C 97 % 1.28 C
3529 07-03-2016 07:05:00 1.8 C 97 % 1.38 C
3530 07-03-2016 07:10:00 1.8 C 97 % 1.38 C
3531 07-03-2016 07:15:00 1.8 C 97 % 1.38 C
3532 07-03-2016 07:20:00 1.8 C 97 % 1.38 C
3533 07-03-2016 07:25:00 1.8 C 97 % 1.38 C
3534 07-03-2016 07:30:00 1.8 C 97 % 1.38 C
3535 07-03-2016 07:35:00 1.8 C 97 % 1.38 C
3536 07-03-2016 07:40:00 1.8 C 97 % 1.38 C
3537 07-03-2016 07:45:00 1.8 C 97 % 1.38 C
3538 07-03-2016 07:50:00 1.9 C 97 % 1.48 C
3539 07-03-2016 07:55:00 1.9 C 97 % 1.48 C
3540 07-03-2016 08:00:00 1.9 C 97 % 1.48 C
3541 07-03-2016 08:05:00 2 C 97 % 1.58 C
3542 07-03-2016 08:10:00 2.1 C 97 % 1.67 C
3543 07-03-2016 08:15:00 2.1 C 97 % 1.67 C
3544 07-03-2016 08:20:00 2.1 C 97 % 1.67 C
3545 07-03-2016 08:25:00 2.1 C 97 % 1.67 C
3546 07-03-2016 08:30:00 2.2 C 97 % 1.77 C
3547 07-03-2016 08:35:00 2.2 C 97 % 1.77 C
3548 07-03-2016 08:40:00 2.3 C 97 % 1.87 C
3549 07-03-2016 08:45:00 2.4 C 97 % 1.97 C
3550 07-03-2016 08:50:00 2.4 C 97 % 1.97 C
Sensor: Nr:Datum:Temp:Feuchte:Taupunkt:
Aussen-T/F 3551 07-03-2016 08:55:00 2.6 C 97 % 2.17 C
3552 07-03-2016 09:00:00 2.7 C 97 % 2.27 C
3553 07-03-2016 09:05:00 2.7 C 97 % 2.27 C
3554 07-03-2016 09:10:00 2.8 C 97 % 2.37 C
3555 07-03-2016 09:15:00 2.9 C 97 % 2.47 C
3556 07-03-2016 09:20:00 2.9 C 97 % 2.47 C
3557 07-03-2016 09:25:00 3 C 97 % 2.57 C
3558 07-03-2016 09:30:00 3.2 C 97 % 2.77 C
3559 07-03-2016 09:35:00 3.3 C 97 % 2.87 C
3560 07-03-2016 09:40:00 3.4 C 97 % 2.97 C
3561 07-03-2016 09:45:00 3.4 C 97 % 2.97 C
3562 07-03-2016 09:50:00 3.5 C 96 % 2.92 C
3563 07-03-2016 09:55:00 3.4 C 96 % 2.82 C
3564 07-03-2016 10:00:00 3.4 C 95 % 2.68 C
3565 07-03-2016 10:05:00 3.4 C 95 % 2.68 C
3566 07-03-2016 10:10:00 3.5 C 95 % 2.78 C
3567 07-03-2016 10:15:00 3.6 C 95 % 2.88 C
3568 07-03-2016 10:20:00 3.7 C 95 % 2.98 C
3569 07-03-2016 10:25:00 3.8 C 95 % 3.07 C
3570 07-03-2016 10:30:00 3.9 C 94 % 3.02 C
3571 07-03-2016 10:35:00 3.9 C 92 % 2.72 C
3572 07-03-2016 10:40:00 3.9 C 92 % 2.72 C
3573 07-03-2016 10:45:00 3.9 C 91 % 2.57 C
3574 07-03-2016 10:50:00 4.1 C 92 % 2.92 C
3575 07-03-2016 10:55:00 4.2 C 90 % 2.71 C
Sensor: Nr:Datum:Temp:Feuchte:Taupunkt:
Aussen-T/F 3576 07-03-2016 11:00:00 4.3 C 91 % 2.96 C
3577 07-03-2016 11:05:00 4.4 C 89 % 2.75 C
3578 07-03-2016 11:10:00 4.4 C 88 % 2.59 C
3579 07-03-2016 11:15:00 4.3 C 89 % 2.65 C
3580 07-03-2016 11:20:00 4.1 C 90 % 2.61 C
3581 07-03-2016 11:25:00 3.9 C 90 % 2.41 C
3582 07-03-2016 11:30:00 3.7 C 91 % 2.37 C
3583 07-03-2016 11:35:00 3.6 C 91 % 2.27 C
3584 07-03-2016 11:40:00 3.4 C 91 % 2.07 C
3585 07-03-2016 11:45:00 3.3 C 91 % 1.98 C
3586 07-03-2016 11:50:00 3.3 C 91 % 1.98 C
3587 07-03-2016 11:55:00 3.3 C 92 % 2.13 C
3588 07-03-2016 12:00:00 3.3 C 92 % 2.13 C
3589 07-03-2016 12:05:00 3.2 C 92 % 2.03 C
3590 07-03-2016 12:10:00 3.2 C 92 % 2.03 C
3591 07-03-2016 12:15:00 3.2 C 93 % 2.18 C
3592 07-03-2016 12:20:00 3.3 C 93 % 2.28 C
3593 07-03-2016 12:25:00 3.4 C 93 % 2.38 C
3594 07-03-2016 12:30:00 3.4 C 93 % 2.38 C
3595 07-03-2016 12:35:00 3.4 C 93 % 2.38 C
3596 07-03-2016 12:40:00 3.5 C 93 % 2.48 C
3597 07-03-2016 12:45:00 3.6 C 93 % 2.58 C
3598 07-03-2016 12:50:00 3.4 C 92 % 2.23 C
3599 07-03-2016 12:55:00 3.4 C 93 % 2.38 C
3600 07-03-2016 13:00:00 3.4 C 93 % 2.38 C
Sensor: Nr:Datum:Temp:Feuchte:Taupunkt:
Aussen-T/F 3601 07-03-2016 13:05:00 3.4 C 93 % 2.38 C
3602 07-03-2016 13:10:00 3.4 C 93 % 2.38 C
3603 07-03-2016 13:15:00 3.4 C 93 % 2.38 C
3604 07-03-2016 13:20:00 3.5 C 92 % 2.33 C
3605 07-03-2016 13:25:00 3.6 C 92 % 2.42 C
3606 07-03-2016 13:30:00 3.6 C 92 % 2.42 C
3607 07-03-2016 13:35:00 3.7 C 92 % 2.52 C
3608 07-03-2016 13:40:00 3.7 C 92 % 2.52 C
3609 07-03-2016 13:45:00 3.8 C 91 % 2.47 C
3610 07-03-2016 13:50:00 3.9 C 90 % 2.41 C
3611 07-03-2016 13:55:00 3.9 C 90 % 2.41 C
3612 07-03-2016 14:00:00 4 C 89 % 2.36 C
3613 07-03-2016 14:05:00 4.2 C 90 % 2.71 C
3614 07-03-2016 14:10:00 4.2 C 89 % 2.55 C
3615 07-03-2016 14:15:00 4.3 C 89 % 2.65 C
3616 07-03-2016 14:20:00 4.4 C 89 % 2.75 C
3617 07-03-2016 14:25:00 4.6 C 89 % 2.95 C
3618 07-03-2016 14:30:00 4.7 C 86 % 2.56 C
3619 07-03-2016 14:35:00 4.7 C 86 % 2.56 C
3620 07-03-2016 14:40:00 4.7 C 85 % 2.4 C
3621 07-03-2016 14:45:00 4.7 C 85 % 2.4 C
3622 07-03-2016 14:50:00 4.8 C 84 % 2.33 C
3623 07-03-2016 14:55:00 4.8 C 83 % 2.16 C
3624 07-03-2016 15:00:00 4.8 C 83 % 2.16 C
3625 07-03-2016 15:05:00 4.8 C 83 % 2.16 C
Sensor: Nr:Datum:Temp:Feuchte:Taupunkt:
Aussen-T/F 3626 07-03-2016 15:10:00 4.7 C 83 % 2.07 C
3627 07-03-2016 15:15:00 4.7 C 84 % 2.23 C
3628 07-03-2016 15:20:00 4.7 C 82 % 1.9 C
3629 07-03-2016 15:25:00 4.7 C 81 % 1.73 C
3630 07-03-2016 15:30:00 4.7 C 81 % 1.73 C
3631 07-03-2016 15:35:00 4.7 C 81 % 1.73 C
3632 07-03-2016 15:40:00 4.7 C 82 % 1.9 C
3633 07-03-2016 15:45:00 4.8 C 84 % 2.33 C
3634 07-03-2016 15:50:00 4.7 C 86 % 2.56 C
3635 07-03-2016 15:55:00 4.6 C 86 % 2.47 C
3636 07-03-2016 16:00:00 4.4 C 86 % 2.27 C
3637 07-03-2016 16:05:00 4.3 C 88 % 2.49 C
3638 07-03-2016 16:10:00 4.3 C 89 % 2.65 C
3639 07-03-2016 16:15:00 4.3 C 89 % 2.65 C
3640 07-03-2016 16:20:00 4.3 C 90 % 2.81 C
3641 07-03-2016 16:25:00 4.4 C 87 % 2.43 C
3642 07-03-2016 16:30:00 4.7 C 86 % 2.56 C
3643 07-03-2016 16:35:00 5 C 83 % 2.36 C
3644 07-03-2016 16:40:00 5 C 83 % 2.36 C
3645 07-03-2016 16:45:00 4.7 C 85 % 2.4 C
3646 07-03-2016 16:50:00 4.4 C 86 % 2.27 C
3647 07-03-2016 16:55:00 4.2 C 87 % 2.23 C
3648 07-03-2016 17:00:00 4 C 88 % 2.2 C
3649 07-03-2016 17:05:00 3.8 C 89 % 2.16 C
3650 07-03-2016 17:10:00 3.7 C 89 % 2.06 C
Sensor: Nr:Datum:Temp:Feuchte:Taupunkt:
Aussen-T/F 3651 07-03-2016 17:15:00 3.6 C 90 % 2.12 C
3652 07-03-2016 17:20:00 3.5 C 90 % 2.02 C
3653 07-03-2016 17:25:00 3.5 C 90 % 2.02 C
3654 07-03-2016 17:30:00 3.5 C 91 % 2.17 C
3655 07-03-2016 17:35:00 3.4 C 91 % 2.07 C
3656 07-03-2016 17:40:00 3.4 C 91 % 2.07 C
3657 07-03-2016 17:45:00 3.3 C 91 % 1.98 C
3658 07-03-2016 17:50:00 3.2 C 91 % 1.88 C
3659 07-03-2016 17:55:00 3.1 C 92 % 1.93 C
3660 07-03-2016 18:00:00 2.9 C 91 % 1.58 C
3661 07-03-2016 18:05:00 2.8 C 92 % 1.63 C
3662 07-03-2016 18:10:00 2.7 C 92 % 1.53 C
3663 07-03-2016 18:15:00 2.5 C 92 % 1.34 C
3664 07-03-2016 18:20:00 2.3 C 92 % 1.14 C
3665 07-03-2016 18:25:00 2.2 C 92 % 1.04 C
3666 07-03-2016 18:30:00 2 C 92 % 0.84 C
3667 07-03-2016 18:35:00 1.9 C 93 % 0.89 C
3668 07-03-2016 18:40:00 1.8 C 93 % 0.79 C
3669 07-03-2016 18:45:00 1.7 C 93 % 0.69 C
3670 07-03-2016 18:50:00 1.6 C 93 % 0.59 C
3671 07-03-2016 18:55:00 1.6 C 94 % 0.74 C
3672 07-03-2016 19:00:00 1.6 C 94 % 0.74 C
3673 07-03-2016 19:05:00 1.6 C 94 % 0.74 C
3674 07-03-2016 19:10:00 1.6 C 94 % 0.74 C
3675 07-03-2016 19:15:00 1.6 C 94 % 0.74 C
Sensor: Nr:Datum:Temp:Feuchte:Taupunkt:
Aussen-T/F 3676 07-03-2016 19:20:00 1.6 C 94 % 0.74 C
3677 07-03-2016 19:25:00 1.6 C 94 % 0.74 C
3678 07-03-2016 19:30:00 1.6 C 95 % 0.89 C
3679 07-03-2016 19:35:00 1.6 C 95 % 0.89 C
3680 07-03-2016 19:40:00 1.5 C 94 % 0.64 C
3681 07-03-2016 19:45:00 1.5 C 94 % 0.64 C
3682 07-03-2016 19:50:00 1.5 C 95 % 0.79 C
3683 07-03-2016 19:55:00 1.5 C 95 % 0.79 C
3684 07-03-2016 20:00:00 1.5 C 95 % 0.79 C
3685 07-03-2016 20:05:00 1.4 C 95 % 0.69 C
3686 07-03-2016 20:10:00 1.3 C 95 % 0.59 C
3687 07-03-2016 20:15:00 1.3 C 95 % 0.59 C
3688 07-03-2016 20:20:00 1.2 C 95 % 0.49 C
3689 07-03-2016 20:25:00 1.2 C 95 % 0.49 C
3690 07-03-2016 20:30:00 1.1 C 95 % 0.39 C
3691 07-03-2016 20:35:00 1.1 C 95 % 0.39 C
3692 07-03-2016 20:40:00 0.9 C 95 % 0.19 C
3693 07-03-2016 20:45:00 0.8 C 95 % 0.09 C
3694 07-03-2016 20:50:00 0.8 C 95 % 0.09 C
3695 07-03-2016 20:55:00 0.8 C 95 % 0.09 C
3696 07-03-2016 21:00:00 0.7 C 95 % -0.01 C
3697 07-03-2016 21:05:00 0.6 C 95 % -0.11 C
3698 07-03-2016 21:10:00 0.6 C 95 % -0.11 C
3699 07-03-2016 21:15:00 0.5 C 95 % -0.21 C
3700 07-03-2016 21:20:00 0.5 C 95 % -0.21 C
Sensor: Nr:Datum:Temp:Feuchte:Taupunkt:
Aussen-T/F 3701 07-03-2016 21:25:00 0.4 C 95 % -0.31 C
3702 07-03-2016 21:30:00 0.6 C 95 % -0.11 C
3703 07-03-2016 21:35:00 0.6 C 95 % -0.11 C
3704 07-03-2016 21:40:00 0.5 C 95 % -0.21 C
3705 07-03-2016 21:45:00 0.4 C 95 % -0.31 C
3706 07-03-2016 21:50:00 0.4 C 95 % -0.31 C
3707 07-03-2016 21:55:00 0.4 C 95 % -0.31 C
3708 07-03-2016 22:00:00 0.3 C 95 % -0.4 C
3709 07-03-2016 22:05:00 0.3 C 95 % -0.4 C
3710 07-03-2016 22:10:00 0.2 C 95 % -0.5 C
3711 07-03-2016 22:15:00 0.2 C 95 % -0.5 C
3712 07-03-2016 22:20:00 0.1 C 95 % -0.6 C
3713 07-03-2016 22:25:00 0.1 C 95 % -0.6 C
3714 07-03-2016 22:30:00 0 C 96 % -0.56 C
3715 07-03-2016 22:35:00 -0.1 C 96 % -0.66 C
3716 07-03-2016 22:40:00 -0.1 C 95 % -0.8 C
3717 07-03-2016 22:45:00 -0.2 C 95 % -0.9 C
3718 07-03-2016 22:50:00 -0.2 C 96 % -0.76 C
3719 07-03-2016 22:55:00 -0.2 C 96 % -0.76 C
3720 07-03-2016 23:00:00 -0.3 C 96 % -0.86 C
3721 07-03-2016 23:05:00 -0.3 C 96 % -0.86 C
3722 07-03-2016 23:10:00 -0.4 C 96 % -0.96 C
3723 07-03-2016 23:15:00 -0.5 C 95 % -1.2 C
3724 07-03-2016 23:20:00 -0.6 C 96 % -1.16 C
3725 07-03-2016 23:25:00 -0.6 C 96 % -1.16 C
Sensor: Nr:Datum:Temp:Feuchte:Taupunkt:
Aussen-T/F 3726 07-03-2016 23:30:00 -0.6 C 96 % -1.16 C
3727 07-03-2016 23:35:00 -0.7 C 96 % -1.26 C
3728 07-03-2016 23:40:00 -0.7 C 96 % -1.26 C
3729 07-03-2016 23:45:00 -0.7 C 96 % -1.26 C
3730 07-03-2016 23:50:00 -0.7 C 96 % -1.26 C
3731 07-03-2016 23:55:00 -0.7 C 96 % -1.26 C
3732 08-03-2016 00:00:00 -0.7 C 96 % -1.26 C
3733 08-03-2016 00:05:00 -0.7 C 96 % -1.26 C
3734 08-03-2016 00:10:00 -0.8 C 96 % -1.36 C
3735 08-03-2016 00:15:00 -0.8 C 96 % -1.36 C
3736 08-03-2016 00:20:00 -0.8 C 96 % -1.36 C
3737 08-03-2016 00:25:00 -0.8 C 96 % -1.36 C
3738 08-03-2016 00:30:00 -0.8 C 96 % -1.36 C
3739 08-03-2016 00:35:00 -0.8 C 96 % -1.36 C
3740 08-03-2016 00:40:00 -0.8 C 96 % -1.36 C
3741 08-03-2016 00:45:00 -0.8 C 96 % -1.36 C
3742 08-03-2016 00:50:00 -0.9 C 96 % -1.46 C
3743 08-03-2016 00:55:00 -1 C 96 % -1.56 C
3744 08-03-2016 01:00:00 -1.1 C 96 % -1.66 C
3745 08-03-2016 01:05:00 -1.1 C 96 % -1.66 C
3746 08-03-2016 01:10:00 -1.1 C 96 % -1.66 C
3747 08-03-2016 01:15:00 -1.1 C 96 % -1.66 C
3748 08-03-2016 01:20:00 -1.1 C 96 % -1.66 C
3749 08-03-2016 01:25:00 -1.1 C 96 % -1.66 C
3750 08-03-2016 01:30:00 -1.1 C 96 % -1.66 C
Sensor: Nr:Datum:Temp:Feuchte:Taupunkt:
Aussen-T/F 3751 08-03-2016 01:35:00 -1 C 96 % -1.56 C
3752 08-03-2016 01:40:00 -0.9 C 96 % -1.46 C
3753 08-03-2016 01:45:00 -0.9 C 96 % -1.46 C
3754 08-03-2016 01:50:00 -0.9 C 96 % -1.46 C
3755 08-03-2016 01:55:00 -1 C 96 % -1.56 C
3756 08-03-2016 02:00:00 -1 C 96 % -1.56 C
3757 08-03-2016 02:05:00 -1 C 96 % -1.56 C
3758 08-03-2016 02:10:00 -0.9 C 96 % -1.46 C
3759 08-03-2016 02:15:00 -0.9 C 96 % -1.46 C
3760 08-03-2016 02:20:00 -0.9 C 96 % -1.46 C
3761 08-03-2016 02:25:00 -0.9 C 96 % -1.46 C
3762 08-03-2016 02:30:00 -0.9 C 96 % -1.46 C
3763 08-03-2016 02:35:00 -0.9 C 96 % -1.46 C
3764 08-03-2016 02:40:00 -0.9 C 96 % -1.46 C
3765 08-03-2016 02:45:00 -0.9 C 96 % -1.46 C
3766 08-03-2016 02:50:00 -0.8 C 96 % -1.36 C
3767 08-03-2016 02:55:00 -0.9 C 96 % -1.46 C
3768 08-03-2016 03:00:00 -0.8 C 96 % -1.36 C
3769 08-03-2016 03:05:00 -0.8 C 97 % -1.22 C
3770 08-03-2016 03:10:00 -0.8 C 97 % -1.22 C
3771 08-03-2016 03:15:00 -0.8 C 96 % -1.36 C
3772 08-03-2016 03:20:00 -0.7 C 96 % -1.26 C
3773 08-03-2016 03:25:00 -0.7 C 96 % -1.26 C
3774 08-03-2016 03:30:00 -0.7 C 96 % -1.26 C
3775 08-03-2016 03:35:00 -0.7 C 96 % -1.26 C
Sensor: Nr:Datum:Temp:Feuchte:Taupunkt:
Aussen-T/F 3776 08-03-2016 03:40:00 -0.6 C 97 % -1.02 C
3777 08-03-2016 03:45:00 -0.6 C 97 % -1.02 C
3778 08-03-2016 03:50:00 -0.6 C 97 % -1.02 C
3779 08-03-2016 03:55:00 -0.6 C 97 % -1.02 C
3780 08-03-2016 04:00:00 -0.5 C 97 % -0.92 C
3781 08-03-2016 04:05:00 -0.5 C 97 % -0.92 C
3782 08-03-2016 04:10:00 -0.4 C 97 % -0.82 C
3783 08-03-2016 04:15:00 -0.4 C 97 % -0.82 C
3784 08-03-2016 04:20:00 -0.4 C 97 % -0.82 C
3785 08-03-2016 04:25:00 -0.4 C 97 % -0.82 C
3786 08-03-2016 04:30:00 -0.4 C 97 % -0.82 C
3787 08-03-2016 04:35:00 -0.3 C 97 % -0.72 C
3788 08-03-2016 04:40:00 -0.3 C 97 % -0.72 C
3789 08-03-2016 04:45:00 -0.3 C 97 % -0.72 C
3790 08-03-2016 04:50:00 -0.3 C 97 % -0.72 C
3791 08-03-2016 04:55:00 -0.2 C 97 % -0.62 C
3792 08-03-2016 05:00:00 -0.2 C 97 % -0.62 C
3793 08-03-2016 05:05:00 -0.2 C 97 % -0.62 C
3794 08-03-2016 05:10:00 -0.1 C 97 % -0.52 C
3795 08-03-2016 05:15:00 -0.1 C 97 % -0.52 C
3796 08-03-2016 05:20:00 -0.2 C 97 % -0.62 C
3797 08-03-2016 05:25:00 -0.2 C 97 % -0.62 C
3798 08-03-2016 05:30:00 -0.2 C 97 % -0.62 C
3799 08-03-2016 05:35:00 -0.2 C 97 % -0.62 C
3800 08-03-2016 05:40:00 -0.2 C 97 % -0.62 C
Sensor: Nr:Datum:Temp:Feuchte:Taupunkt:
Aussen-T/F 3801 08-03-2016 05:45:00 -0.2 C 97 % -0.62 C
3802 08-03-2016 05:50:00 -0.2 C 97 % -0.62 C
3803 08-03-2016 05:55:00 -0.2 C 97 % -0.62 C
3804 08-03-2016 06:00:00 -0.2 C 97 % -0.62 C
3805 08-03-2016 06:05:00 -0.2 C 97 % -0.62 C
3806 08-03-2016 06:10:00 -0.2 C 97 % -0.62 C
3807 08-03-2016 06:15:00 -0.1 C 97 % -0.52 C
3808 08-03-2016 06:20:00 -0.1 C 97 % -0.52 C
3809 08-03-2016 06:25:00 -0.1 C 97 % -0.52 C
3810 08-03-2016 06:30:00 -0.1 C 97 % -0.52 C
3811 08-03-2016 06:35:00 -0.1 C 97 % -0.52 C
3812 08-03-2016 06:40:00 -0.1 C 97 % -0.52 C
3813 08-03-2016 06:45:00 -0.1 C 97 % -0.52 C
3814 08-03-2016 06:50:00 -0.1 C 97 % -0.52 C
3815 08-03-2016 06:55:00 -0.1 C 97 % -0.52 C
3816 08-03-2016 07:00:00 -0.2 C 97 % -0.62 C
3817 08-03-2016 07:05:00 -0.1 C 97 % -0.52 C
3818 08-03-2016 07:10:00 -0.1 C 97 % -0.52 C
3819 08-03-2016 07:15:00 -0.1 C 97 % -0.52 C
3820 08-03-2016 07:20:00 -0.1 C 97 % -0.52 C
3821 08-03-2016 07:25:00 -0.1 C 97 % -0.52 C
3822 08-03-2016 07:30:00 -0.1 C 97 % -0.52 C
3823 08-03-2016 07:35:00 -0.1 C 97 % -0.52 C
3824 08-03-2016 07:40:00 -0.1 C 97 % -0.52 C
3825 08-03-2016 07:45:00 -0.1 C 97 % -0.52 C
Sensor: Nr:Datum:Temp:Feuchte:Taupunkt:
Aussen-T/F 3826 08-03-2016 07:50:00 0 C 97 % -0.42 C
3827 08-03-2016 07:55:00 0 C 97 % -0.42 C
3828 08-03-2016 08:00:00 0 C 97 % -0.42 C
3829 08-03-2016 08:05:00 0 C 97 % -0.42 C
3830 08-03-2016 08:10:00 0.1 C 97 % -0.32 C
3831 08-03-2016 08:15:00 0.1 C 97 % -0.32 C
3832 08-03-2016 08:20:00 0.1 C 97 % -0.32 C
3833 08-03-2016 08:25:00 0.1 C 97 % -0.32 C
3834 08-03-2016 08:30:00 0.2 C 97 % -0.22 C
3835 08-03-2016 08:35:00 0.2 C 97 % -0.22 C
3836 08-03-2016 08:40:00 0.2 C 97 % -0.22 C
3837 08-03-2016 08:45:00 0.3 C 97 % -0.12 C
3838 08-03-2016 08:50:00 0.3 C 97 % -0.12 C
3839 08-03-2016 08:55:00 0.3 C 97 % -0.12 C
3840 08-03-2016 09:00:00 0.3 C 97 % -0.12 C
3841 08-03-2016 09:05:00 0.3 C 97 % -0.12 C
3842 08-03-2016 09:10:00 0.3 C 97 % -0.12 C
3843 08-03-2016 09:15:00 0.3 C 97 % -0.12 C
3844 08-03-2016 09:20:00 0.3 C 97 % -0.12 C
3845 08-03-2016 09:25:00 0.3 C 97 % -0.12 C
3846 08-03-2016 09:30:00 0.3 C 97 % -0.12 C
3847 08-03-2016 09:35:00 0.3 C 97 % -0.12 C
3848 08-03-2016 09:40:00 0.4 C 97 % -0.02 C
3849 08-03-2016 09:45:00 0.4 C 97 % -0.02 C
3850 08-03-2016 09:50:00 0.4 C 97 % -0.02 C
Sensor: Nr:Datum:Temp:Feuchte:Taupunkt:
Aussen-T/F 3851 08-03-2016 09:55:00 0.5 C 97 % 0.08 C
3852 08-03-2016 10:00:00 0.6 C 97 % 0.18 C
3853 08-03-2016 10:05:00 0.7 C 97 % 0.28 C
3854 08-03-2016 10:10:00 0.8 C 97 % 0.38 C
3855 08-03-2016 10:15:00 0.7 C 97 % 0.28 C
3856 08-03-2016 10:20:00 0.7 C 97 % 0.28 C
3857 08-03-2016 10:25:00 0.7 C 97 % 0.28 C
3858 08-03-2016 10:30:00 0.8 C 97 % 0.38 C
3859 08-03-2016 10:35:00 0.8 C 97 % 0.38 C
3860 08-03-2016 10:40:00 0.8 C 97 % 0.38 C
3861 08-03-2016 10:45:00 0.8 C 97 % 0.38 C
3862 08-03-2016 10:50:00 0.9 C 97 % 0.48 C
3863 08-03-2016 10:55:00 0.9 C 97 % 0.48 C
3864 08-03-2016 11:00:00 1 C 97 % 0.58 C
3865 08-03-2016 11:05:00 1.1 C 97 % 0.68 C
3866 08-03-2016 11:10:00 1.1 C 97 % 0.68 C
3867 08-03-2016 11:15:00 1.3 C 97 % 0.88 C
3868 08-03-2016 11:20:00 1.5 C 97 % 1.08 C
3869 08-03-2016 11:25:00 1.5 C 97 % 1.08 C
3870 08-03-2016 11:30:00 1.6 C 97 % 1.18 C
3871 08-03-2016 11:35:00 1.7 C 97 % 1.28 C
3872 08-03-2016 11:40:00 1.7 C 97 % 1.28 C
3873 08-03-2016 11:45:00 1.8 C 97 % 1.38 C
3874 08-03-2016 11:50:00 1.9 C 97 % 1.48 C
3875 08-03-2016 11:55:00 1.8 C 96 % 1.23 C
Sensor: Nr:Datum:Temp:Feuchte:Taupunkt:
Aussen-T/F 3876 08-03-2016 12:00:00 1.8 C 96 % 1.23 C
3877 08-03-2016 12:05:00 2.1 C 96 % 1.53 C
3878 08-03-2016 12:10:00 2.2 C 96 % 1.63 C
3879 08-03-2016 12:15:00 2.3 C 96 % 1.73 C
3880 08-03-2016 12:20:00 2.3 C 96 % 1.73 C
3881 08-03-2016 12:25:00 2.3 C 95 % 1.58 C
3882 08-03-2016 12:30:00 2.3 C 95 % 1.58 C
3883 08-03-2016 12:35:00 2.4 C 95 % 1.68 C
3884 08-03-2016 12:40:00 2.6 C 95 % 1.88 C
3885 08-03-2016 12:45:00 2.7 C 94 % 1.83 C
3886 08-03-2016 12:50:00 2.9 C 94 % 2.03 C
3887 08-03-2016 12:55:00 3.1 C 93 % 2.08 C
3888 08-03-2016 13:00:00 3.4 C 91 % 2.07 C
3889 08-03-2016 13:05:00 3.6 C 89 % 1.96 C
3890 08-03-2016 13:10:00 3.8 C 88 % 2 C
3891 08-03-2016 13:15:00 4.1 C 88 % 2.3 C
3892 08-03-2016 13:20:00 4.3 C 87 % 2.33 C
3893 08-03-2016 13:25:00 4.6 C 84 % 2.14 C
3894 08-03-2016 13:30:00 4.6 C 83 % 1.97 C
3895 08-03-2016 13:35:00 4.7 C 82 % 1.9 C
3896 08-03-2016 13:40:00 4.7 C 82 % 1.9 C
3897 08-03-2016 13:45:00 4.8 C 81 % 1.82 C